Provisional Data: Hunts Run near Cameron, PA


Please select a monitoring station.
Please select start date.
Please select start date.

Toggle Unit: C/F Toggle Unit: C/F
Sample Time Temperature (C) Temperature (F) Specific Conductivity (mS/cm) pH   Turbidity (NTU+) DO (mg/L)
3/7/2021 12:00:00 AM 1.94 35.492 0.03 6.77 1.88 13.52
3/7/2021 12:15:00 AM 1.92 35.456 0.03 6.77 1.95 13.53
3/7/2021 12:30:00 AM 1.89 35.402 0.03 6.74 1.9 13.54
3/7/2021 12:45:00 AM 1.86 35.348 0.03 6.8 1.89 13.55
3/7/2021 1:00:00 AM 1.82 35.276 0.03 6.73 1.92 13.56
3/7/2021 1:15:00 AM 1.78 35.204 0.03 6.7 1.98 13.57
3/7/2021 1:30:00 AM 1.74 35.132 0.03 6.79 1.93 13.59
3/7/2021 1:45:00 AM 1.7 35.06 0.03 6.66 1.92 13.61
3/7/2021 2:00:00 AM 1.66 34.988 0.03 6.76 1.95 13.62
3/7/2021 2:15:00 AM 1.62 34.916 0.03 6.76 1.95 13.64
3/7/2021 2:30:00 AM 1.57 34.826 0.03 6.75 1.92 13.65
3/7/2021 2:45:00 AM 1.53 34.754 0.03 6.78 1.88 13.67
3/7/2021 3:00:00 AM 1.48 34.664 0.03 6.77 1.94 13.69
3/7/2021 3:15:00 AM 1.43 34.574 0.03 6.76 1.88 13.71
3/7/2021 3:30:00 AM 1.39 34.502 0.03 6.75 1.91 13.73
3/7/2021 3:45:00 AM 1.34 34.412 0.03 6.72 1.88 13.75
3/7/2021 4:00:00 AM 1.29 34.322 0.03 6.81 1.94 13.77
3/7/2021 4:15:00 AM 1.24 34.232 0.03 6.71 2.07 13.79
3/7/2021 4:30:00 AM 1.2 34.16 0.03 6.75 1.97 13.82
3/7/2021 4:45:00 AM 1.15 34.07 0.03 6.79 1.88 13.84
3/7/2021 5:00:00 AM 1.1 33.98 0.03 6.73 1.84 13.86
3/7/2021 5:15:00 AM 1.05 33.89 0.03 6.74 1.88 13.89
3/7/2021 5:30:00 AM 1 33.8 0.03 6.76 1.92 13.91
3/7/2021 5:45:00 AM 0.96 33.728 0.03 6.71 1.92 13.93
3/7/2021 6:00:00 AM 0.91 33.638 0.03 6.71 1.84 13.95
3/7/2021 6:15:00 AM 0.86 33.548 0.03 6.79 1.93 13.98
3/7/2021 6:30:00 AM 0.81 33.458 0.03 6.67 1.94 14
3/7/2021 6:45:00 AM 0.77 33.386 0.03 6.78 1.92 14.03
3/7/2021 7:00:00 AM 0.73 33.314 0.03 6.72 1.86 14.06
3/7/2021 7:15:00 AM 0.7 33.26 0.03 6.71 1.86 14.1
3/7/2021 7:30:00 AM 0.67 33.206 0.03 6.71 1.89 14.13
3/7/2021 7:45:00 AM 0.63 33.134 0.03 6.81 1.88 14.16
3/7/2021 8:00:00 AM 0.6 33.08 0.03 6.78 1.9 14.19
3/7/2021 8:15:00 AM 0.58 33.044 0.03 6.82 1.9 14.21
3/7/2021 8:30:00 AM 0.57 33.026 0.03 6.67 1.9 14.22
3/7/2021 8:45:00 AM 0.59 33.062 0.03 6.75 1.88 14.24
3/7/2021 9:00:00 AM 0.63 33.134 0.03 6.73 1.95 14.24
3/7/2021 9:15:00 AM 0.68 33.224 0.03 6.75 1.83 14.24
3/7/2021 9:30:00 AM 0.74 33.332 0.03 6.76 1.88 14.24
3/7/2021 9:45:00 AM 0.81 33.458 0.03 6.78 1.87 14.22
3/7/2021 10:00:00 AM 0.89 33.602 0.03 6.83 1.89 14.2
3/7/2021 10:15:00 AM 1 33.8 0.03 6.78 1.85 14.17
3/7/2021 10:30:00 AM 1.12 34.016 0.03 6.82 1.89 14.13
3/7/2021 10:45:00 AM 1.24 34.232 0.03 6.68 1.84 14.1
3/7/2021 11:00:00 AM 1.38 34.484 0.03 6.77 1.87 14.05
3/7/2021 11:15:00 AM 1.46 34.628 0.03 6.81 1.88 14.01
3/7/2021 11:30:00 AM 1.61 34.898 0.03 6.8 1.83 13.96
3/7/2021 11:45:00 AM 1.76 35.168 0.03 6.7 1.84 13.91
3/7/2021 12:00:00 PM 1.89 35.402 0.03 6.81 1.82 13.85
3/7/2021 12:15:00 PM 1.99 35.582 0.03 6.85 1.82 13.8
3/7/2021 12:30:00 PM 2.12 35.816 0.03 6.82 1.77 13.75
3/7/2021 12:45:00 PM 2.33 36.194 0.03 6.69 1.85 13.68
3/7/2021 1:00:00 PM 2.53 36.554 0.03 6.79 1.76 13.62
3/7/2021 1:15:00 PM 2.7 36.86 0.029 6.8 1.83 13.56
3/7/2021 1:30:00 PM 2.87 37.166 0.029 6.81 1.84 13.49
3/7/2021 1:45:00 PM 3.03 37.454 0.029 6.7 1.78 13.43
3/7/2021 2:00:00 PM 3.15 37.67 0.029 6.83 1.78 13.38
3/7/2021 2:15:00 PM 3.25 37.85 0.029 6.84 1.82 13.34
3/7/2021 2:30:00 PM 3.34 38.012 0.029 6.74 1.85 13.3
3/7/2021 2:45:00 PM 3.38 38.084 0.029 6.77 1.8 13.26
3/7/2021 3:00:00 PM 3.39 38.102 0.029 6.78 1.81 13.24
3/7/2021 3:15:00 PM 3.38 38.084 0.029 6.83 1.81 13.23
3/7/2021 3:30:00 PM 3.36 38.048 0.029 6.83 1.82 13.23
3/7/2021 3:45:00 PM 3.31 37.958 0.029 6.8 1.85 13.23
3/7/2021 4:00:00 PM 3.24 37.832 0.029 6.74 1.88 13.24
3/7/2021 4:15:00 PM 3.15 37.67 0.029 6.83 1.77 13.25
3/7/2021 4:30:00 PM 3.06 37.508 0.029 6.82 1.85 13.27
3/7/2021 4:45:00 PM 2.97 37.346 0.029 6.81 1.88 13.28
3/7/2021 5:00:00 PM 2.9 37.22 0.029 6.77 2 13.29
3/7/2021 5:15:00 PM 2.83 37.094 0.029 6.69 1.93 13.31
3/7/2021 5:30:00 PM 2.77 36.986 0.03 6.76 1.85 13.32
3/7/2021 5:45:00 PM 2.71 36.878 0.03 6.76 1.87 13.33
3/7/2021 6:00:00 PM 2.64 36.752 0.03 6.82 1.88 13.34
3/7/2021 6:15:00 PM 2.59 36.662 0.03 6.7 1.84 13.34
3/7/2021 6:30:00 PM 2.52 36.536 0.03 6.73 1.96 13.35
3/7/2021 6:45:00 PM 2.47 36.446 0.03 6.82 1.82 13.37
3/7/2021 7:00:00 PM 2.42 36.356 0.03 6.67 1.9 13.38
3/7/2021 7:15:00 PM 2.37 36.266 0.03 6.78 1.86 13.39
3/7/2021 7:30:00 PM 2.33 36.194 0.03 6.79 1.8 13.41
3/7/2021 7:45:00 PM 2.29 36.122 0.03 6.67 1.9 13.42
3/7/2021 8:00:00 PM 2.24 36.032 0.03 6.71 1.88 13.45
3/7/2021 8:15:00 PM 2.2 35.96 0.03 6.81 1.89 13.47
3/7/2021 8:30:00 PM 2.15 35.87 0.03 6.69 1.94 13.48
3/7/2021 8:45:00 PM 2.11 35.798 0.03 6.79 1.88 13.5
3/7/2021 9:00:00 PM 2.06 35.708 0.03 6.78 1.92 13.52
3/7/2021 9:15:00 PM 2.02 35.636 0.03 6.69 1.92 13.54
3/7/2021 9:30:00 PM 1.97 35.546 0.03 6.7 1.98 13.56
3/7/2021 9:45:00 PM 1.92 35.456 0.03 6.74 1.91 13.58
3/7/2021 10:00:00 PM 1.87 35.366 0.03 6.72 1.88 13.6
3/7/2021 10:15:00 PM 1.82 35.276 0.03 6.68 1.88 13.62
3/7/2021 10:30:00 PM 1.77 35.186 0.03 6.76 1.84 13.65
3/7/2021 10:45:00 PM 1.72 35.096 0.03 6.71 1.88 13.66
3/7/2021 11:00:00 PM 1.67 35.006 0.03 6.79 1.84 13.69
3/7/2021 11:15:00 PM 1.62 34.916 0.03 6.73 1.91 13.71
3/7/2021 11:30:00 PM 1.57 34.826 0.03 6.77 1.88 13.72
3/7/2021 11:45:00 PM 1.52 34.736 0.03 6.72 1.86 13.75
3/8/2021 12:00:00 AM 1.47 34.646 0.03 6.68 1.92 13.76
3/8/2021 12:15:00 AM 1.42 34.556 0.03 6.73 1.93 13.79
3/8/2021 12:30:00 AM 1.38 34.484 0.03 6.73 1.85 13.8
3/8/2021 12:45:00 AM 1.33 34.394 0.03 6.69 1.92 13.82
3/8/2021 1:00:00 AM 1.29 34.322 0.03 6.8 1.9 13.84
3/8/2021 1:15:00 AM 1.24 34.232 0.03 6.76 1.94 13.87
3/8/2021 1:30:00 AM 1.2 34.16 0.03 6.8 1.95 13.88
3/8/2021 1:45:00 AM 1.15 34.07 0.03 6.6 1.92 13.91
3/8/2021 2:00:00 AM 1.11 33.998 0.03 6.71 1.9 13.92
3/8/2021 2:15:00 AM 1.06 33.908 0.03 6.75 1.91 13.94
3/8/2021 2:30:00 AM 1.01 33.818 0.03 6.78 1.89 13.97
3/8/2021 2:45:00 AM 0.96 33.728 0.03 6.76 1.91 13.98
3/8/2021 3:00:00 AM 0.91 33.638 0.03 6.76 1.86 14
3/8/2021 3:15:00 AM 0.87 33.566 0.03 6.74 1.87 14.02
3/8/2021 3:30:00 AM 0.82 33.476 0.03 6.73 1.84 14.04
3/8/2021 3:45:00 AM 0.77 33.386 0.03 6.79 1.91 14.06
3/8/2021 4:00:00 AM 0.72 33.296 0.03 6.72 1.91 14.1
3/8/2021 4:15:00 AM 0.67 33.206 0.03 6.76 1.89 14.12
3/8/2021 4:30:00 AM 0.62 33.116 0.03 6.7 1.84 14.14
3/8/2021 4:45:00 AM 0.57 33.026 0.03 6.7 1.87 14.16
3/8/2021 5:00:00 AM 0.52 32.936 0.03 6.75 1.82 14.18
3/8/2021 5:15:00 AM 0.47 32.846 0.03 6.73 1.87 14.21
3/8/2021 5:30:00 AM 0.42 32.756 0.03 6.63 1.88 14.22
3/8/2021 5:45:00 AM 0.37 32.666 0.03 6.73 1.89 14.25
3/8/2021 6:00:00 AM 0.32 32.576 0.03 6.79 1.88 14.27
3/8/2021 6:15:00 AM 0.28 32.504 0.03 6.59 1.85 14.3
3/8/2021 6:30:00 AM 0.23 32.414 0.03 6.78 1.88 14.32
3/8/2021 6:45:00 AM 0.19 32.342 0.03 6.73 1.84 14.34
3/8/2021 7:00:00 AM 0.15 32.27 0.03 6.64 1.92 14.37
3/8/2021 7:15:00 AM 0.11 32.198 0.03 6.75 1.9 14.4
3/8/2021 7:30:00 AM 0.08 32.144 0.03 6.71 1.94 14.43
3/8/2021 7:45:00 AM 0.06 32.108 0.03 6.75 1.92 14.46
3/8/2021 8:00:00 AM 0.03 32.054 0.03 6.69 1.85 14.49
3/8/2021 8:15:00 AM 0.02 32.036 0.03 6.73 1.87 14.5
3/8/2021 8:30:00 AM 0.03 32.054 0.03 6.72 1.88 14.52
3/8/2021 8:45:00 AM 0.07 32.126 0.03 6.73 1.89 14.52
3/8/2021 9:00:00 AM 0.14 32.252 0.03 6.81 1.89 14.52
3/8/2021 9:15:00 AM 0.22 32.396 0.03 6.7 1.86 14.51
3/8/2021 9:30:00 AM 0.3 32.54 0.03 6.72 1.81 14.49
3/8/2021 9:45:00 AM 0.39 32.702 0.03 6.82 1.83 14.46
3/8/2021 10:00:00 AM 0.51 32.918 0.03 6.65 1.86 14.43
3/8/2021 10:15:00 AM 0.63 33.134 0.03 6.82 1.81 14.39
3/8/2021 10:30:00 AM 0.79 33.422 0.03 6.65 1.81 14.34
3/8/2021 10:45:00 AM 0.87 33.566 0.03 6.82 1.79 14.3
3/8/2021 11:00:00 AM 0.97 33.746 0.03 6.78 1.85 14.26
3/8/2021 11:15:00 AM 1.12 34.016 0.03 6.78 1.83 14.2
3/8/2021 11:30:00 AM 1.33 34.394 0.03 6.73 1.83 14.15
3/8/2021 11:45:00 AM 1.52 34.736 0.03 6.79 1.79 14.07
3/8/2021 12:00:00 PM 1.49 34.682 0.03 6.83 1.81 14.04
3/8/2021 12:15:00 PM 1.49 34.682 0.03 6.79 1.83 14.02
3/8/2021 12:30:00 PM 1.55 34.79 0.03 6.84 2.14 13.99
3/8/2021 12:45:00 PM 1.65 34.97 0.03 6.82 2.06 13.96
3/8/2021 1:00:00 PM 1.75 35.15 0.03 6.69 1.97 13.93
3/8/2021 1:15:00 PM 1.85 35.33 0.03 6.79 1.83 13.9
3/8/2021 1:30:00 PM 1.96 35.528 0.03 6.72 1.97 13.86
3/8/2021 1:45:00 PM 2.09 35.762 0.03 6.81 1.96 13.82
3/8/2021 2:00:00 PM 2.27 36.086 0.03 6.8 1.95 13.75
3/8/2021 2:15:00 PM 2.36 36.248 0.03 6.67 1.65 13.71
3/8/2021 2:30:00 PM 2.41 36.338 0.03 6.83 1.8 13.67
3/8/2021 2:45:00 PM 2.5 36.5 0.029 6.73 1.79 13.64
3/8/2021 3:00:00 PM 2.6 36.68 0.03 6.76 1.74 13.58
3/8/2021 3:15:00 PM 2.67 36.806 0.03 6.73 1.96 13.54
3/8/2021 3:30:00 PM 2.71 36.878 0.03 6.78 1.75 13.52
3/8/2021 3:45:00 PM 2.74 36.932 0.03 6.75 1.91 13.5
3/8/2021 4:00:00 PM 2.77 36.986 0.03 6.84 1.79 13.48
3/8/2021 4:15:00 PM 2.77 36.986 0.03 6.79 1.74 13.45
3/8/2021 4:30:00 PM 2.75 36.95 0.03 6.85 1.8 13.44
3/8/2021 4:45:00 PM 2.73 36.914 0.03 6.73 1.73 13.43
3/8/2021 5:00:00 PM 2.7 36.86 0.03 6.81 1.81 13.42
3/8/2021 5:15:00 PM 2.66 36.788 0.03 6.79 2.24 13.41
3/8/2021 5:30:00 PM 2.62 36.716 0.03 6.72 2.03 13.41
3/8/2021 5:45:00 PM 2.59 36.662 0.03 6.72 2.02 13.38
3/8/2021 6:00:00 PM 2.57 36.626 0.03 6.78 1.99 13.37
3/8/2021 6:15:00 PM 2.54 36.572 0.03 6.76 2.66 13.36
3/8/2021 6:30:00 PM 2.51 36.518 0.03 6.66 1.96 13.36
3/8/2021 6:45:00 PM 2.48 36.464 0.03 6.77 1.9 13.35
3/8/2021 7:00:00 PM 2.45 36.41 0.03 6.69 1.9 13.36
3/8/2021 7:15:00 PM 2.43 36.374 0.03 6.8 1.84 13.37
3/8/2021 7:30:00 PM 2.4 36.32 0.03 6.63 1.79 13.37
3/8/2021 7:45:00 PM 2.38 36.284 0.03 6.73 1.98 13.37
3/8/2021 8:00:00 PM 2.35 36.23 0.03 6.73 1.92 13.38
3/8/2021 8:15:00 PM 2.33 36.194 0.03 6.7 2.05 13.38
3/8/2021 8:30:00 PM 2.3 36.14 0.03 6.68 1.96 13.39
3/8/2021 8:45:00 PM 2.28 36.104 0.03 6.72 1.98 13.41
3/8/2021 9:00:00 PM 2.25 36.05 0.03 6.76 1.99 13.42
3/8/2021 9:15:00 PM 2.23 36.014 0.03 6.71 2.1 13.42
3/8/2021 9:30:00 PM 2.21 35.978 0.03 6.73 2.1 13.44
3/8/2021 9:45:00 PM 2.21 35.978 0.03 6.68 2 13.45
3/8/2021 10:00:00 PM 2.21 35.978 0.03 6.73 1.93 13.45
3/8/2021 10:15:00 PM 2.21 35.978 0.03 6.79 1.94 13.45
3/8/2021 10:30:00 PM 2.21 35.978 0.03 6.65 1.98 13.45
3/8/2021 10:45:00 PM 2.22 35.996 0.03 6.73 1.95 13.45
3/8/2021 11:00:00 PM 2.22 35.996 0.03 6.76 1.94 13.44
3/8/2021 11:15:00 PM 2.21 35.978 0.03 6.76 1.96 13.45
3/8/2021 11:30:00 PM 2.19 35.942 0.03 6.74 1.91 13.45
3/8/2021 11:45:00 PM 2.17 35.906 0.03 6.67 1.9 13.45
3/9/2021 12:00:00 AM 2.16 35.888 0.03 6.74 2.28 13.45
3/9/2021 12:15:00 AM 2.14 35.852 0.03 6.76 2.12 13.45
3/9/2021 12:30:00 AM 2.14 35.852 0.03 6.75 2 13.46
3/9/2021 12:45:00 AM 2.15 35.87 0.03 6.72 1.99 13.46
3/9/2021 1:00:00 AM 2.15 35.87 0.03 6.78 1.95 13.46
3/9/2021 1:15:00 AM 2.15 35.87 0.03 6.7 2.02 13.46
3/9/2021 1:30:00 AM 2.16 35.888 0.03 6.75 1.95 13.45
3/9/2021 1:45:00 AM 2.16 35.888 0.03 6.76 2.03 13.45
3/9/2021 2:00:00 AM 2.15 35.87 0.03 6.77 2.16 13.46
3/9/2021 2:15:00 AM 2.14 35.852 0.03 6.76 2.1 13.45
3/9/2021 2:30:00 AM 2.14 35.852 0.03 6.7 2.07 13.46
3/9/2021 2:45:00 AM 2.14 35.852 0.03 6.79 2.05 13.45
3/9/2021 3:00:00 AM 2.15 35.87 0.03 6.75 2.09 13.45
3/9/2021 3:15:00 AM 2.15 35.87 0.03 6.75 2.05 13.45
3/9/2021 3:30:00 AM 2.14 35.852 0.03 6.67 1.97 13.45
3/9/2021 3:45:00 AM 2.12 35.816 0.03 6.7 1.96 13.45
3/9/2021 4:00:00 AM 2.1 35.78 0.03 6.8 1.97 13.45
3/9/2021 4:15:00 AM 2.09 35.762 0.03 6.69 1.98 13.46
3/9/2021 4:30:00 AM 2.07 35.726 0.03 6.76 1.97 13.47
3/9/2021 4:45:00 AM 2.06 35.708 0.03 6.66 2.06 13.48
3/9/2021 5:00:00 AM 2.04 35.672 0.03 6.75 1.96 13.48
3/9/2021 5:15:00 AM 2.02 35.636 0.03 6.75 2.02 13.47
3/9/2021 5:30:00 AM 2 35.6 0.03 6.76 2.03 13.5
3/9/2021 5:45:00 AM 1.99 35.582 0.03 6.71 2.15 13.49
3/9/2021 6:00:00 AM 1.97 35.546 0.03 6.74 2 13.5
3/9/2021 6:15:00 AM 1.95 35.51 0.03 6.64 2.04 13.53
3/9/2021 6:30:00 AM 1.93 35.474 0.03 6.79 1.76 13.54
3/9/2021 6:45:00 AM 1.91 35.438 0.03 6.6 1.93 13.55
3/9/2021 7:00:00 AM 1.9 35.42 0.03 6.77 1.86 13.57
3/9/2021 7:15:00 AM 1.9 35.42 0.03 6.75 1.92 13.59
3/9/2021 7:30:00 AM 1.89 35.402 0.03 6.67 2.25 13.62
3/9/2021 7:45:00 AM 1.89 35.402 0.03 6.79 1.9 13.65
3/9/2021 8:00:00 AM 1.9 35.42 0.03 6.78 1.85 13.67
3/9/2021 8:15:00 AM 1.92 35.456 0.03 6.74 1.86 13.67
3/9/2021 8:30:00 AM 1.96 35.528 0.03 6.71 1.72 13.69
3/9/2021 8:45:00 AM 2 35.6 0.03 6.79 1.87 13.68
3/9/2021 9:00:00 AM 2.07 35.726 0.03 6.79 1.86 13.69
3/9/2021 9:15:00 AM 2.15 35.87 0.03 6.71 1.93 13.67
3/9/2021 9:30:00 AM 2.23 36.014 0.03 6.82 1.94 13.65
3/9/2021 9:45:00 AM 2.33 36.194 0.03 6.84 1.9 13.63
3/9/2021 10:00:00 AM 2.44 36.392 0.03 6.66 1.86 13.6
3/9/2021 10:15:00 AM 2.56 36.608 0.03 6.75 1.99 13.56
3/9/2021 10:30:00 AM 2.7 36.86 0.03 6.81 1.92 13.53
3/9/2021 10:45:00 AM 2.85 37.13 0.03 6.81 1.97 13.48
3/9/2021 11:00:00 AM 3.02 37.436 0.03 6.81 1.8 13.43
3/9/2021 11:15:00 AM 3.21 37.778 0.03 6.84 1.8 13.37
3/9/2021 11:30:00 AM 3.41 38.138 0.03 6.68 1.9 13.31
3/9/2021 11:45:00 AM 3.6 38.48 0.03 6.8 1.81 13.24
3/9/2021 12:00:00 PM 3.8 38.84 0.03 6.86 1.79 13.17
3/9/2021 12:15:00 PM 3.99 39.182 0.03 6.83 1.98 13.1
3/9/2021 12:30:00 PM 4.18 39.524 0.03 6.83 1.86 13.03
3/9/2021 12:45:00 PM 4.4 39.92 0.03 6.83 1.9 12.96
3/9/2021 1:00:00 PM 4.61 40.298 0.03 6.72 1.91 12.89
3/9/2021 1:15:00 PM 4.81 40.658 0.03 6.88 5.56 12.81
3/9/2021 1:30:00 PM 5.01 41.018 0.03 6.71 4.91 12.75
3/9/2021 1:45:00 PM 5.2 41.36 0.03 6.87 3.67 12.67
3/9/2021 2:00:00 PM 5.37 41.666 0.03 6.84 3.7 12.62
3/9/2021 2:15:00 PM 5.5 41.9 0.03 6.74 6.59 12.55
3/9/2021 2:30:00 PM 5.6 42.08 0.03 6.76 1.77 12.52
3/9/2021 2:45:00 PM 5.69 42.242 0.03 6.87 1.83 12.47
3/9/2021 3:00:00 PM 5.72 42.296 0.03 6.85 1.85 12.44
3/9/2021 3:15:00 PM 5.71 42.278 0.03 6.72 4.92 12.42
3/9/2021 3:30:00 PM 5.71 42.278 0.03 6.88 2.01 12.41
3/9/2021 3:45:00 PM 5.67 42.206 0.03 6.73 1.85 12.41
3/9/2021 4:00:00 PM 5.59 42.062 0.03 6.79 1.86 12.41
3/9/2021 4:15:00 PM 5.49 41.882 0.03 6.81 2.02 12.42
3/9/2021 4:30:00 PM 5.38 41.684 0.03 6.84 3.8 12.44
3/9/2021 4:45:00 PM 5.27 41.486 0.03 6.84 2.11 12.45
3/9/2021 5:00:00 PM 5.16 41.288 0.03 6.82 2.16 12.47
3/9/2021 5:15:00 PM 5.06 41.108 0.03 6.7 3.06 12.49
3/9/2021 5:30:00 PM 4.96 40.928 0.03 6.83 2.18 12.5
3/9/2021 5:45:00 PM 4.86 40.748 0.03 6.82 2.28 12.53
3/9/2021 6:00:00 PM 4.77 40.586 0.03 6.84 2.42 12.54
3/9/2021 6:15:00 PM 4.68 40.424 0.03 6.74 2.38 12.55
3/9/2021 6:30:00 PM 4.59 40.262 0.03 6.68 2.86 12.55
3/9/2021 6:45:00 PM 4.52 40.136 0.03 6.73 2.26 12.58
3/9/2021 7:00:00 PM 4.44 39.992 0.03 6.71 2.22 12.6
3/9/2021 7:15:00 PM 4.38 39.884 0.03 6.69 2.87 12.63
3/9/2021 7:30:00 PM 4.31 39.758 0.03 6.82 2.33 12.65
3/9/2021 7:45:00 PM 4.25 39.65 0.03 6.58 2.37 12.67
3/9/2021 8:00:00 PM 4.19 39.542 0.03 6.75 2.52 12.7
3/9/2021 8:15:00 PM 4.13 39.434 0.03 6.76 2.49 12.73
3/9/2021 8:30:00 PM 4.08 39.344 0.03 6.73 2.47 12.75
3/9/2021 8:45:00 PM 4.02 39.236 0.03 6.79 2.47 12.77
3/9/2021 9:00:00 PM 3.96 39.128 0.03 6.82 2.5 12.79
3/9/2021 9:15:00 PM 3.9 39.02 0.03 6.77 2.51 12.81
3/9/2021 9:30:00 PM 3.85 38.93 0.03 6.75 2.5 12.83
3/9/2021 9:45:00 PM 3.79 38.822 0.03 6.78 2.48 12.86
3/9/2021 10:00:00 PM 3.73 38.714 0.029 6.67 2.47 12.89
3/9/2021 10:15:00 PM 3.68 38.624 0.029 6.81 2.49 12.91
3/9/2021 10:30:00 PM 3.62 38.516 0.029 6.74 2.45 12.93
3/9/2021 10:45:00 PM 3.57 38.426 0.029 6.77 2.34 12.95
3/9/2021 11:00:00 PM 3.51 38.318 0.029 6.67 2.47 12.97
3/9/2021 11:15:00 PM 3.46 38.228 0.029 6.71 2.28 12.99
3/9/2021 11:30:00 PM 3.41 38.138 0.029 6.71 2.3 13.02
3/9/2021 11:45:00 PM 3.36 38.048 0.029 6.78 2.47 13.03
3/10/2021 12:00:00 AM 3.32 37.976 0.029 6.68 2.47 13.05
3/10/2021 12:15:00 AM 3.28 37.904 0.029 6.73 2.48 13.07
3/10/2021 12:30:00 AM 3.24 37.832 0.029 6.73 2.46 13.08
3/10/2021 12:45:00 AM 3.2 37.76 0.029 6.78 2.43 13.09
3/10/2021 1:00:00 AM 3.16 37.688 0.029 6.65 2.38 13.11
3/10/2021 1:15:00 AM 3.12 37.616 0.029 6.72 2.37 13.13
3/10/2021 1:30:00 AM 3.08 37.544 0.029 6.71 2.36 13.14
3/10/2021 1:45:00 AM 3.04 37.472 0.029 6.78 2.41 13.16
3/10/2021 2:00:00 AM 3.01 37.418 0.029 6.74 2.36 13.17
3/10/2021 2:15:00 AM 2.97 37.346 0.029 6.73 2.32 13.19
3/10/2021 2:30:00 AM 2.93 37.274 0.029 6.65 2.29 13.2
3/10/2021 2:45:00 AM 2.89 37.202 0.029 6.74 2.3 13.22
3/10/2021 3:00:00 AM 2.86 37.148 0.029 6.76 2.35 13.23
3/10/2021 3:15:00 AM 2.82 37.076 0.029 6.76 2.28 13.25
3/10/2021 3:30:00 AM 2.78 37.004 0.029 6.64 2.31 13.26
3/10/2021 3:45:00 AM 2.75 36.95 0.029 6.69 2.34 13.27
3/10/2021 4:00:00 AM 2.71 36.878 0.029 6.77 2.33 13.28
3/10/2021 4:15:00 AM 2.68 36.824 0.029 6.71 2.25 13.3
3/10/2021 4:30:00 AM 2.64 36.752 0.029 6.72 2.22 13.31
3/10/2021 4:45:00 AM 2.61 36.698 0.029 6.67 2.16 13.32
3/10/2021 5:00:00 AM 2.58 36.644 0.029 6.78 2.19 13.33
3/10/2021 5:15:00 AM 2.54 36.572 0.029 6.72 2.16 13.35
3/10/2021 5:30:00 AM 2.51 36.518 0.029 6.69 2.1 13.37
3/10/2021 5:45:00 AM 2.48 36.464 0.029 6.77 2.2 13.38
3/10/2021 6:00:00 AM 2.44 36.392 0.029 6.74 2.14 13.39
3/10/2021 6:15:00 AM 2.41 36.338 0.029 6.74 2.18 13.4
3/10/2021 6:30:00 AM 2.38 36.284 0.029 6.75 2.01 13.42
3/10/2021 6:45:00 AM 2.35 36.23 0.029 6.67 2.02 13.43
3/10/2021 7:00:00 AM 2.32 36.176 0.029 6.64 2.44 13.44
3/10/2021 7:15:00 AM 2.3 36.14 0.029 6.69 2.35 13.48
3/10/2021 7:30:00 AM 2.28 36.104 0.029 6.7 2.46 13.51
3/10/2021 7:45:00 AM 2.26 36.068 0.029 6.78 2.51 13.53
3/10/2021 8:00:00 AM 2.25 36.05 0.029 6.76 2.41 13.55
3/10/2021 8:15:00 AM 2.25 36.05 0.029 6.64 2.34 13.57
3/10/2021 8:30:00 AM 2.27 36.086 0.029 6.72 2.02 13.58
3/10/2021 8:45:00 AM 2.32 36.176 0.029 6.7 2.17 13.58
3/10/2021 9:00:00 AM 2.38 36.284 0.029 6.8 2.37 13.58
3/10/2021 9:15:00 AM 2.44 36.392 0.029 6.75 2.24 13.58
3/10/2021 9:30:00 AM 2.51 36.518 0.029 6.76 2.18 13.56
3/10/2021 9:45:00 AM 2.6 36.68 0.029 6.71 2.03 13.54
3/10/2021 10:00:00 AM 2.7 36.86 0.029 6.8 2.09 13.51
3/10/2021 10:15:00 AM 2.83 37.094 0.029 6.67 2.04 13.48
3/10/2021 10:30:00 AM 2.98 37.364 0.029 6.8 2.07 13.43
3/10/2021 10:45:00 AM 3.13 37.634 0.029 6.76 1.95 13.39
3/10/2021 11:00:00 AM 3.29 37.922 0.029 6.78 2.14 13.33
3/10/2021 11:15:00 AM 3.46 38.228 0.029 6.72 2.04 13.28
3/10/2021 11:30:00 AM 3.65 38.57 0.029 6.83 2.02 13.21
3/10/2021 11:45:00 AM 3.84 38.912 0.029 6.73 1.98 13.14
3/10/2021 12:00:00 PM 4.04 39.272 0.029 6.73 2.09 13.07
3/10/2021 12:15:00 PM 4.27 39.686 0.029 6.82 1.99 12.99
3/10/2021 12:30:00 PM 4.49 40.082 0.029 6.78 2.27 12.92
3/10/2021 12:45:00 PM 4.72 40.496 0.029 6.72 2.22 12.84
3/10/2021 1:00:00 PM 4.96 40.928 0.029 6.79 2.19 12.75
3/10/2021 1:15:00 PM 5.19 41.342 0.029 6.69 2.24 12.67
3/10/2021 1:30:00 PM 5.4 41.72 0.029 6.76 2.41 12.6
3/10/2021 1:45:00 PM 5.58 42.044 0.029 6.83 2.14 12.53
3/10/2021 2:00:00 PM 5.75 42.35 0.029 6.75 2.04 12.47
3/10/2021 2:15:00 PM 5.9 42.62 0.029 6.86 1.89 12.41
3/10/2021 2:30:00 PM 6.01 42.818 0.029 6.66 2.03 12.36
3/10/2021 2:45:00 PM 6.1 42.98 0.029 6.79 2.09 12.32
3/10/2021 3:00:00 PM 6.13 43.034 0.029 6.85 2.04 12.28
3/10/2021 3:15:00 PM 6.14 43.052 0.029 6.72 2.06 12.26
3/10/2021 3:30:00 PM 6.14 43.052 0.029 6.8 2.17 12.25
3/10/2021 3:45:00 PM 6.08 42.944 0.029 6.83 2.43 12.24
3/10/2021 4:00:00 PM 6.01 42.818 0.029 6.85 2.56 12.24
3/10/2021 4:15:00 PM 5.94 42.692 0.029 6.87 2.26 12.25
3/10/2021 4:30:00 PM 5.86 42.548 0.029 6.85 2.45 12.26
3/10/2021 4:45:00 PM 5.8 42.44 0.029 6.84 2.47 12.27
3/10/2021 5:00:00 PM 5.74 42.332 0.029 6.78 2.55 12.28
3/10/2021 5:15:00 PM 5.66 42.188 0.029 6.76 2.61 12.28
3/10/2021 5:30:00 PM 5.6 42.08 0.029 6.79 2.64 12.27
3/10/2021 5:45:00 PM 5.53 41.954 0.029 6.69 2.63 12.29
3/10/2021 6:00:00 PM 5.46 41.828 0.029 6.86 2.58 12.28
3/10/2021 6:15:00 PM 5.4 41.72 0.029 6.82 2.9 12.28
3/10/2021 6:30:00 PM 5.35 41.63 0.029 6.74 2.98 12.29
3/10/2021 6:45:00 PM 5.29 41.522 0.029 6.86 3.13 12.3
3/10/2021 7:00:00 PM 5.23 41.414 0.029 6.79 3.29 12.32
3/10/2021 7:15:00 PM 5.18 41.324 0.029 6.81 3.34 12.34
3/10/2021 7:30:00 PM 5.11 41.198 0.028 6.82 3.45 12.36
3/10/2021 7:45:00 PM 5.05 41.09 0.028 6.75 3.6 12.38
3/10/2021 8:00:00 PM 4.99 40.982 0.028 6.79 3.6 12.41
3/10/2021 8:15:00 PM 4.93 40.874 0.028 6.78 3.55 12.43
3/10/2021 8:30:00 PM 4.87 40.766 0.028 6.82 3.69 12.45
3/10/2021 8:45:00 PM 4.81 40.658 0.028 6.72 3.73 12.47
3/10/2021 9:00:00 PM 4.75 40.55 0.028 6.82 3.66 12.49
3/10/2021 9:15:00 PM 4.7 40.46 0.028 6.73 3.75 12.51
3/10/2021 9:30:00 PM 4.66 40.388 0.028 6.76 3.63 12.53
3/10/2021 9:45:00 PM 4.62 40.316 0.028 6.73 3.71 12.55
3/10/2021 10:00:00 PM 4.58 40.244 0.027 6.74 3.74 12.56
3/10/2021 10:15:00 PM 4.53 40.154 0.027 6.75 3.64 12.58
3/10/2021 10:30:00 PM 4.49 40.082 0.027 6.79 3.65 12.6
3/10/2021 10:45:00 PM 4.44 39.992 0.027 6.77 3.73 12.61
3/10/2021 11:00:00 PM 4.41 39.938 0.027 6.8 3.71 12.63
3/10/2021 11:15:00 PM 4.37 39.866 0.027 6.7 3.7 12.65
3/10/2021 11:30:00 PM 4.34 39.812 0.027 6.71 3.64 12.66
3/10/2021 11:45:00 PM 4.31 39.758 0.027 6.73 3.6 12.67
3/11/2021 12:00:00 AM 4.28 39.704 0.027 6.73 3.61 12.69
3/11/2021 12:15:00 AM 4.25 39.65 0.027 6.77 3.51 12.7
3/11/2021 12:30:00 AM 4.22 39.596 0.027 6.77 3.53 12.7
3/11/2021 12:45:00 AM 4.2 39.56 0.027 6.73 3.45 12.71
3/11/2021 1:00:00 AM 4.18 39.524 0.027 6.78 3.57 12.72
3/11/2021 1:15:00 AM 4.16 39.488 0.027 6.76 3.51 12.73
3/11/2021 1:30:00 AM 4.14 39.452 0.027 6.71 3.46 12.74
3/11/2021 1:45:00 AM 4.12 39.416 0.027 6.74 3.41 12.74
3/11/2021 2:00:00 AM 4.1 39.38 0.027 6.73 3.29 12.75
3/11/2021 2:15:00 AM 4.09 39.362 0.027 6.8 3.24 12.75
3/11/2021 2:30:00 AM 4.08 39.344 0.027 6.74 3.23 12.75
3/11/2021 2:45:00 AM 4.07 39.326 0.027 6.7 3.2 12.76
3/11/2021 3:00:00 AM 4.05 39.29 0.027 6.73 3.2 12.76
3/11/2021 3:15:00 AM 4.04 39.272 0.027 6.72 3.16 12.77
3/11/2021 3:30:00 AM 4.03 39.254 0.027 6.76 3.04 12.77
3/11/2021 3:45:00 AM 4.02 39.236 0.027 6.76 3.1 12.77
3/11/2021 4:00:00 AM 4.01 39.218 0.027 6.76 3.18 12.77
3/11/2021 4:15:00 AM 4 39.2 0.027 6.77 3.08 12.78
3/11/2021 4:30:00 AM 3.99 39.182 0.027 6.71 3.15 12.78
3/11/2021 4:45:00 AM 3.98 39.164 0.027 6.73 2.98 12.79
3/11/2021 5:00:00 AM 3.96 39.128 0.027 6.73 3.04 12.79
3/11/2021 5:15:00 AM 3.94 39.092 0.027 6.77 3.08 12.8
3/11/2021 5:30:00 AM 3.92 39.056 0.027 6.7 3.04 12.8
3/11/2021 5:45:00 AM 3.91 39.038 0.027 6.78 3.05 12.81
3/11/2021 6:00:00 AM 3.89 39.002 0.027 6.71 2.99 12.81
3/11/2021 6:15:00 AM 3.87 38.966 0.027 6.78 3.14 12.82
3/11/2021 6:30:00 AM 3.85 38.93 0.027 6.72 3.22 12.83
3/11/2021 6:45:00 AM 3.83 38.894 0.027 6.79 3.02 12.84
3/11/2021 7:00:00 AM 3.81 38.858 0.027 6.72 3.18 12.85
3/11/2021 7:15:00 AM 3.8 38.84 0.027 6.75 3.17 12.87
3/11/2021 7:30:00 AM 3.82 38.876 0.027 6.79 3.13 12.89
3/11/2021 7:45:00 AM 3.84 38.912 0.027 6.75 3.01 12.9
3/11/2021 8:00:00 AM 3.85 38.93 0.027 6.78 3.03 12.9
3/11/2021 8:15:00 AM 3.88 38.984 0.027 6.77 3.01 12.91
3/11/2021 8:30:00 AM 3.92 39.056 0.027 6.8 3.08 12.91
3/11/2021 8:45:00 AM 3.97 39.146 0.027 6.81 3.13 12.9
3/11/2021 9:00:00 AM 3.98 39.164 0.027 6.73 3.04 12.87
3/11/2021 9:15:00 AM 4.01 39.218 0.027 6.82 3.14 12.86
3/11/2021 9:30:00 AM 4.06 39.308 0.027 6.77 3.14 12.85
3/11/2021 9:45:00 AM 4.13 39.434 0.027 6.78 3 12.85
3/11/2021 10:00:00 AM 4.21 39.578 0.027 6.77 3.09 12.84
3/11/2021 10:15:00 AM 4.3 39.74 0.027 6.83 3.07 12.82
3/11/2021 10:30:00 AM 4.42 39.956 0.027 6.84 3.05 12.79
3/11/2021 10:45:00 AM 4.53 40.154 0.027 6.76 3.15 12.76
3/11/2021 11:00:00 AM 4.62 40.316 0.027 6.8 3.18 12.72
3/11/2021 11:15:00 AM 4.71 40.478 0.027 6.86 3.19 12.68
3/11/2021 11:30:00 AM 4.81 40.658 0.027 6.86 3.16 12.64
3/11/2021 11:45:00 AM 4.9 40.82 0.027 6.79 3.26 12.61
3/11/2021 12:00:00 PM 4.99 40.982 0.027 6.81 3.39 12.57
3/11/2021 12:15:00 PM 5.06 41.108 0.027 6.87 3.31 12.54
3/11/2021 12:30:00 PM 5.18 41.324 0.027 6.83 3.32 12.51
3/11/2021 12:45:00 PM 5.31 41.558 0.027 6.87 3.39 12.48
3/11/2021 1:00:00 PM 5.42 41.756 0.027 6.87 3.48 12.44
3/11/2021 1:15:00 PM 5.5 41.9 0.027 6.84 3.54 12.41
3/11/2021 1:30:00 PM 5.61 42.098 0.027 6.83 3.58 12.37
3/11/2021 1:45:00 PM 5.72 42.296 0.027 6.83 3.69 12.34
3/11/2021 2:00:00 PM 5.79 42.422 0.027 6.89 4.23 12.3
3/11/2021 2:15:00 PM 5.86 42.548 0.027 6.8 4.11 12.26
3/11/2021 2:30:00 PM 5.9 42.62 0.027 6.89 4.19 12.23
3/11/2021 2:45:00 PM 5.92 42.656 0.027 6.76 4.73 12.19
3/11/2021 3:00:00 PM 5.94 42.692 0.027 6.82 4.82 12.17
3/11/2021 3:15:00 PM 5.94 42.692 0.027 6.83 5.16 12.17
3/11/2021 3:30:00 PM 6 42.8 0.027 6.83 5.95 12.18
3/11/2021 3:45:00 PM 5.99 42.782 0.027 6.81 6.58 12.17
3/11/2021 4:00:00 PM 6 42.8 0.027 6.86 7.3 12.16
3/11/2021 4:15:00 PM 6.02 42.836 0.027 6.83 8.33 12.16
3/11/2021 4:30:00 PM 6.05 42.89 0.027 6.86 8.65 12.16
3/11/2021 4:45:00 PM 6.04 42.872 0.027 6.84 9.39 12.13
3/11/2021 5:00:00 PM 6.04 42.872 0.027 6.75 10.33 12.12
3/11/2021 5:15:00 PM 6.02 42.836 0.027 6.79 10.94 12.12
3/11/2021 5:30:00 PM 5.98 42.764 0.027 6.81 12.48 12.12
3/11/2021 5:45:00 PM 5.95 42.71 0.027 6.79 12.81 12.13
3/11/2021 6:00:00 PM 5.91 42.638 0.027 6.77 13.29 12.13
3/11/2021 6:15:00 PM 5.86 42.548 0.026 6.75 13.06 12.14
3/11/2021 6:30:00 PM 5.82 42.476 0.026 6.79 13.98 12.15
3/11/2021 6:45:00 PM 5.78 42.404 0.026 6.78 15.34 12.16
3/11/2021 7:00:00 PM 5.74 42.332 0.026 6.77 14.98 12.17
3/11/2021 7:15:00 PM 5.71 42.278 0.026 6.74 15.35 12.19
3/11/2021 7:30:00 PM 5.68 42.224 0.026 6.71 18.08 12.2
3/11/2021 7:45:00 PM 5.64 42.152 0.026 6.79 20.69 12.22
3/11/2021 8:00:00 PM 5.61 42.098 0.026 6.73 21.46 12.23
3/11/2021 8:15:00 PM 5.59 42.062 0.026 6.75 15.18 12.25
3/11/2021 8:30:00 PM 5.54 41.972 0.026 6.77 15.47 12.26
3/11/2021 8:45:00 PM 5.51 41.918 0.025 6.64 13.55 12.27
3/11/2021 9:00:00 PM 5.48 41.864 0.025 6.69 27.81 12.28
3/11/2021 9:15:00 PM 5.44 41.792 0.025 6.73 16.26 12.3
3/11/2021 9:30:00 PM 5.41 41.738 0.025 6.69 14.87 12.31
3/11/2021 9:45:00 PM 5.38 41.684 0.025 6.69 12.55 12.32
3/11/2021 10:00:00 PM 5.35 41.63 0.025 6.71 17.16 12.33
3/11/2021 10:15:00 PM 5.32 41.576 0.025 6.68 16 12.34
3/11/2021 10:30:00 PM 5.29 41.522 0.025 6.68 17.73 12.35
3/11/2021 10:45:00 PM 5.27 41.486 0.025 6.71 16.41 12.36
3/11/2021 11:00:00 PM 5.24 41.432 0.025 6.72 16.57 12.37
3/11/2021 11:15:00 PM 5.22 41.396 0.025 6.73 17.37 12.38
3/11/2021 11:30:00 PM 5.2 41.36 0.025 6.69 17.44 12.39
3/11/2021 11:45:00 PM 5.18 41.324 0.025 6.66 18.01 12.39
3/12/2021 12:00:00 AM 5.17 41.306 0.025 6.74 17.6 12.4
3/12/2021 12:15:00 AM 5.15 41.27 0.025 6.69 16.42 12.4
3/12/2021 12:30:00 AM 5.13 41.234 0.025 6.71 17.79 12.41
3/12/2021 12:45:00 AM 5.11 41.198 0.025 6.69 17.94 12.41
3/12/2021 1:00:00 AM 5.09 41.162 0.025 6.67 18.66 12.42
3/12/2021 1:15:00 AM 5.08 41.144 0.025 6.71 18.4 12.42
3/12/2021 1:30:00 AM 5.06 41.108 0.025 6.63 19.57 12.43
3/12/2021 1:45:00 AM 5.06 41.108 0.025 6.69 17.88 12.43
3/12/2021 2:00:00 AM 5.06 41.108 0.025 6.68 17.83 12.44
3/12/2021 2:15:00 AM 5.05 41.09 0.025 6.64 17.95 12.44
3/12/2021 2:30:00 AM 5.05 41.09 0.025 6.67 14.35 12.44
3/12/2021 2:45:00 AM 5.05 41.09 0.025 6.67 17.02 12.45
3/12/2021 3:00:00 AM 5.04 41.072 0.025 6.67 17.51 12.45
3/12/2021 3:15:00 AM 5.03 41.054 0.025 6.69 19.11 12.45
3/12/2021 3:30:00 AM 5.03 41.054 0.025 6.71 16.48 12.45
3/12/2021 3:45:00 AM 5.03 41.054 0.025 6.69 18.62 12.45
3/12/2021 4:00:00 AM 5.03 41.054 0.025 6.67 26.68 12.45
3/12/2021 4:15:00 AM 5.02 41.036 0.025 6.71 18.86 12.46
3/12/2021 4:30:00 AM 5.01 41.018 0.025 6.68 17.19 12.47
3/12/2021 4:45:00 AM 4.99 40.982 0.025 6.7 15.76 12.47
3/12/2021 5:00:00 AM 4.97 40.946 0.025 6.59 18.46 12.49
3/12/2021 5:15:00 AM 4.94 40.892 0.025 6.71 19.15 12.49
3/12/2021 5:30:00 AM 4.91 40.838 0.025 6.63 18.05 12.51
3/12/2021 5:45:00 AM 4.89 40.802 0.025 6.71 19.84 12.52
3/12/2021 6:00:00 AM 4.85 40.73 0.025 6.66 18.16 12.53
3/12/2021 6:15:00 AM 4.82 40.676 0.025 6.69 17.05 12.54
3/12/2021 6:30:00 AM 4.79 40.622 0.025 6.65 19.08 12.56
3/12/2021 6:45:00 AM 4.75 40.55 0.025 6.71 20.41 12.57
3/12/2021 7:00:00 AM 4.73 40.514 0.025 6.67 15.21 12.59
3/12/2021 7:15:00 AM 4.7 40.46 0.025 6.63 15.29 12.6
3/12/2021 7:30:00 AM 4.68 40.424 0.025 6.67 16.15 12.61
3/12/2021 7:45:00 AM 4.66 40.388 0.025 6.71 15.58 12.62
3/12/2021 8:00:00 AM 4.64 40.352 0.025 6.68 14.66 12.63
3/12/2021 8:15:00 AM 4.63 40.334 0.025 6.65 25.34 12.65
3/12/2021 8:30:00 AM 4.64 40.352 0.025 6.69 11.99 12.65
3/12/2021 8:45:00 AM 4.65 40.37 0.025 6.73 14.5 12.66
3/12/2021 9:00:00 AM 4.68 40.424 0.025 6.69 14.39 12.66
3/12/2021 9:15:00 AM 4.72 40.496 0.025 6.67 14.21 12.65
3/12/2021 9:30:00 AM 4.77 40.586 0.025 6.66 14.37 12.63
3/12/2021 9:45:00 AM 4.83 40.694 0.025 6.74 13.91 12.62
3/12/2021 10:00:00 AM 4.91 40.838 0.025 6.72 13.99 12.6
3/12/2021 10:15:00 AM 5 41 0.025 6.72 13.39 12.57
3/12/2021 10:30:00 AM 5.1 41.18 0.025 6.66 13.48 12.54
3/12/2021 10:45:00 AM 5.21 41.378 0.025 6.74 12.94 12.51
3/12/2021 11:00:00 AM 5.33 41.594 0.025 6.7 12.87 12.48
3/12/2021 11:15:00 AM 5.45 41.81 0.025 6.76 13.13 12.43
3/12/2021 11:30:00 AM 5.58 42.044 0.025 6.73 12.42 12.39
3/12/2021 11:45:00 AM 5.72 42.296 0.025 6.71 12.37 12.35
3/12/2021 12:00:00 PM 5.85 42.53 0.025 6.76 12.56 12.3
3/12/2021 12:15:00 PM 5.98 42.764 0.025 6.72 11.96 12.26
3/12/2021 12:30:00 PM 6.12 43.016 0.025 6.73 12.08 12.21
3/12/2021 12:45:00 PM 6.26 43.268 0.025 6.74 11.56 12.16
3/12/2021 1:00:00 PM 6.39 43.502 0.025 6.68 12.04 12.12
3/12/2021 1:15:00 PM 6.52 43.736 0.025 6.75 12.03 12.08
3/12/2021 1:30:00 PM 6.62 43.916 0.025 6.74 11.67 12.04
3/12/2021 1:45:00 PM 6.72 44.096 0.025 6.68 11.79 12
3/12/2021 2:00:00 PM 6.81 44.258 0.025 6.75 12.74 11.97
3/12/2021 2:15:00 PM 6.88 44.384 0.025 6.75 12.03 11.94
3/12/2021 2:30:00 PM 6.93 44.474 0.025 6.67 12.56 11.91
3/12/2021 2:45:00 PM 6.98 44.564 0.025 6.71 12.66 11.89
3/12/2021 3:00:00 PM 6.99 44.582 0.025 6.77 12.92 11.88
3/12/2021 3:15:00 PM 7 44.6 0.025 6.74 13.75 11.87
3/12/2021 3:30:00 PM 6.99 44.582 0.025 6.64 13.52 11.86
3/12/2021 3:45:00 PM 6.98 44.564 0.025 6.71 13.18 11.85
3/12/2021 4:00:00 PM 6.95 44.51 0.025 6.65 13.8 11.85
3/12/2021 4:15:00 PM 6.92 44.456 0.025 6.75 14.1 11.85
3/12/2021 4:30:00 PM 6.88 44.384 0.025 6.6 16.13 11.85
3/12/2021 4:45:00 PM 6.83 44.294 0.025 6.68 14.57 11.86
3/12/2021 5:00:00 PM 6.76 44.168 0.025 6.68 15.03 11.88
3/12/2021 5:15:00 PM 6.69 44.042 0.025 6.69 15.54 11.89
3/12/2021 5:30:00 PM 6.61 43.898 0.025 6.69 15.23 11.91
3/12/2021 5:45:00 PM 6.54 43.772 0.025 6.68 15.95 11.93
3/12/2021 6:00:00 PM 6.46 43.628 0.025 6.59 15.42 11.96
3/12/2021 6:15:00 PM 6.4 43.52 0.025 6.62 15.59 11.98
3/12/2021 6:30:00 PM 6.33 43.394 0.025 6.63 15.46 12
3/12/2021 6:45:00 PM 6.26 43.268 0.025 6.66 15.72 12.03
3/12/2021 7:00:00 PM 6.19 43.142 0.025 6.58 17.35 12.05
3/12/2021 7:15:00 PM 6.12 43.016 0.025 6.61 16.48 12.08
3/12/2021 7:30:00 PM 6.05 42.89 0.025 6.58 14.12 12.1
3/12/2021 7:45:00 PM 5.99 42.782 0.025 6.67 14.07 12.13
3/12/2021 8:00:00 PM 5.92 42.656 0.025 6.67 13.99 12.15
3/12/2021 8:15:00 PM 5.86 42.548 0.025 6.63 12.94 12.17
3/12/2021 8:30:00 PM 5.8 42.44 0.025 6.66 13.02 12.2
3/12/2021 8:45:00 PM 5.74 42.332 0.025 6.64 12.67 12.22
3/12/2021 9:00:00 PM 5.69 42.242 0.025 6.56 11.99 12.24
3/12/2021 9:15:00 PM 5.64 42.152 0.025 6.61 11.86 12.26
3/12/2021 9:30:00 PM 5.59 42.062 0.025 6.61 11.83 12.28
3/12/2021 9:45:00 PM 5.54 41.972 0.025 6.61 11.48 12.3
3/12/2021 10:00:00 PM 5.5 41.9 0.025 6.65 11.15 12.32
3/12/2021 10:15:00 PM 5.45 41.81 0.025 6.64 11 12.34
3/12/2021 10:30:00 PM 5.41 41.738 0.025 6.6 10.39 12.36
3/12/2021 10:45:00 PM 5.35 41.63 0.025 6.66 10.3 12.38
3/12/2021 11:00:00 PM 5.29 41.522 0.025 6.53 9.95 12.4
3/12/2021 11:15:00 PM 5.24 41.432 0.025 6.62 9.75 12.42
3/12/2021 11:30:00 PM 5.19 41.342 0.025 6.64 9.57 12.44
3/12/2021 11:45:00 PM 5.15 41.27 0.025 6.58 9.53 12.46
3/13/2021 12:00:00 AM 5.1 41.18 0.025 6.59 9.72 12.48
3/13/2021 12:15:00 AM 5.04 41.072 0.025 6.6 9.2 12.49
3/13/2021 12:30:00 AM 4.99 40.982 0.025 6.64 9.06 12.51
3/13/2021 12:45:00 AM 4.93 40.874 0.025 6.63 8.73 12.54
3/13/2021 1:00:00 AM 4.88 40.784 0.025 6.63 8.99 12.56
3/13/2021 1:15:00 AM 4.83 40.694 0.025 6.58 8.69 12.58
3/13/2021 1:30:00 AM 4.78 40.604 0.025 6.67 8.56 12.59
3/13/2021 1:45:00 AM 4.74 40.532 0.025 6.62 8.25 12.61
3/13/2021 2:00:00 AM 4.69 40.442 0.025 6.63 8.12 12.63
3/13/2021 2:15:00 AM 4.65 40.37 0.025 6.63 8.08 12.65
3/13/2021 2:30:00 AM 4.6 40.28 0.025 6.56 8.34 12.67
3/13/2021 2:45:00 AM 4.56 40.208 0.025 6.6 7.86 12.68
3/13/2021 3:00:00 AM 4.52 40.136 0.025 6.67 7.72 12.7
3/13/2021 3:15:00 AM 4.48 40.064 0.025 6.62 7.65 12.71
3/13/2021 3:30:00 AM 4.44 39.992 0.025 6.68 7.38 12.73
3/13/2021 3:45:00 AM 4.4 39.92 0.025 6.58 7.58 12.75
3/13/2021 4:00:00 AM 4.36 39.848 0.025 6.67 7.34 12.76
3/13/2021 4:15:00 AM 4.32 39.776 0.025 6.58 7.61 12.77
3/13/2021 4:30:00 AM 4.29 39.722 0.025 6.6 7.3 12.78
3/13/2021 4:45:00 AM 4.25 39.65 0.025 6.61 7.15 12.8
3/13/2021 5:00:00 AM 4.22 39.596 0.025 6.66 6.81 12.82
3/13/2021 5:15:00 AM 4.18 39.524 0.025 6.64 7.14 12.83
3/13/2021 5:30:00 AM 4.15 39.47 0.025 6.63 6.95 12.85
3/13/2021 5:45:00 AM 4.12 39.416 0.025 6.66 6.99 12.86
3/13/2021 6:00:00 AM 4.09 39.362 0.025 6.64 6.78 12.87
3/13/2021 6:15:00 AM 4.06 39.308 0.025 6.58 6.81 12.88
3/13/2021 6:30:00 AM 4.03 39.254 0.025 6.62 6.37 12.9
3/13/2021 6:45:00 AM 4 39.2 0.025 6.67 6.47 12.91
3/13/2021 7:00:00 AM 3.97 39.146 0.025 6.6 6.29 12.93
3/13/2021 7:15:00 AM 3.94 39.092 0.025 6.61 6.26 12.94
3/13/2021 7:30:00 AM 3.92 39.056 0.025 6.61 6.13 12.96
3/13/2021 7:45:00 AM 3.9 39.02 0.025 6.68 5.93 12.97
3/13/2021 8:00:00 AM 3.89 39.002 0.025 6.66 5.59 12.98
3/13/2021 8:15:00 AM 3.88 38.984 0.025 6.68 5.97 12.99
3/13/2021 8:30:00 AM 3.88 38.984 0.025 6.63 5.98 13
3/13/2021 8:45:00 AM 3.88 38.984 0.025 6.67 5.92 13
3/13/2021 9:00:00 AM 3.89 39.002 0.025 6.6 5.85 13
3/13/2021 9:15:00 AM 3.92 39.056 0.025 6.68 5.68 13
3/13/2021 9:30:00 AM 3.95 39.11 0.025 6.68 6.01 12.99
3/13/2021 9:45:00 AM 3.99 39.182 0.025 6.58 5.56 12.98
3/13/2021 10:00:00 AM 4.03 39.254 0.025 6.63 5.49 12.97
3/13/2021 10:15:00 AM 4.1 39.38 0.025 6.65 5.65 12.95
3/13/2021 10:30:00 AM 4.18 39.524 0.025 6.69 5.52 12.92
3/13/2021 10:45:00 AM 4.28 39.704 0.025 6.67 6.06 12.9
3/13/2021 11:00:00 AM 4.38 39.884 0.025 6.68 5.69 12.86
3/13/2021 11:15:00 AM 4.49 40.082 0.025 6.71 5.4 12.83
3/13/2021 11:30:00 AM 4.61 40.298 0.025 6.64 5.38 12.78
3/13/2021 11:45:00 AM 4.74 40.532 0.025 6.63 5.39 12.74
3/13/2021 12:00:00 PM 4.86 40.748 0.025 6.65 5.39 12.7
3/13/2021 12:15:00 PM 5 41 0.025 6.66 5.24 12.65
3/13/2021 12:30:00 PM 5.14 41.252 0.025 6.73 5.28 12.6
3/13/2021 12:45:00 PM 5.29 41.522 0.025 6.68 5.37 12.55
3/13/2021 1:00:00 PM 5.44 41.792 0.025 6.63 5.43 12.49
3/13/2021 1:15:00 PM 5.58 42.044 0.025 6.66 5.24 12.44
3/13/2021 1:30:00 PM 5.71 42.278 0.025 6.65 5.38 12.39
3/13/2021 1:45:00 PM 5.83 42.494 0.025 6.66 5.15 12.35
3/13/2021 2:00:00 PM 5.93 42.674 0.025 6.74 5.3 12.31
3/13/2021 2:15:00 PM 6.03 42.854 0.025 6.59 5.28 12.27
3/13/2021 2:30:00 PM 6.1 42.98 0.025 6.71 5.28 12.24
3/13/2021 2:45:00 PM 6.15 43.07 0.025 6.73 5.1 12.21
3/13/2021 3:00:00 PM 6.19 43.142 0.025 6.61 5.2 12.19
3/13/2021 3:15:00 PM 6.21 43.178 0.025 6.72 5.06 12.17
3/13/2021 3:30:00 PM 6.22 43.196 0.025 6.74 5.18 12.15
3/13/2021 3:45:00 PM 6.23 43.214 0.025 6.68 5.13 12.14
3/13/2021 4:00:00 PM 6.22 43.196 0.025 6.71 5.11 12.14
3/13/2021 4:15:00 PM 6.2 43.16 0.025 6.72 5.3 12.13
3/13/2021 4:30:00 PM 6.18 43.124 0.025 6.68 5.21 12.13
3/13/2021 4:45:00 PM 6.15 43.07 0.025 6.64 5.25 12.13
3/13/2021 5:00:00 PM 6.12 43.016 0.025 6.66 4.89 12.13
3/13/2021 5:15:00 PM 6.07 42.926 0.025 6.66 5.14 12.13
3/13/2021 5:30:00 PM 6.03 42.854 0.025 6.65 5.42 12.13
3/13/2021 5:45:00 PM 5.98 42.764 0.025 6.64 5.35 12.14
3/13/2021 6:00:00 PM 5.94 42.692 0.025 6.66 5.23 12.15
3/13/2021 6:15:00 PM 5.89 42.602 0.025 6.64 5.17 12.16
3/13/2021 6:30:00 PM 5.84 42.512 0.025 6.69 5.13 12.17
3/13/2021 6:45:00 PM 5.78 42.404 0.025 6.67 5.16 12.19
3/13/2021 7:00:00 PM 5.73 42.314 0.025 6.7 5.14 12.2
3/13/2021 7:15:00 PM 5.67 42.206 0.025 6.56 5.11 12.22
3/13/2021 7:30:00 PM 5.61 42.098 0.025 6.62 5.27 12.24
3/13/2021 7:45:00 PM 5.55 41.99 0.025 6.66 5.31 12.26
3/13/2021 8:00:00 PM 5.49 41.882 0.025 6.6 5.22 12.28
3/13/2021 8:15:00 PM 5.43 41.774 0.025 6.62 5.34 12.3
3/13/2021 8:30:00 PM 5.37 41.666 0.025 6.64 4.89 12.32
3/13/2021 8:45:00 PM 5.3 41.54 0.025 6.68 4.81 12.34
3/13/2021 9:00:00 PM 5.24 41.432 0.025 6.67 4.92 12.36
3/13/2021 9:15:00 PM 5.18 41.324 0.025 6.59 4.9 12.38
3/13/2021 9:30:00 PM 5.12 41.216 0.025 6.68 4.83 12.4
3/13/2021 9:45:00 PM 5.06 41.108 0.025 6.67 4.83 12.42
3/13/2021 10:00:00 PM 5.01 41.018 0.025 6.67 4.63 12.44
3/13/2021 10:15:00 PM 4.96 40.928 0.025 6.61 4.74 12.45
3/13/2021 10:30:00 PM 4.91 40.838 0.025 6.66 4.75 12.47
3/13/2021 10:45:00 PM 4.86 40.748 0.025 6.63 4.83 12.49
3/13/2021 11:00:00 PM 4.81 40.658 0.025 6.67 4.89 12.51
3/13/2021 11:15:00 PM 4.76 40.568 0.025 6.66 4.67 12.52
3/13/2021 11:30:00 PM 4.72 40.496 0.025 6.61 4.43 12.54
3/13/2021 11:45:00 PM 4.68 40.424 0.025 6.59 4.6 12.55
3/14/2021 12:00:00 AM 4.63 40.334 0.025 6.67 4.48 12.56
3/14/2021 12:15:00 AM 4.6 40.28 0.025 6.61 4.53 12.58
3/14/2021 12:30:00 AM 4.57 40.226 0.025 6.63 4.64 12.58
3/14/2021 12:45:00 AM 4.54 40.172 0.025 6.68 4.67 12.6
3/14/2021 1:00:00 AM 4.51 40.118 0.025 6.66 4.41 12.6
3/14/2021 1:15:00 AM 4.48 40.064 0.025 6.66 4.56 12.61
3/14/2021 1:30:00 AM 4.45 40.01 0.025 6.68 4.59 12.62
3/14/2021 1:45:00 AM 4.43 39.974 0.025 6.6 4.45 12.63
3/14/2021 3:45:00 AM 4.25 39.65 0.025 6.62 4.24 12.67
3/14/2021 4:00:00 AM 4.23 39.614 0.025 6.63 4.17 12.68
3/14/2021 5:15:00 AM 4.21 39.578 0.025 6.63 4.19 12.69
3/14/2021 5:30:00 AM 4.19 39.542 0.025 6.7 4.31 12.69
3/14/2021 5:45:00 AM 4.17 39.506 0.025 6.59 4.26 12.7
3/14/2021 6:00:00 AM 4.15 39.47 0.025 6.67 4.32 12.7
3/14/2021 6:15:00 AM 4.13 39.434 0.025 6.65 4.23 12.71
3/14/2021 6:30:00 AM 4.11 39.398 0.025 6.63 4.06 12.72
3/14/2021 6:45:00 AM 4.09 39.362 0.025 6.69 4.21 12.72
3/14/2021 7:00:00 AM 4.07 39.326 0.025 6.67 4.1 12.73
3/14/2021 7:15:00 AM 4.05 39.29 0.025 6.66 4.15 12.74
3/14/2021 7:30:00 AM 4.03 39.254 0.025 6.58 3.93 12.75
3/14/2021 7:45:00 AM 4.01 39.218 0.025 6.7 4.06 12.76
3/14/2021 8:00:00 AM 4 39.2 0.025 6.59 3.94 12.77
3/14/2021 8:15:00 AM 3.98 39.164 0.025 6.66 3.76 12.79
3/14/2021 8:30:00 AM 3.97 39.146 0.025 6.7 3.79 12.8
3/14/2021 8:45:00 AM 3.96 39.128 0.025 6.65 3.91 12.8
3/14/2021 9:00:00 AM 3.96 39.128 0.025 6.71 3.77 12.81
3/14/2021 9:15:00 AM 3.96 39.128 0.025 6.68 3.61 12.82
3/14/2021 9:30:00 AM 3.98 39.164 0.025 6.69 3.8 12.82
3/14/2021 9:45:00 AM 4.01 39.218 0.025 6.65 3.58 12.82
3/14/2021 10:00:00 AM 4.06 39.308 0.025 6.67 3.62 12.82
3/14/2021 10:15:00 AM 4.12 39.416 0.025 6.65 3.62 12.81
3/14/2021 10:30:00 AM 4.19 39.542 0.025 6.66 3.59 12.79
3/14/2021 10:45:00 AM 4.27 39.686 0.025 6.65 3.53 12.76
3/14/2021 11:00:00 AM 4.35 39.83 0.025 6.68 3.64 12.74
3/14/2021 11:15:00 AM 4.45 40.01 0.025 6.67 3.59 12.71
3/14/2021 11:30:00 AM 4.56 40.208 0.025 6.68 3.62 12.68
3/14/2021 11:45:00 AM 4.69 40.442 0.025 6.73 3.57 12.64
3/14/2021 12:00:00 PM 4.79 40.622 0.025 6.71 3.54 12.6
3/14/2021 12:15:00 PM 4.92 40.856 0.025 6.73 3.62 12.56
3/14/2021 12:30:00 PM 5.06 41.108 0.025 6.63 3.53 12.52
3/14/2021 12:45:00 PM 5.18 41.324 0.025 6.74 3.94 12.48
3/14/2021 1:00:00 PM 5.38 41.684 0.025 6.7 3.51 12.43
3/14/2021 1:15:00 PM 5.55 41.99 0.025 6.68 3.51 12.37
3/14/2021 1:30:00 PM 5.64 42.152 0.025 6.72 3.49 12.33
3/14/2021 1:45:00 PM 5.8 42.44 0.025 6.76 3.46 12.29
3/14/2021 2:00:00 PM 5.98 42.764 0.025 6.74 3.55 12.24
3/14/2021 2:15:00 PM 6.11 42.998 0.025 6.73 3.54 12.2
3/14/2021 2:30:00 PM 6.11 42.998 0.025 6.73 3.47 12.16
3/14/2021 2:45:00 PM 6.18 43.124 0.025 6.72 3.57 12.14
3/14/2021 3:00:00 PM 6.18 43.124 0.025 6.76 3.63 12.13
3/14/2021 3:15:00 PM 6.28 43.304 0.025 6.71 3.66 12.11
3/14/2021 3:30:00 PM 6.37 43.466 0.025 6.74 3.73 12.1
3/14/2021 3:45:00 PM 6.4 43.52 0.025 6.64 3.74 12.09
3/14/2021 4:00:00 PM 6.38 43.484 0.025 6.7 3.64 12.08
3/14/2021 4:15:00 PM 6.42 43.556 0.025 6.73 3.52 12.07
3/14/2021 4:30:00 PM 6.38 43.484 0.025 6.75 3.65 12.07
3/14/2021 4:45:00 PM 6.31 43.358 0.025 6.71 3.6 12.09
3/14/2021 5:00:00 PM 6.18 43.124 0.025 6.67 3.63 12.11
3/14/2021 5:15:00 PM 6.11 42.998 0.025 6.67 3.64 12.12
3/14/2021 5:30:00 PM 6.03 42.854 0.025 6.75 3.59 12.14
3/14/2021 5:45:00 PM 5.99 42.782 0.025 6.61 3.67 12.16
3/14/2021 6:00:00 PM 5.94 42.692 0.025 6.68 3.57 12.16
3/14/2021 6:15:00 PM 5.87 42.566 0.025 6.73 3.57 12.17
3/14/2021 6:30:00 PM 5.8 42.44 0.025 6.7 3.56 12.19
3/14/2021 6:45:00 PM 5.73 42.314 0.025 6.7 3.74 12.2
3/14/2021 7:00:00 PM 5.64 42.152 0.025 6.69 3.61 12.23
3/14/2021 7:15:00 PM 5.54 41.972 0.025 6.64 3.49 12.25
3/14/2021 7:30:00 PM 5.44 41.792 0.025 6.71 3.42 12.28
3/14/2021 7:45:00 PM 5.36 41.648 0.025 6.69 3.62 12.31
3/14/2021 8:00:00 PM 5.28 41.504 0.025 6.7 3.6 12.34
3/14/2021 8:15:00 PM 5.2 41.36 0.025 6.67 3.51 12.37
3/14/2021 8:30:00 PM 5.12 41.216 0.025 6.63 3.54 12.4
3/14/2021 8:45:00 PM 5.04 41.072 0.025 6.67 3.58 12.43
3/14/2021 9:00:00 PM 4.96 40.928 0.025 6.71 3.49 12.46
3/14/2021 9:15:00 PM 4.89 40.802 0.025 6.6 3.59 12.48
3/14/2021 9:30:00 PM 4.82 40.676 0.025 6.62 3.45 12.51
3/14/2021 9:45:00 PM 4.76 40.568 0.025 6.63 3.53 12.54
3/14/2021 10:00:00 PM 4.7 40.46 0.025 6.71 3.5 12.56
3/14/2021 10:15:00 PM 4.64 40.352 0.025 6.61 3.52 12.59
3/14/2021 10:30:00 PM 4.57 40.226 0.025 6.68 3.38 12.61
3/14/2021 10:45:00 PM 4.49 40.082 0.025 6.59 3.38 12.64
3/14/2021 11:00:00 PM 4.43 39.974 0.025 6.71 3.38 12.67
3/14/2021 11:15:00 PM 4.37 39.866 0.025 6.59 3.42 12.7
3/14/2021 11:30:00 PM 4.29 39.722 0.025 6.64 3.46 12.73
3/14/2021 11:45:00 PM 4.22 39.596 0.025 6.67 3.49 12.76
3/15/2021 12:00:00 AM 4.15 39.47 0.025 6.7 3.42 12.79
3/15/2021 12:15:00 AM 4.09 39.362 0.025 6.7 3.28 12.81
3/15/2021 12:30:00 AM 4.02 39.236 0.025 6.68 3.46 12.84
3/15/2021 12:45:00 AM 3.95 39.11 0.025 6.59 3.41 12.87
3/15/2021 1:00:00 AM 3.87 38.966 0.026 6.63 3.53 12.9
3/15/2021 1:15:00 AM 3.81 38.858 0.026 6.66 3.31 12.92
3/15/2021 1:30:00 AM 3.75 38.75 0.026 6.69 3.46 12.95
3/15/2021 1:45:00 AM 3.69 38.642 0.026 6.63 3.29 12.97
3/15/2021 2:00:00 AM 3.64 38.552 0.026 6.67 3.43 12.99
3/15/2021 2:15:00 AM 3.58 38.444 0.026 6.61 3.17 13.01
3/15/2021 2:30:00 AM 3.52 38.336 0.026 6.69 3.27 13.04
3/15/2021 2:45:00 AM 3.47 38.246 0.026 6.62 3.36 13.05
3/15/2021 3:00:00 AM 3.42 38.156 0.026 6.69 3.28 13.07
3/15/2021 3:15:00 AM 3.36 38.048 0.026 6.59 3.29 13.09
3/15/2021 3:30:00 AM 3.32 37.976 0.026 6.62 3.13 13.11
3/15/2021 3:45:00 AM 3.27 37.886 0.026 6.69 3.33 13.12
3/15/2021 4:00:00 AM 3.22 37.796 0.026 6.64 3.39 13.14
3/15/2021 4:15:00 AM 3.17 37.706 0.026 6.67 3.2 13.16
3/15/2021 4:30:00 AM 3.12 37.616 0.026 6.6 3.24 13.18
3/15/2021 4:45:00 AM 3.08 37.544 0.026 6.69 3.28 13.19
3/15/2021 5:00:00 AM 3.04 37.472 0.026 6.66 3.23 13.21
3/15/2021 5:15:00 AM 2.99 37.382 0.026 6.7 3.35 13.23
3/15/2021 5:30:00 AM 2.95 37.31 0.026 6.63 3.15 13.24
3/15/2021 5:45:00 AM 2.91 37.238 0.026 6.62 3.19 13.26
3/15/2021 6:00:00 AM 2.86 37.148 0.026 6.63 3.19 13.28
3/15/2021 6:15:00 AM 2.82 37.076 0.026 6.69 3.15 13.3
3/15/2021 6:30:00 AM 2.78 37.004 0.026 6.68 3.08 13.32
3/15/2021 6:45:00 AM 2.75 36.95 0.026 6.65 3.14 13.33
3/15/2021 7:00:00 AM 2.71 36.878 0.026 6.6 3.21 13.35
3/15/2021 7:15:00 AM 2.67 36.806 0.026 6.69 3.15 13.36
3/15/2021 7:30:00 AM 2.64 36.752 0.026 6.6 3.02 13.38
3/15/2021 7:45:00 AM 2.61 36.698 0.026 6.61 3.1 13.4
3/15/2021 8:00:00 AM 2.58 36.644 0.026 6.66 3.07 13.42
3/15/2021 8:15:00 AM 2.55 36.59 0.026 6.63 3.21 13.43
3/15/2021 8:30:00 AM 2.53 36.554 0.026 6.64 2.96 13.45
3/15/2021 8:45:00 AM 2.51 36.518 0.026 6.68 2.88 13.46
3/15/2021 9:00:00 AM 2.5 36.5 0.026 6.69 2.98 13.48
3/15/2021 9:15:00 AM 2.5 36.5 0.026 6.59 2.87 13.49
3/15/2021 9:30:00 AM 2.5 36.5 0.026 6.73 2.94 13.5
3/15/2021 9:45:00 AM 2.53 36.554 0.026 6.65 2.91 13.5
3/15/2021 10:00:00 AM 2.55 36.59 0.026 6.68 3.05 13.51
3/15/2021 10:15:00 AM 2.58 36.644 0.026 6.65 2.91 13.5
3/15/2021 10:30:00 AM 2.63 36.734 0.026 6.63 2.91 13.49
3/15/2021 10:45:00 AM 2.69 36.842 0.026 6.71 2.86 13.48
3/15/2021 11:00:00 AM 2.75 36.95 0.026 6.71 2.91 13.46
3/15/2021 11:15:00 AM 2.82 37.076 0.026 6.66 2.87 13.44
3/15/2021 11:30:00 AM 2.92 37.256 0.026 6.63 2.81 13.41
3/15/2021 11:45:00 AM 3.02 37.436 0.026 6.65 2.8 13.38
3/15/2021 12:00:00 PM 3.13 37.634 0.026 6.7 2.91 13.34
3/15/2021 12:15:00 PM 3.26 37.868 0.026 6.75 2.84 13.3
3/15/2021 12:30:00 PM 3.4 38.12 0.026 6.67 2.83 13.25
3/15/2021 12:45:00 PM 3.55 38.39 0.026 6.74 2.84 13.19
3/15/2021 1:00:00 PM 3.71 38.678 0.026 6.71 2.83 13.14
3/15/2021 1:15:00 PM 3.86 38.948 0.026 6.75 2.84 13.08
3/15/2021 1:30:00 PM 4.02 39.236 0.026 6.59 2.9 13.02
3/15/2021 1:45:00 PM 4.17 39.506 0.026 6.62 2.84 12.97
3/15/2021 2:00:00 PM 4.31 39.758 0.026 6.76 3.67 12.91
3/15/2021 2:15:00 PM 4.43 39.974 0.026 6.75 2.77 12.86
3/15/2021 2:30:00 PM 4.56 40.208 0.026 6.72 2.76 12.81
3/15/2021 2:45:00 PM 4.71 40.478 0.026 6.63 2.73 12.77
3/15/2021 3:00:00 PM 4.75 40.55 0.026 6.63 2.79 12.73
3/15/2021 3:15:00 PM 4.83 40.694 0.026 6.71 2.78 12.7
3/15/2021 3:30:00 PM 4.91 40.838 0.026 6.67 2.68 12.67
3/15/2021 3:45:00 PM 4.96 40.928 0.026 6.7 2.76 12.65
3/15/2021 4:00:00 PM 4.99 40.982 0.026 6.68 2.83 12.63
3/15/2021 4:15:00 PM 5 41 0.026 6.75 2.73 12.61
3/15/2021 4:30:00 PM 5 41 0.026 6.76 2.82 12.59
3/15/2021 4:45:00 PM 4.98 40.964 0.026 6.61 2.74 12.59
3/15/2021 5:00:00 PM 4.95 40.91 0.026 6.67 2.83 12.58
3/15/2021 5:15:00 PM 4.91 40.838 0.026 6.72 2.79 12.58
3/15/2021 5:30:00 PM 4.89 40.802 0.026 6.74 2.76 12.58
3/15/2021 5:45:00 PM 4.86 40.748 0.026 6.73 2.75 12.58
3/15/2021 6:00:00 PM 4.83 40.694 0.026 6.69 3.05 12.58
3/15/2021 6:15:00 PM 4.81 40.658 0.026 6.7 2.78 12.58
3/15/2021 6:30:00 PM 4.78 40.604 0.026 6.64 2.81 12.58
3/15/2021 6:45:00 PM 4.75 40.55 0.026 6.69 2.89 12.58
3/15/2021 7:00:00 PM 4.71 40.478 0.026 6.71 2.85 12.58
3/15/2021 7:15:00 PM 4.66 40.388 0.026 6.74 2.93 12.58
3/15/2021 7:30:00 PM 4.61 40.298 0.026 6.72 2.8 12.58
3/15/2021 7:45:00 PM 4.57 40.226 0.026 6.61 2.94 12.59
3/15/2021 8:00:00 PM 4.52 40.136 0.026 6.69 2.83 12.61
3/15/2021 8:15:00 PM 4.47 40.046 0.026 6.71 2.77 12.62
3/15/2021 8:30:00 PM 4.42 39.956 0.026 6.67 2.84 12.63
3/15/2021 8:45:00 PM 4.37 39.866 0.026 6.71 2.88 12.65
3/15/2021 9:00:00 PM 4.33 39.794 0.026 6.68 2.86 12.67
3/15/2021 9:15:00 PM 4.29 39.722 0.026 6.71 2.87 12.68
3/15/2021 9:30:00 PM 4.26 39.668 0.026 6.62 2.92 12.7
3/15/2021 9:45:00 PM 4.23 39.614 0.026 6.72 2.76 12.71
3/15/2021 10:00:00 PM 4.2 39.56 0.026 6.7 2.85 12.72
3/15/2021 10:15:00 PM 4.18 39.524 0.026 6.59 2.89 12.73
3/15/2021 10:30:00 PM 4.15 39.47 0.026 6.65 2.72 12.74
3/15/2021 10:45:00 PM 4.13 39.434 0.026 6.65 2.78 12.74
3/15/2021 11:00:00 PM 4.11 39.398 0.026 6.65 2.83 12.75
3/15/2021 11:15:00 PM 4.09 39.362 0.026 6.65 2.75 12.75
3/15/2021 11:30:00 PM 4.07 39.326 0.026 6.65 2.68 12.76
3/15/2021 11:45:00 PM 4.05 39.29 0.026 6.69 2.82 12.76
3/16/2021 12:00:00 AM 4.04 39.272 0.026 6.69 2.81 12.77
3/16/2021 12:15:00 AM 4.02 39.236 0.026 6.7 2.83 12.77
3/16/2021 12:30:00 AM 4.01 39.218 0.026 6.62 2.74 12.77
3/16/2021 12:45:00 AM 4 39.2 0.026 6.65 2.86 12.78
3/16/2021 1:00:00 AM 3.99 39.182 0.026 6.74 2.73 12.78
3/16/2021 1:15:00 AM 3.97 39.146 0.026 6.56 2.76 12.78
3/16/2021 1:30:00 AM 3.95 39.11 0.026 6.7 2.81 12.78
3/16/2021 1:45:00 AM 3.93 39.074 0.026 6.67 2.71 12.79
3/16/2021 2:00:00 AM 3.92 39.056 0.026 6.72 2.68 12.8
3/16/2021 2:15:00 AM 3.91 39.038 0.026 6.72 2.76 12.8
3/16/2021 2:30:00 AM 3.9 39.02 0.026 6.69 2.8 12.81
3/16/2021 2:45:00 AM 3.88 38.984 0.026 6.59 2.73 12.81
3/16/2021 3:00:00 AM 3.87 38.966 0.026 6.69 2.66 12.82
3/16/2021 3:15:00 AM 3.85 38.93 0.026 6.73 2.72 12.82
3/16/2021 3:30:00 AM 3.84 38.912 0.026 6.64 2.76 12.82
3/16/2021 3:45:00 AM 3.83 38.894 0.026 6.6 2.73 12.82
3/16/2021 4:00:00 AM 3.82 38.876 0.026 6.74 2.73 12.82
3/16/2021 4:15:00 AM 3.8 38.84 0.026 6.68 2.7 12.82
3/16/2021 4:30:00 AM 3.79 38.822 0.026 6.69 2.85 12.83
3/16/2021 4:45:00 AM 3.77 38.786 0.026 6.59 2.69 12.83
3/16/2021 5:00:00 AM 3.76 38.768 0.026 6.68 2.67 12.83
3/16/2021 5:15:00 AM 3.75 38.75 0.026 6.63 2.81 12.83
3/16/2021 5:30:00 AM 3.74 38.732 0.026 6.74 2.74 12.84
3/16/2021 5:45:00 AM 3.72 38.696 0.026 6.68 2.73 12.84
3/16/2021 6:00:00 AM 3.72 38.696 0.026 6.66 2.76 12.84
3/16/2021 6:15:00 AM 3.71 38.678 0.026 6.72 2.67 12.85
3/16/2021 6:30:00 AM 3.7 38.66 0.026 6.71 2.66 12.85
3/16/2021 6:45:00 AM 3.66 38.588 0.026 6.62 2.61 12.85
3/16/2021 7:00:00 AM 3.64 38.552 0.026 6.7 2.74 12.86
3/16/2021 7:15:00 AM 3.6 38.48 0.026 6.59 2.66 12.87
3/16/2021 7:30:00 AM 3.6 38.48 0.026 6.71 2.76 12.87
3/16/2021 7:45:00 AM 3.6 38.48 0.026 6.64 2.55 12.88
3/16/2021 8:00:00 AM 3.59 38.462 0.026 6.64 2.53 12.88
3/16/2021 8:15:00 AM 3.57 38.426 0.026 6.68 2.53 12.89
3/16/2021 8:30:00 AM 3.57 38.426 0.026 6.71 2.52 12.9
3/16/2021 8:45:00 AM 3.57 38.426 0.026 6.61 2.51 12.91
3/16/2021 9:00:00 AM 3.57 38.426 0.026 6.71 2.5 12.92
3/16/2021 9:15:00 AM 3.58 38.444 0.026 6.74 2.47 12.92
3/16/2021 9:30:00 AM 3.59 38.462 0.026 6.74 2.65 12.93
3/16/2021 9:45:00 AM 3.6 38.48 0.026 6.58 2.48 12.93
3/16/2021 10:00:00 AM 3.61 38.498 0.026 6.67 2.48 12.93
3/16/2021 10:15:00 AM 3.62 38.516 0.026 6.75 2.47 12.93
3/16/2021 10:30:00 AM 3.64 38.552 0.026 6.66 2.46 12.93
3/16/2021 10:45:00 AM 3.69 38.642 0.026 6.73 3.01 12.93
3/16/2021 11:00:00 AM 3.73 38.714 0.026 6.75 2.5 12.93
3/16/2021 11:15:00 AM 3.74 38.732 0.026 6.66 2.48 12.91
3/16/2021 11:30:00 AM 3.76 38.768 0.026 6.75 2.52 12.91
3/16/2021 11:45:00 AM 3.81 38.858 0.026 6.72 2.47 12.9
3/16/2021 12:00:00 PM 3.82 38.876 0.026 6.61 2.56 12.88
3/16/2021 12:15:00 PM 3.83 38.894 0.026 6.67 2.44 12.86
3/16/2021 12:30:00 PM 3.88 38.984 0.026 6.7 2.48 12.86
3/16/2021 12:45:00 PM 3.89 39.002 0.026 6.69 2.53 12.85
3/16/2021 1:00:00 PM 3.91 39.038 0.026 6.61 2.53 12.84
3/16/2021 1:15:00 PM 3.95 39.11 0.026 6.72 2.44 12.83
3/16/2021 1:30:00 PM 3.97 39.146 0.026 6.67 2.46 12.82
3/16/2021 1:45:00 PM 4 39.2 0.026 6.73 2.5 12.81
3/16/2021 2:00:00 PM 4.03 39.254 0.026 6.64 2.48 12.8
3/16/2021 2:15:00 PM 4.05 39.29 0.026 6.74 2.54 12.79
3/16/2021 2:30:00 PM 4.09 39.362 0.026 6.74 2.42 12.78
3/16/2021 2:45:00 PM 4.12 39.416 0.026 6.74 2.43 12.77
3/16/2021 3:00:00 PM 4.14 39.452 0.026 6.71 2.51 12.76
3/16/2021 3:15:00 PM 4.18 39.524 0.026 6.71 2.48 12.75
3/16/2021 3:30:00 PM 4.19 39.542 0.026 6.7 2.56 12.74
3/16/2021 3:45:00 PM 4.21 39.578 0.026 6.75 2.51 12.72
3/16/2021 4:00:00 PM 4.23 39.614 0.026 6.73 2.46 12.71
3/16/2021 4:15:00 PM 4.25 39.65 0.026 6.63 2.55 12.7
3/16/2021 4:30:00 PM 4.25 39.65 0.026 6.7 2.48 12.69
3/16/2021 4:45:00 PM 4.27 39.686 0.026 6.68 2.46 12.69
3/16/2021 5:00:00 PM 4.3 39.74 0.026 6.68 2.59 12.69
3/16/2021 5:15:00 PM 4.33 39.794 0.026 6.73 2.56 12.68
3/16/2021 5:30:00 PM 4.36 39.848 0.026 6.75 2.45 12.67
3/16/2021 5:45:00 PM 4.37 39.866 0.026 6.71 2.45 12.65
3/16/2021 6:00:00 PM 4.39 39.902 0.026 6.66 2.48 12.64
3/16/2021 6:15:00 PM 4.41 39.938 0.026 6.71 2.54 12.63
3/16/2021 6:30:00 PM 4.41 39.938 0.026 6.68 2.58 12.61
3/16/2021 6:45:00 PM 4.41 39.938 0.026 6.68 2.56 12.6
3/16/2021 7:00:00 PM 4.41 39.938 0.026 6.66 2.56 12.58
3/16/2021 7:15:00 PM 4.41 39.938 0.026 6.68 2.58 12.57
3/16/2021 7:30:00 PM 4.4 39.92 0.026 6.74 2.51 12.56
3/16/2021 7:45:00 PM 4.39 39.902 0.026 6.6 2.63 12.55
3/16/2021 8:00:00 PM 4.38 39.884 0.026 6.63 2.6 12.55
3/16/2021 8:15:00 PM 4.38 39.884 0.026 6.73 2.6 12.55
3/16/2021 8:30:00 PM 4.37 39.866 0.026 6.68 2.44 12.55
3/16/2021 8:45:00 PM 4.37 39.866 0.026 6.72 2.66 12.56
3/16/2021 9:00:00 PM 4.36 39.848 0.026 6.6 2.62 12.56
3/16/2021 9:15:00 PM 4.36 39.848 0.026 6.73 2.52 12.56
3/16/2021 9:30:00 PM 4.35 39.83 0.026 6.68 2.46 12.57
3/16/2021 9:45:00 PM 4.35 39.83 0.026 6.62 2.48 12.57
3/16/2021 10:00:00 PM 4.35 39.83 0.026 6.64 2.59 12.57
3/16/2021 10:15:00 PM 4.34 39.812 0.026 6.68 2.54 12.58
3/16/2021 10:30:00 PM 4.33 39.794 0.026 6.62 2.59 12.58
3/16/2021 10:45:00 PM 4.33 39.794 0.026 6.72 2.49 12.58
3/16/2021 11:00:00 PM 4.32 39.776 0.026 6.65 2.6 12.58
3/16/2021 11:15:00 PM 4.31 39.758 0.026 6.72 2.5 12.59
3/16/2021 11:30:00 PM 4.31 39.758 0.026 6.71 2.57 12.59
3/16/2021 11:45:00 PM 4.3 39.74 0.026 6.62 2.48 12.59
3/17/2021 12:00:00 AM 4.3 39.74 0.026 6.72 2.5 12.59
3/17/2021 12:15:00 AM 4.29 39.722 0.026 6.71 2.54 12.59
3/17/2021 12:30:00 AM 4.29 39.722 0.026 6.7 2.44 12.6
3/17/2021 12:45:00 AM 4.28 39.704 0.026 6.71 2.58 12.6
3/17/2021 1:00:00 AM 4.27 39.686 0.026 6.62 2.48 12.6
3/17/2021 1:15:00 AM 4.27 39.686 0.026 6.74 2.46 12.6
3/17/2021 1:30:00 AM 4.27 39.686 0.026 6.71 2.5 12.6
3/17/2021 1:45:00 AM 4.26 39.668 0.026 6.63 2.77 12.6
3/17/2021 2:00:00 AM 4.26 39.668 0.026 6.74 2.51 12.6
3/17/2021 2:15:00 AM 4.25 39.65 0.027 6.69 2.51 12.6
3/17/2021 2:30:00 AM 4.25 39.65 0.027 6.62 2.51 12.61
3/17/2021 2:45:00 AM 4.24 39.632 0.027 6.7 2.48 12.61
3/17/2021 3:00:00 AM 4.23 39.614 0.027 6.72 2.5 12.61
3/17/2021 3:15:00 AM 4.23 39.614 0.027 6.71 3.25 12.61
3/17/2021 3:30:00 AM 4.22 39.596 0.027 6.63 2.48 12.61
3/17/2021 3:45:00 AM 4.22 39.596 0.027 6.73 2.54 12.62
3/17/2021 4:00:00 AM 4.21 39.578 0.027 6.65 2.43 12.61
3/17/2021 4:15:00 AM 4.21 39.578 0.027 6.68 2.57 12.61
3/17/2021 4:30:00 AM 4.2 39.56 0.027 6.65 2.51 12.62
3/17/2021 4:45:00 AM 4.2 39.56 0.027 6.74 2.44 12.62
3/17/2021 5:00:00 AM 4.19 39.542 0.027 6.71 2.43 12.63
3/17/2021 5:15:00 AM 4.19 39.542 0.027 6.63 2.5 12.63
3/17/2021 5:30:00 AM 4.19 39.542 0.027 6.7 2.61 12.63
3/17/2021 5:45:00 AM 4.18 39.524 0.027 6.7 2.48 12.63
3/17/2021 6:00:00 AM 4.18 39.524 0.027 6.71 2.53 12.64
3/17/2021 6:15:00 AM 4.18 39.524 0.027 6.7 2.45 12.64
3/17/2021 6:30:00 AM 4.18 39.524 0.027 6.67 2.45 12.64
3/17/2021 6:45:00 AM 4.18 39.524 0.027 6.64 2.55 12.64
3/17/2021 7:00:00 AM 4.17 39.506 0.027 6.67 2.48 12.64
3/17/2021 7:15:00 AM 4.18 39.524 0.027 6.67 2.33 12.64
3/17/2021 7:30:00 AM 4.18 39.524 0.027 6.66 2.31 12.65
3/17/2021 7:45:00 AM 4.18 39.524 0.027 6.75 2.45 12.65
3/17/2021 8:00:00 AM 4.18 39.524 0.027 6.68 2.37 12.66
3/17/2021 8:15:00 AM 4.19 39.542 0.027 6.69 2.41 12.67
3/17/2021 8:30:00 AM 4.2 39.56 0.027 6.74 2.31 12.68
3/17/2021 8:45:00 AM 4.22 39.596 0.027 6.69 2.26 12.68
3/17/2021 9:00:00 AM 4.24 39.632 0.027 6.68 2.29 12.69
3/17/2021 9:15:00 AM 4.26 39.668 0.027 6.78 2.4 12.69
3/17/2021 9:30:00 AM 4.29 39.722 0.027 6.64 2.35 12.7
3/17/2021 9:45:00 AM 4.32 39.776 0.027 6.76 2.32 12.7
3/17/2021 10:00:00 AM 4.35 39.83 0.027 6.7 2.31 12.69
3/17/2021 10:15:00 AM 4.39 39.902 0.027 6.79 2.25 12.69
3/17/2021 10:30:00 AM 4.43 39.974 0.027 6.64 2.32 12.68
3/17/2021 10:45:00 AM 4.48 40.064 0.027 6.8 2.26 12.67
3/17/2021 11:00:00 AM 4.54 40.172 0.026 6.74 2.29 12.65
3/17/2021 11:15:00 AM 4.61 40.298 0.026 6.77 2.26 12.64
3/17/2021 11:30:00 AM 4.69 40.442 0.026 6.67 2.31 12.62
3/17/2021 11:45:00 AM 4.8 40.64 0.026 6.74 2.24 12.59
3/17/2021 12:00:00 PM 4.96 40.928 0.026 6.79 2.2 12.56
3/17/2021 12:15:00 PM 5.12 41.216 0.026 6.77 2.22 12.51
3/17/2021 12:30:00 PM 5.25 41.45 0.026 6.77 2.27 12.46
3/17/2021 12:45:00 PM 5.38 41.684 0.026 6.74 2.31 12.41
3/17/2021 1:00:00 PM 5.53 41.954 0.026 6.81 2.24 12.36
3/17/2021 1:15:00 PM 5.7 42.26 0.026 6.69 2.3 12.3
3/17/2021 1:30:00 PM 5.88 42.584 0.026 6.73 2.29 12.24
3/17/2021 1:45:00 PM 6.07 42.926 0.026 6.82 2.27 12.18
3/17/2021 2:00:00 PM 6.25 43.25 0.026 6.8 2.28 12.13
3/17/2021 2:15:00 PM 6.4 43.52 0.026 6.77 2.24 12.07
3/17/2021 2:30:00 PM 6.57 43.826 0.026 6.73 2.29 12.01
3/17/2021 2:45:00 PM 6.69 44.042 0.026 6.82 2.25 11.96
3/17/2021 3:00:00 PM 6.82 44.276 0.026 6.71 2.32 11.92
3/17/2021 3:15:00 PM 6.96 44.528 0.026 6.83 2.28 11.87
3/17/2021 3:30:00 PM 7.07 44.726 0.026 6.79 2.37 11.83
3/17/2021 3:45:00 PM 7.13 44.834 0.026 6.82 2.3 11.8
3/17/2021 4:00:00 PM 7.19 44.942 0.026 6.81 2.31 11.78
3/17/2021 4:15:00 PM 7.23 45.014 0.026 6.78 2.59 11.76
3/17/2021 4:30:00 PM 7.25 45.05 0.026 6.78 2.66 11.73
3/17/2021 4:45:00 PM 7.26 45.068 0.026 6.78 2.74 11.72
3/17/2021 5:00:00 PM 7.25 45.05 0.026 6.8 2.2 11.71
3/17/2021 5:15:00 PM 7.23 45.014 0.026 6.8 2.13 11.7
3/17/2021 5:30:00 PM 7.2 44.96 0.026 6.76 2.21 11.69
3/17/2021 5:45:00 PM 7.17 44.906 0.026 6.81 2.09 11.68
3/17/2021 6:00:00 PM 7.14 44.852 0.026 6.8 2.2 11.68
3/17/2021 6:15:00 PM 7.11 44.798 0.026 6.79 2.23 11.67
3/17/2021 6:30:00 PM 7.08 44.744 0.026 6.74 2.18 11.67
3/17/2021 6:45:00 PM 7.04 44.672 0.027 6.77 2.15 11.67
3/17/2021 7:00:00 PM 6.99 44.582 0.027 6.78 2.24 11.66
3/17/2021 7:15:00 PM 6.93 44.474 0.027 6.69 2.18 11.66
3/17/2021 7:30:00 PM 6.88 44.384 0.027 6.72 2.15 11.67
3/17/2021 7:45:00 PM 6.82 44.276 0.027 6.79 2.27 11.67
3/17/2021 8:00:00 PM 6.76 44.168 0.027 6.66 2.25 11.69
3/17/2021 8:15:00 PM 6.7 44.06 0.027 6.76 2.38 11.7
3/17/2021 8:30:00 PM 6.64 43.952 0.027 6.78 2.86 11.72
3/17/2021 8:45:00 PM 6.57 43.826 0.027 6.77 2.31 11.74
3/17/2021 9:00:00 PM 6.5 43.7 0.027 6.67 2.29 11.76
3/17/2021 9:15:00 PM 6.44 43.592 0.027 6.74 2.26 11.79
3/17/2021 9:30:00 PM 6.37 43.466 0.027 6.77 2.25 11.81
3/17/2021 9:45:00 PM 6.3 43.34 0.027 6.72 2.33 11.83
3/17/2021 10:00:00 PM 6.24 43.232 0.027 6.75 2.27 11.85
3/17/2021 10:15:00 PM 6.17 43.106 0.027 6.72 2.31 11.88
3/17/2021 10:30:00 PM 6.11 42.998 0.027 6.76 2.33 11.89
3/17/2021 10:45:00 PM 6.04 42.872 0.027 6.72 2.24 11.92
3/17/2021 11:00:00 PM 5.98 42.764 0.027 6.69 2.22 11.94
3/17/2021 11:15:00 PM 5.92 42.656 0.027 6.75 2.25 11.96
3/17/2021 11:30:00 PM 5.86 42.548 0.027 6.77 2.28 11.97
3/17/2021 11:45:00 PM 5.81 42.458 0.027 6.72 2.25 11.99
3/18/2021 12:00:00 AM 5.75 42.35 0.027 6.76 2.3 12
3/18/2021 12:15:00 AM 5.69 42.242 0.027 6.71 2.29 12.02
3/18/2021 12:30:00 AM 5.63 42.134 0.027 6.75 2.22 12.04
3/18/2021 12:45:00 AM 5.59 42.062 0.027 6.76 2.22 12.06
3/18/2021 1:00:00 AM 5.55 41.99 0.027 6.61 2.32 12.07
3/18/2021 1:15:00 AM 5.52 41.936 0.027 6.75 2.26 12.09
3/18/2021 1:30:00 AM 5.48 41.864 0.027 6.74 2.23 12.1
3/18/2021 1:45:00 AM 5.45 41.81 0.027 6.67 2.25 12.1
3/18/2021 2:00:00 AM 5.43 41.774 0.027 6.72 2.23 12.11
3/18/2021 2:15:00 AM 5.4 41.72 0.027 6.78 2.26 12.13
3/18/2021 2:30:00 AM 5.38 41.684 0.027 6.7 2.22 12.13
3/18/2021 2:45:00 AM 5.36 41.648 0.027 6.77 2.26 12.14
3/18/2021 3:00:00 AM 5.34 41.612 0.027 6.73 2.17 12.15
3/18/2021 3:15:00 AM 5.32 41.576 0.027 6.74 2.25 12.15
3/18/2021 3:30:00 AM 5.31 41.558 0.027 6.66 2.21 12.15
3/18/2021 3:45:00 AM 5.29 41.522 0.027 6.69 2.15 12.16
3/18/2021 4:00:00 AM 5.28 41.504 0.027 6.73 2.32 12.16
3/18/2021 4:15:00 AM 5.27 41.486 0.027 6.73 2.19 12.16
3/18/2021 4:30:00 AM 5.26 41.468 0.027 6.73 2.22 12.17
3/18/2021 4:45:00 AM 5.25 41.45 0.027 6.75 2.26 12.17
3/18/2021 5:00:00 AM 5.24 41.432 0.027 6.76 2.22 12.17
3/18/2021 5:15:00 AM 5.23 41.414 0.027 6.73 2.26 12.17
3/18/2021 5:30:00 AM 5.22 41.396 0.027 6.76 2.21 12.17
3/18/2021 5:45:00 AM 5.21 41.378 0.027 6.71 2.26 12.18
3/18/2021 6:00:00 AM 5.21 41.378 0.027 6.69 2.31 12.18
3/18/2021 6:15:00 AM 5.2 41.36 0.027 6.77 2.28 12.18
3/18/2021 6:30:00 AM 5.19 41.342 0.027 6.69 2.25 12.18
3/18/2021 6:45:00 AM 5.19 41.342 0.027 6.74 2.21 12.18
3/18/2021 7:00:00 AM 5.18 41.324 0.027 6.74 2.29 12.18
3/18/2021 7:15:00 AM 5.18 41.324 0.027 6.62 2.27 12.17
3/18/2021 7:30:00 AM 5.17 41.306 0.027 6.75 2.34 12.18
3/18/2021 7:45:00 AM 5.17 41.306 0.027 6.73 2.28 12.18
3/18/2021 8:00:00 AM 5.17 41.306 0.027 6.62 2.41 12.18
3/18/2021 8:15:00 AM 5.17 41.306 0.027 6.76 2.5 12.19
3/18/2021 8:30:00 AM 5.17 41.306 0.027 6.7 2.64 12.19
3/18/2021 8:45:00 AM 5.17 41.306 0.027 6.71 2.77 12.2
3/18/2021 9:00:00 AM 5.17 41.306 0.027 6.66 3.03 12.2
3/18/2021 9:15:00 AM 5.18 41.324 0.027 6.77 3.13 12.21
3/18/2021 9:30:00 AM 5.19 41.342 0.027 6.64 3.15 12.21
3/18/2021 9:45:00 AM 5.21 41.378 0.027 6.66 3.41 12.22
3/18/2021 10:00:00 AM 5.22 41.396 0.027 6.71 3.62 12.23
3/18/2021 10:15:00 AM 5.24 41.432 0.027 6.7 3.92 12.22
3/18/2021 10:30:00 AM 5.26 41.468 0.027 6.77 4.05 12.22
3/18/2021 10:45:00 AM 5.28 41.504 0.027 6.78 5.17 12.22
3/18/2021 11:00:00 AM 5.3 41.54 0.027 6.73 5.16 12.22
3/18/2021 11:15:00 AM 5.33 41.594 0.027 6.79 5.47 12.21
3/18/2021 11:30:00 AM 5.35 41.63 0.027 6.73 6.02 12.21
3/18/2021 11:45:00 AM 5.37 41.666 0.027 6.8 6.26 12.2
3/18/2021 12:00:00 PM 5.39 41.702 0.027 6.74 6.36 12.2
3/18/2021 12:15:00 PM 5.42 41.756 0.027 6.74 6.65 12.2
3/18/2021 12:30:00 PM 5.46 41.828 0.027 6.74 6.93 12.2
3/18/2021 12:45:00 PM 5.5 41.9 0.027 6.76 7.69 12.19
3/18/2021 1:00:00 PM 5.55 41.99 0.027 6.81 8.28 12.19
3/18/2021 1:15:00 PM 5.58 42.044 0.027 6.72 8.87 12.17
3/18/2021 1:30:00 PM 5.6 42.08 0.026 6.8 9.37 12.15
3/18/2021 1:45:00 PM 5.63 42.134 0.026 6.72 9.62 12.14
3/18/2021 2:00:00 PM 5.66 42.188 0.026 6.75 10.34 12.14
3/18/2021 2:15:00 PM 5.66 42.188 0.026 6.73 9.52 12.13
3/18/2021 2:30:00 PM 5.68 42.224 0.026 6.83 9.09 12.12
3/18/2021 2:45:00 PM 5.68 42.224 0.026 6.77 9.16 12.11
3/18/2021 3:00:00 PM 5.68 42.224 0.026 6.8 9.02 12.1
3/18/2021 3:15:00 PM 5.69 42.242 0.026 6.68 8.87 12.1
3/18/2021 3:30:00 PM 5.69 42.242 0.026 6.74 8.81 12.09
3/18/2021 3:45:00 PM 5.68 42.224 0.026 6.72 9.26 12.09
3/18/2021 4:00:00 PM 5.67 42.206 0.026 6.76 9.76 12.1
3/18/2021 4:15:00 PM 5.66 42.188 0.026 6.75 9.88 12.1
3/18/2021 4:30:00 PM 5.65 42.17 0.026 6.77 9.97 12.11
3/18/2021 4:45:00 PM 5.65 42.17 0.026 6.66 9.78 12.12
3/18/2021 5:00:00 PM 5.64 42.152 0.025 6.77 10.2 12.12
3/18/2021 5:15:00 PM 5.61 42.098 0.025 6.78 9.91 12.12
3/18/2021 5:30:00 PM 5.59 42.062 0.025 6.65 10.73 12.12
3/18/2021 5:45:00 PM 5.57 42.026 0.025 6.72 10.88 12.12
3/18/2021 6:00:00 PM 5.54 41.972 0.025 6.7 10.83 12.13
3/18/2021 6:15:00 PM 5.51 41.918 0.025 6.72 10.17 12.13
3/18/2021 6:30:00 PM 5.49 41.882 0.025 6.65 9.87 12.14
3/18/2021 6:45:00 PM 5.46 41.828 0.025 6.67 9.49 12.15
3/18/2021 7:00:00 PM 5.43 41.774 0.025 6.73 9.52 12.16
3/18/2021 7:15:00 PM 5.4 41.72 0.025 6.72 9.48 12.17
3/18/2021 7:30:00 PM 5.37 41.666 0.025 6.69 9.41 12.18
3/18/2021 7:45:00 PM 5.34 41.612 0.025 6.61 8.99 12.19
3/18/2021 8:00:00 PM 5.31 41.558 0.024 6.64 8.64 12.2
3/18/2021 8:15:00 PM 5.28 41.504 0.024 6.62 8.45 12.21
3/18/2021 8:30:00 PM 5.25 41.45 0.024 6.72 8.06 12.22
3/18/2021 8:45:00 PM 5.22 41.396 0.024 6.62 7.64 12.23
3/18/2021 9:00:00 PM 5.19 41.342 0.024 6.65 7.32 12.25
3/18/2021 9:15:00 PM 5.15 41.27 0.024 6.68 7.2 12.26
3/18/2021 9:30:00 PM 5.12 41.216 0.024 6.63 6.93 12.28
3/18/2021 9:45:00 PM 5.08 41.144 0.024 6.71 6.5 12.29
3/18/2021 10:00:00 PM 5.04 41.072 0.024 6.69 6.04 12.31
3/18/2021 10:15:00 PM 5.01 41.018 0.024 6.71 5.85 12.32
3/18/2021 10:30:00 PM 4.97 40.946 0.024 6.62 5.84 12.34
3/18/2021 10:45:00 PM 4.94 40.892 0.024 6.7 5.54 12.35
3/18/2021 11:00:00 PM 4.9 40.82 0.024 6.59 5.44 12.37
3/18/2021 11:15:00 PM 4.86 40.748 0.024 6.63 5.03 12.38
3/18/2021 11:30:00 PM 4.82 40.676 0.024 6.7 5.03 12.39
3/18/2021 11:45:00 PM 4.78 40.604 0.024 6.72 4.96 12.41
3/19/2021 12:00:00 AM 4.75 40.55 0.024 6.67 4.66 12.42
3/19/2021 12:15:00 AM 4.71 40.478 0.024 6.69 4.82 12.44
3/19/2021 12:30:00 AM 4.67 40.406 0.024 6.68 4.5 12.45
3/19/2021 12:45:00 AM 4.63 40.334 0.024 6.69 4.47 12.47
3/19/2021 1:00:00 AM 4.6 40.28 0.025 6.65 4.35 12.48
3/19/2021 1:15:00 AM 4.56 40.208 0.025 6.69 4.23 12.5
3/19/2021 1:30:00 AM 4.52 40.136 0.025 6.65 4.24 12.51
3/19/2021 1:45:00 AM 4.48 40.064 0.025 6.69 4.39 12.53
3/19/2021 2:00:00 AM 4.44 39.992 0.025 6.67 4.28 12.55
3/19/2021 2:15:00 AM 4.38 39.884 0.025 6.62 4.18 12.57
3/19/2021 2:30:00 AM 4.33 39.794 0.025 6.71 4.1 12.59
3/19/2021 2:45:00 AM 4.29 39.722 0.025 6.69 4.01 12.61
3/19/2021 3:00:00 AM 4.24 39.632 0.025 6.65 4 12.63
3/19/2021 3:15:00 AM 4.19 39.542 0.025 6.65 4.01 12.65
3/19/2021 3:30:00 AM 4.14 39.452 0.025 6.71 3.84 12.67
3/19/2021 3:45:00 AM 4.09 39.362 0.025 6.62 3.85 12.69
3/19/2021 4:00:00 AM 4.03 39.254 0.025 6.7 3.8 12.71
3/19/2021 4:15:00 AM 3.99 39.182 0.025 6.63 3.84 12.73
3/19/2021 4:30:00 AM 3.94 39.092 0.025 6.72 3.68 12.75
3/19/2021 4:45:00 AM 3.89 39.002 0.025 6.62 3.69 12.77
3/19/2021 5:00:00 AM 3.84 38.912 0.025 6.72 3.72 12.8
3/19/2021 5:15:00 AM 3.8 38.84 0.025 6.61 3.65 12.81
3/19/2021 5:30:00 AM 3.76 38.768 0.025 6.69 3.68 12.83
3/19/2021 5:45:00 AM 3.72 38.696 0.025 6.65 3.5 12.85
3/19/2021 6:00:00 AM 3.68 38.624 0.025 6.65 3.54 12.87
3/19/2021 6:15:00 AM 3.64 38.552 0.025 6.68 3.45 12.89
3/19/2021 6:30:00 AM 3.6 38.48 0.025 6.73 3.44 12.9
3/19/2021 6:45:00 AM 3.56 38.408 0.025 6.62 3.54 12.92
3/19/2021 7:00:00 AM 3.52 38.336 0.025 6.65 3.49 12.94
3/19/2021 7:15:00 AM 3.47 38.246 0.025 6.68 3.38 12.96
3/19/2021 7:30:00 AM 3.43 38.174 0.025 6.68 3.58 12.99
3/19/2021 7:45:00 AM 3.39 38.102 0.025 6.74 3.58 13.01
3/19/2021 8:00:00 AM 3.35 38.03 0.025 6.72 3.42 13.04
3/19/2021 8:15:00 AM 3.32 37.976 0.025 6.69 3.42 13.07
3/19/2021 8:30:00 AM 3.29 37.922 0.025 6.72 3.26 13.09
3/19/2021 8:45:00 AM 3.26 37.868 0.026 6.69 3.39 13.11
3/19/2021 9:00:00 AM 3.25 37.85 0.026 6.68 3.29 13.13
3/19/2021 9:15:00 AM 3.23 37.814 0.026 6.77 3.37 13.15
3/19/2021 9:30:00 AM 3.24 37.832 0.026 6.67 3.34 13.17
3/19/2021 9:45:00 AM 3.24 37.832 0.026 6.74 3.17 13.18
3/19/2021 10:00:00 AM 3.26 37.868 0.026 6.63 3.27 13.19
3/19/2021 10:15:00 AM 3.29 37.922 0.026 6.71 3.34 13.19
3/19/2021 10:30:00 AM 3.32 37.976 0.026 6.78 3.26 13.19
3/19/2021 10:45:00 AM 3.36 38.048 0.026 6.68 3.19 13.18
3/19/2021 11:00:00 AM 3.42 38.156 0.026 6.76 3.17 13.17
3/19/2021 11:15:00 AM 3.5 38.3 0.026 6.76 3.27 13.15
3/19/2021 11:30:00 AM 3.59 38.462 0.026 6.67 3.16 13.13
3/19/2021 11:45:00 AM 3.7 38.66 0.026 6.75 3.06 13.1
3/19/2021 12:00:00 PM 3.83 38.894 0.026 6.76 3.15 13.06
3/19/2021 12:15:00 PM 3.96 39.128 0.026 6.79 3.08 13.02
3/19/2021 12:30:00 PM 4.1 39.38 0.026 6.75 3.05 12.97
3/19/2021 12:45:00 PM 4.26 39.668 0.026 6.77 3.1 12.92
3/19/2021 1:00:00 PM 4.41 39.938 0.026 6.8 3.08 12.87
3/19/2021 1:15:00 PM 4.56 40.208 0.026 6.76 3.54 12.82
3/19/2021 1:30:00 PM 4.72 40.496 0.026 6.74 3.08 12.77
3/19/2021 1:45:00 PM 4.88 40.784 0.026 6.81 3.3 12.72
3/19/2021 2:00:00 PM 5.04 41.072 0.026 6.77 4.46 12.67
3/19/2021 2:15:00 PM 5.19 41.342 0.026 6.76 3.04 12.62
3/19/2021 2:30:00 PM 5.34 41.612 0.026 6.8 3.07 12.57
3/19/2021 2:45:00 PM 5.47 41.846 0.026 6.7 2.93 12.52
3/19/2021 3:00:00 PM 5.57 42.026 0.026 6.76 3 12.48
3/19/2021 3:15:00 PM 5.65 42.17 0.026 6.77 2.97 12.44
3/19/2021 3:30:00 PM 5.73 42.314 0.026 6.81 3.02 12.41
3/19/2021 3:45:00 PM 5.77 42.386 0.026 6.8 3.01 12.39
3/19/2021 4:00:00 PM 5.79 42.422 0.026 6.81 3 12.37
3/19/2021 4:15:00 PM 5.8 42.44 0.026 6.75 3 12.35
3/19/2021 4:30:00 PM 5.8 42.44 0.026 6.8 2.96 12.35
3/19/2021 4:45:00 PM 5.79 42.422 0.026 6.8 3.06 12.34
3/19/2021 5:00:00 PM 5.76 42.368 0.026 6.79 2.98 12.34
3/19/2021 5:15:00 PM 5.71 42.278 0.026 6.79 2.93 12.34
3/19/2021 5:30:00 PM 5.67 42.206 0.026 6.75 2.99 12.35
3/19/2021 5:45:00 PM 5.62 42.116 0.026 6.77 3.01 12.35
3/19/2021 6:00:00 PM 5.58 42.044 0.026 6.8 3.02 12.36
3/19/2021 6:15:00 PM 5.52 41.936 0.026 6.75 3.01 12.37
3/19/2021 6:30:00 PM 5.46 41.828 0.026 6.72 2.91 12.37
3/19/2021 6:45:00 PM 5.41 41.738 0.026 6.77 2.96 12.39
3/19/2021 7:00:00 PM 5.36 41.648 0.026 6.78 3 12.39
3/19/2021 7:15:00 PM 5.3 41.54 0.026 6.68 2.93 12.4
3/19/2021 7:30:00 PM 5.25 41.45 0.026 6.72 2.98 12.41
3/19/2021 7:45:00 PM 5.19 41.342 0.026 6.79 3.09 12.42
3/19/2021 8:00:00 PM 5.13 41.234 0.026 6.77 3.07 12.44
3/19/2021 8:15:00 PM 5.07 41.126 0.026 6.66 3.03 12.46
3/19/2021 8:30:00 PM 5.01 41.018 0.026 6.72 2.94 12.48
3/19/2021 8:45:00 PM 4.96 40.928 0.026 6.77 2.98 12.5
3/19/2021 9:00:00 PM 4.9 40.82 0.026 6.68 2.99 12.52
3/19/2021 9:15:00 PM 4.85 40.73 0.026 6.78 2.96 12.54
3/19/2021 9:30:00 PM 4.8 40.64 0.026 6.73 3.06 12.56
3/19/2021 9:45:00 PM 4.75 40.55 0.026 6.73 2.84 12.58
3/19/2021 10:00:00 PM 4.7 40.46 0.026 6.75 2.92 12.6
3/19/2021 10:15:00 PM 4.65 40.37 0.026 6.7 2.9 12.62
3/19/2021 10:30:00 PM 4.6 40.28 0.026 6.69 3.01 12.64
3/19/2021 10:45:00 PM 4.55 40.19 0.026 6.69 2.82 12.66
3/19/2021 11:00:00 PM 4.5 40.1 0.026 6.75 2.83 12.68
3/19/2021 11:15:00 PM 4.46 40.028 0.026 6.75 2.86 12.7
3/19/2021 11:30:00 PM 4.41 39.938 0.026 6.7 2.8 12.71
3/19/2021 11:45:00 PM 4.36 39.848 0.026 6.68 2.88 12.74
3/20/2021 12:00:00 AM 4.31 39.758 0.026 6.73 2.82 12.76
3/20/2021 12:15:00 AM 4.26 39.668 0.026 6.73 2.87 12.78
3/20/2021 12:30:00 AM 4.21 39.578 0.026 6.75 2.93 12.8
3/20/2021 12:45:00 AM 4.16 39.488 0.026 6.73 2.87 12.82
3/20/2021 1:00:00 AM 4.11 39.398 0.026 6.74 2.96 12.84
3/20/2021 1:15:00 AM 4.06 39.308 0.026 6.71 3.23 12.86
3/20/2021 1:30:00 AM 4.01 39.218 0.026 6.71 2.73 12.88
3/20/2021 1:45:00 AM 3.96 39.128 0.026 6.69 2.84 12.9
3/20/2021 2:00:00 AM 3.92 39.056 0.026 6.73 2.87 12.92
3/20/2021 2:15:00 AM 3.87 38.966 0.026 6.74 2.91 12.94
3/20/2021 2:30:00 AM 3.82 38.876 0.026 6.66 2.8 12.96
3/20/2021 2:45:00 AM 3.78 38.804 0.026 6.74 2.83 12.98
3/20/2021 3:00:00 AM 3.73 38.714 0.026 6.74 2.76 12.99
3/20/2021 3:15:00 AM 3.69 38.642 0.026 6.64 2.8 13.01
3/20/2021 3:30:00 AM 3.64 38.552 0.026 6.68 2.65 13.03
3/20/2021 3:45:00 AM 3.6 38.48 0.026 6.74 2.75 13.05
3/20/2021 4:00:00 AM 3.55 38.39 0.026 6.67 2.72 13.06
3/20/2021 4:15:00 AM 3.51 38.318 0.026 6.74 2.72 13.08
3/20/2021 4:30:00 AM 3.47 38.246 0.026 6.65 2.67 13.1
3/20/2021 4:45:00 AM 3.43 38.174 0.026 6.76 2.64 13.11
3/20/2021 5:00:00 AM 3.39 38.102 0.026 6.7 2.77 13.13
3/20/2021 5:15:00 AM 3.35 38.03 0.026 6.72 2.74 13.15
3/20/2021 5:30:00 AM 3.31 37.958 0.026 6.69 2.7 13.16
3/20/2021 5:45:00 AM 3.27 37.886 0.026 6.74 2.66 13.18
3/20/2021 6:00:00 AM 3.24 37.832 0.026 6.71 2.68 13.19
3/20/2021 6:15:00 AM 3.2 37.76 0.026 6.71 2.62 13.21
3/20/2021 6:30:00 AM 3.17 37.706 0.026 6.75 2.65 13.22
3/20/2021 6:45:00 AM 3.13 37.634 0.026 6.72 2.65 13.24
3/20/2021 7:00:00 AM 3.09 37.562 0.026 6.68 2.59 13.26
3/20/2021 7:15:00 AM 3.06 37.508 0.026 6.75 2.72 13.27
3/20/2021 7:30:00 AM 3.03 37.454 0.026 6.72 2.61 13.29
3/20/2021 7:45:00 AM 3 37.4 0.026 6.74 2.71 13.31
3/20/2021 8:00:00 AM 2.98 37.364 0.026 6.72 2.69 13.33
3/20/2021 8:15:00 AM 2.96 37.328 0.026 6.74 2.63 13.35
3/20/2021 8:30:00 AM 2.94 37.292 0.026 6.65 2.65 13.37
3/20/2021 8:45:00 AM 2.93 37.274 0.026 6.69 2.5 13.38
3/20/2021 9:00:00 AM 2.93 37.274 0.026 6.76 2.55 13.4
3/20/2021 9:15:00 AM 2.94 37.292 0.026 6.7 2.58 13.4
3/20/2021 9:30:00 AM 2.97 37.346 0.026 6.76 2.52 13.41
3/20/2021 9:45:00 AM 3.01 37.418 0.026 6.77 2.6 13.41
3/20/2021 10:00:00 AM 3.06 37.508 0.026 6.76 2.5 13.4
3/20/2021 10:15:00 AM 3.12 37.616 0.026 6.77 2.56 13.39
3/20/2021 10:30:00 AM 3.2 37.76 0.026 6.67 2.56 13.36
3/20/2021 10:45:00 AM 3.29 37.922 0.026 6.79 2.54 13.34
3/20/2021 11:00:00 AM 3.39 38.102 0.026 6.74 2.49 13.31
3/20/2021 11:15:00 AM 3.51 38.318 0.026 6.67 2.43 13.27
3/20/2021 11:30:00 AM 3.66 38.588 0.026 6.79 2.46 13.23
3/20/2021 11:45:00 AM 3.81 38.858 0.026 6.76 2.46 13.17
3/20/2021 12:00:00 PM 3.99 39.182 0.026 6.76 2.45 13.11
3/20/2021 12:15:00 PM 4.19 39.542 0.026 6.79 2.49 13.05
3/20/2021 12:30:00 PM 4.39 39.902 0.026 6.69 2.44 12.97
3/20/2021 12:45:00 PM 4.61 40.298 0.026 6.73 2.52 12.9
3/20/2021 1:00:00 PM 4.82 40.676 0.026 6.8 2.42 12.82
3/20/2021 1:15:00 PM 5.03 41.054 0.026 6.75 2.69 12.75
3/20/2021 1:30:00 PM 5.25 41.45 0.026 6.73 2.49 12.68
3/20/2021 1:45:00 PM 5.46 41.828 0.026 6.75 2.44 12.6
3/20/2021 2:00:00 PM 5.68 42.224 0.026 6.75 2.54 12.53
3/20/2021 2:15:00 PM 5.87 42.566 0.026 6.82 2.49 12.46
3/20/2021 2:30:00 PM 6.07 42.926 0.026 6.81 2.42 12.39
3/20/2021 2:45:00 PM 6.24 43.232 0.026 6.7 2.57 12.33
3/20/2021 3:00:00 PM 6.4 43.52 0.026 6.8 2.46 12.27
3/20/2021 3:15:00 PM 6.53 43.754 0.026 6.82 2.39 12.22
3/20/2021 3:30:00 PM 6.65 43.97 0.026 6.8 2.52 12.17
3/20/2021 3:45:00 PM 6.72 44.096 0.026 6.77 2.41 12.13
3/20/2021 4:00:00 PM 6.78 44.204 0.026 6.82 2.47 12.1
3/20/2021 4:15:00 PM 6.83 44.294 0.026 6.81 2.5 12.08
3/20/2021 4:30:00 PM 6.86 44.348 0.026 6.8 2.47 12.05
3/20/2021 4:45:00 PM 6.87 44.366 0.026 6.82 2.46 12.03
3/20/2021 5:00:00 PM 6.87 44.366 0.026 6.77 2.6 12.02
3/20/2021 5:15:00 PM 6.85 44.33 0.026 6.74 2.49 12.01
3/20/2021 5:30:00 PM 6.83 44.294 0.026 6.76 2.54 12
3/20/2021 5:45:00 PM 6.8 44.24 0.026 6.76 2.55 12
3/20/2021 6:00:00 PM 6.76 44.168 0.026 6.76 2.57 12
3/20/2021 6:15:00 PM 6.71 44.078 0.026 6.74 2.57 12
3/20/2021 6:30:00 PM 6.66 43.988 0.026 6.75 2.54 12.01
3/20/2021 6:45:00 PM 6.59 43.862 0.026 6.73 2.58 12.01
3/20/2021 7:00:00 PM 6.53 43.754 0.026 6.78 2.93 12.02
3/20/2021 7:15:00 PM 6.46 43.628 0.026 6.7 2.51 12.03
3/20/2021 7:30:00 PM 6.4 43.52 0.026 6.78 2.6 12.04
3/20/2021 7:45:00 PM 6.33 43.394 0.026 6.78 2.53 12.05
3/20/2021 8:00:00 PM 6.26 43.268 0.026 6.77 2.48 12.07
3/20/2021 8:15:00 PM 6.19 43.142 0.026 6.66 2.59 12.09
3/20/2021 8:30:00 PM 6.12 43.016 0.026 6.76 2.58 12.11
3/20/2021 8:45:00 PM 6.05 42.89 0.026 6.71 2.48 12.14
3/20/2021 9:00:00 PM 5.97 42.746 0.026 6.7 2.49 12.16
3/20/2021 9:15:00 PM 5.9 42.62 0.026 6.76 2.43 12.19
3/20/2021 9:30:00 PM 5.83 42.494 0.026 6.64 2.49 12.21
3/20/2021 9:45:00 PM 5.76 42.368 0.026 6.78 2.5 12.23
3/20/2021 10:00:00 PM 5.69 42.242 0.026 6.64 2.53 12.26
3/20/2021 10:15:00 PM 5.62 42.116 0.026 6.77 2.58 12.28
3/20/2021 10:30:00 PM 5.55 41.99 0.026 6.66 2.42 12.3
3/20/2021 10:45:00 PM 5.48 41.864 0.026 6.71 2.45 12.33
3/20/2021 11:00:00 PM 5.41 41.738 0.026 6.7 2.58 12.35
3/20/2021 11:15:00 PM 5.35 41.63 0.026 6.77 2.54 12.38
3/20/2021 11:30:00 PM 5.28 41.504 0.026 6.67 2.62 12.4
3/20/2021 11:45:00 PM 5.21 41.378 0.026 6.77 2.43 12.43
3/21/2021 12:00:00 AM 5.14 41.252 0.026 6.7 2.51 12.45
3/21/2021 12:15:00 AM 5.08 41.144 0.026 6.76 2.46 12.47
3/21/2021 12:30:00 AM 5.01 41.018 0.026 6.73 2.46 12.5
3/21/2021 12:45:00 AM 4.94 40.892 0.026 6.76 2.44 12.52
3/21/2021 1:00:00 AM 4.88 40.784 0.027 6.67 2.44 12.54
3/21/2021 1:15:00 AM 4.82 40.676 0.027 6.77 2.47 12.57
3/21/2021 1:30:00 AM 4.75 40.55 0.027 6.64 2.49 12.59
3/21/2021 1:45:00 AM 4.69 40.442 0.027 6.75 2.39 12.61
3/21/2021 2:00:00 AM 4.63 40.334 0.027 6.67 2.4 12.64
3/21/2021 2:15:00 AM 4.58 40.244 0.027 6.71 2.42 12.66
3/21/2021 2:30:00 AM 4.52 40.136 0.027 6.76 2.43 12.68
3/21/2021 2:45:00 AM 4.46 40.028 0.027 6.75 2.49 12.7
3/21/2021 3:00:00 AM 4.41 39.938 0.027 6.75 2.54 12.72
3/21/2021 3:15:00 AM 4.36 39.848 0.027 6.72 2.41 12.74
3/21/2021 3:30:00 AM 4.3 39.74 0.027 6.68 2.42 12.76
3/21/2021 3:45:00 AM 4.25 39.65 0.027 6.7 2.42 12.78
3/21/2021 4:00:00 AM 4.2 39.56 0.027 6.69 2.41 12.8
3/21/2021 4:15:00 AM 4.14 39.452 0.027 6.75 2.39 12.82
3/21/2021 4:30:00 AM 4.09 39.362 0.027 6.63 2.38 12.83
3/21/2021 4:45:00 AM 4.04 39.272 0.027 6.69 2.36 12.85
3/21/2021 5:00:00 AM 4 39.2 0.027 6.69 2.48 12.87
3/21/2021 5:15:00 AM 3.95 39.11 0.027 6.74 2.37 12.89
3/21/2021 5:30:00 AM 3.9 39.02 0.027 6.75 2.4 12.91
3/21/2021 5:45:00 AM 3.86 38.948 0.027 6.73 2.39 12.93
3/21/2021 6:00:00 AM 3.81 38.858 0.027 6.76 2.45 12.95
3/21/2021 6:15:00 AM 3.76 38.768 0.027 6.75 2.43 12.96
3/21/2021 6:30:00 AM 3.72 38.696 0.027 6.63 2.38 12.98
3/21/2021 6:45:00 AM 3.67 38.606 0.027 6.69 2.41 13
3/21/2021 7:00:00 AM 3.63 38.534 0.027 6.65 2.47 13.02
3/21/2021 7:15:00 AM 3.59 38.462 0.027 6.75 2.39 13.04
3/21/2021 7:30:00 AM 3.55 38.39 0.027 6.72 2.36 13.06
3/21/2021 7:45:00 AM 3.51 38.318 0.027 6.74 2.43 13.08
3/21/2021 8:00:00 AM 3.48 38.264 0.027 6.64 2.47 13.11
3/21/2021 8:15:00 AM 3.45 38.21 0.027 6.73 2.39 13.13
3/21/2021 8:30:00 AM 3.42 38.156 0.027 6.68 2.42 13.15
3/21/2021 8:45:00 AM 3.41 38.138 0.027 6.77 2.41 13.17
3/21/2021 9:00:00 AM 3.4 38.12 0.027 6.74 2.36 13.18
3/21/2021 9:15:00 AM 3.42 38.156 0.027 6.76 2.45 13.19
3/21/2021 9:30:00 AM 3.44 38.192 0.027 6.68 2.39 13.2
3/21/2021 9:45:00 AM 3.48 38.264 0.027 6.71 2.31 13.2
3/21/2021 10:00:00 AM 3.52 38.336 0.027 6.71 2.31 13.2
3/21/2021 10:15:00 AM 3.59 38.462 0.027 6.79 2.35 13.18
3/21/2021 10:30:00 AM 3.67 38.606 0.027 6.73 2.44 13.16
3/21/2021 10:45:00 AM 3.77 38.786 0.027 6.79 2.38 13.13
3/21/2021 11:00:00 AM 3.88 38.984 0.027 6.66 2.27 13.1
3/21/2021 11:15:00 AM 4.02 39.236 0.027 6.75 2.25 13.06
3/21/2021 11:30:00 AM 4.17 39.506 0.027 6.79 2.3 13.02
3/21/2021 11:45:00 AM 4.34 39.812 0.027 6.78 2.61 12.97
3/21/2021 12:00:00 PM 4.53 40.154 0.026 6.76 2.32 12.9
3/21/2021 12:15:00 PM 4.74 40.532 0.026 6.76 2.25 12.83
3/21/2021 12:30:00 PM 4.95 40.91 0.026 6.74 2.3 12.75
3/21/2021 12:45:00 PM 5.19 41.342 0.026 6.8 2.23 12.68
3/21/2021 1:00:00 PM 5.42 41.756 0.026 6.82 2.34 12.59
3/21/2021 1:15:00 PM 5.64 42.152 0.026 6.69 2.36 12.51
3/21/2021 1:30:00 PM 5.88 42.584 0.026 6.81 2.33 12.42
3/21/2021 1:45:00 PM 6.11 42.998 0.026 6.73 2.33 12.35
3/21/2021 2:00:00 PM 6.33 43.394 0.026 6.8 2.36 12.28
3/21/2021 2:15:00 PM 6.54 43.772 0.026 6.82 2.29 12.21
3/21/2021 2:30:00 PM 6.74 44.132 0.026 6.79 2.28 12.14
3/21/2021 2:45:00 PM 6.93 44.474 0.026 6.83 2.38 12.07
3/21/2021 3:00:00 PM 7.09 44.762 0.026 6.79 2.34 12.01
3/21/2021 3:15:00 PM 7.23 45.014 0.026 6.74 2.27 11.97
3/21/2021 3:30:00 PM 7.35 45.23 0.026 6.76 2.31 11.91
3/21/2021 3:45:00 PM 7.43 45.374 0.026 6.84 2.29 11.88
3/21/2021 4:00:00 PM 7.49 45.482 0.026 6.81 2.31 11.84
3/21/2021 4:15:00 PM 7.53 45.554 0.026 6.83 2.31 11.81
3/21/2021 4:30:00 PM 7.56 45.608 0.026 6.83 2.37 11.79
3/21/2021 4:45:00 PM 7.57 45.626 0.026 6.82 2.37 11.78
3/21/2021 5:00:00 PM 7.56 45.608 0.026 6.83 2.18 11.77
3/21/2021 5:15:00 PM 7.53 45.554 0.026 6.83 2.37 11.76
3/21/2021 5:30:00 PM 7.5 45.5 0.026 6.79 2.24 11.75
3/21/2021 5:45:00 PM 7.46 45.428 0.026 6.78 2.29 11.75
3/21/2021 6:00:00 PM 7.42 45.356 0.026 6.75 2.32 11.75
3/21/2021 6:15:00 PM 7.37 45.266 0.026 6.77 2.27 11.74
3/21/2021 6:30:00 PM 7.31 45.158 0.026 6.81 2.37 11.75
3/21/2021 6:45:00 PM 7.25 45.05 0.026 6.73 2.35 11.75
3/21/2021 7:00:00 PM 7.18 44.924 0.026 6.75 2.37 11.76
3/21/2021 7:15:00 PM 7.11 44.798 0.027 6.73 2.35 11.77
3/21/2021 7:30:00 PM 7.03 44.654 0.027 6.74 2.35 11.78
3/21/2021 7:45:00 PM 6.97 44.546 0.027 6.79 2.37 11.79
3/21/2021 8:00:00 PM 6.9 44.42 0.027 6.78 2.33 11.81
3/21/2021 8:15:00 PM 6.82 44.276 0.027 6.77 2.34 11.83
3/21/2021 8:30:00 PM 6.75 44.15 0.027 6.68 2.36 11.85
3/21/2021 8:45:00 PM 6.67 44.006 0.027 6.75 2.32 11.87
3/21/2021 9:00:00 PM 6.59 43.862 0.027 6.74 2.4 11.89
3/21/2021 9:15:00 PM 6.51 43.718 0.027 6.77 2.34 11.92
3/21/2021 9:30:00 PM 6.44 43.592 0.027 6.65 2.47 11.94
3/21/2021 9:45:00 PM 6.36 43.448 0.027 6.73 2.36 11.96
3/21/2021 10:00:00 PM 6.28 43.304 0.027 6.77 2.38 11.99
3/21/2021 10:15:00 PM 6.21 43.178 0.027 6.7 2.44 12.01
3/21/2021 10:30:00 PM 6.13 43.034 0.027 6.74 2.45 12.03
3/21/2021 10:45:00 PM 6.06 42.908 0.027 6.65 2.49 12.05
3/21/2021 11:00:00 PM 5.99 42.782 0.027 6.72 2.31 12.08
3/21/2021 11:15:00 PM 5.91 42.638 0.027 6.76 2.33 12.1
3/21/2021 11:30:00 PM 5.84 42.512 0.027 6.77 2.41 12.12
3/21/2021 11:45:00 PM 5.76 42.368 0.027 6.63 2.34 12.15
3/22/2021 12:00:00 AM 5.69 42.242 0.027 6.72 2.43 12.18
3/22/2021 12:15:00 AM 5.61 42.098 0.027 6.74 2.29 12.2
3/22/2021 12:30:00 AM 5.53 41.954 0.027 6.67 2.35 12.23
3/22/2021 12:45:00 AM 5.46 41.828 0.027 6.74 2.32 12.25
3/22/2021 1:00:00 AM 5.38 41.684 0.027 6.77 2.5 12.28
3/22/2021 1:15:00 AM 5.31 41.558 0.027 6.76 2.4 12.31
3/22/2021 1:30:00 AM 5.23 41.414 0.027 6.72 2.31 12.33
3/22/2021 1:45:00 AM 5.16 41.288 0.027 6.75 2.43 12.36
3/22/2021 2:00:00 AM 5.09 41.162 0.027 6.74 2.3 12.39
3/22/2021 2:15:00 AM 5.02 41.036 0.027 6.76 2.33 12.41
3/22/2021 2:30:00 AM 4.95 40.91 0.027 6.62 2.36 12.43
3/22/2021 2:45:00 AM 4.88 40.784 0.027 6.71 2.35 12.46
3/22/2021 3:00:00 AM 4.82 40.676 0.027 6.75 2.3 12.48
3/22/2021 3:15:00 AM 4.76 40.568 0.027 6.76 2.41 12.5
3/22/2021 3:30:00 AM 4.69 40.442 0.027 6.69 2.32 12.53
3/22/2021 3:45:00 AM 4.64 40.352 0.027 6.74 2.29 12.55
3/22/2021 4:00:00 AM 4.58 40.244 0.027 6.76 2.26 12.57
3/22/2021 4:15:00 AM 4.52 40.136 0.027 6.65 2.33 12.59
3/22/2021 4:30:00 AM 4.46 40.028 0.027 6.68 2.25 12.61
3/22/2021 4:45:00 AM 4.41 39.938 0.027 6.67 2.32 12.63
3/22/2021 5:00:00 AM 4.35 39.83 0.027 6.77 2.3 12.65
3/22/2021 5:15:00 AM 4.3 39.74 0.027 6.74 2.31 12.67
3/22/2021 5:30:00 AM 4.25 39.65 0.027 6.75 2.25 12.69
3/22/2021 5:45:00 AM 4.2 39.56 0.027 6.65 2.22 12.71
3/22/2021 6:00:00 AM 4.15 39.47 0.027 6.76 2.29 12.73
3/22/2021 6:15:00 AM 4.1 39.38 0.027 6.64 2.3 12.75
3/22/2021 6:30:00 AM 4.05 39.29 0.027 6.76 2.43 12.77
3/22/2021 6:45:00 AM 4 39.2 0.027 6.65 2.39 12.79
3/22/2021 7:00:00 AM 3.96 39.128 0.027 6.69 2.28 12.8
3/22/2021 7:15:00 AM 3.91 39.038 0.027 6.76 2.3 12.83
3/22/2021 7:30:00 AM 3.87 38.966 0.027 6.74 2.29 12.85
3/22/2021 7:45:00 AM 3.83 38.894 0.027 6.73 2.33 12.88
3/22/2021 8:00:00 AM 3.8 38.84 0.027 6.77 2.32 12.9
3/22/2021 8:15:00 AM 3.77 38.786 0.027 6.75 2.24 12.93
3/22/2021 8:30:00 AM 3.74 38.732 0.027 6.65 2.18 12.95
3/22/2021 8:45:00 AM 3.72 38.696 0.027 6.77 2.19 12.97
3/22/2021 9:00:00 AM 3.72 38.696 0.027 6.75 2.16 12.98
3/22/2021 9:15:00 AM 3.73 38.714 0.027 6.75 2.23 12.99
3/22/2021 9:30:00 AM 3.77 38.786 0.027 6.75 2.34 13
3/22/2021 9:45:00 AM 3.8 38.84 0.027 6.71 2.6 13
3/22/2021 10:00:00 AM 3.85 38.93 0.027 6.71 2.69 12.99
3/22/2021 10:15:00 AM 3.92 39.056 0.027 6.8 2.66 12.98
3/22/2021 10:30:00 AM 4 39.2 0.027 6.74 2.23 12.95
3/22/2021 10:45:00 AM 4.11 39.398 0.027 6.79 2.17 12.93
3/22/2021 11:00:00 AM 4.23 39.614 0.027 6.7 2.23 12.89
3/22/2021 11:15:00 AM 4.37 39.866 0.027 6.8 2.31 12.86
3/22/2021 11:30:00 AM 4.53 40.154 0.027 6.81 2.22 12.81
3/22/2021 11:45:00 AM 4.7 40.46 0.027 6.78 2.17 12.75
3/22/2021 12:00:00 PM 4.89 40.802 0.027 6.8 2.22 12.69
3/22/2021 12:15:00 PM 5.11 41.198 0.027 6.81 2.22 12.62
3/22/2021 12:30:00 PM 5.33 41.594 0.027 6.8 2.26 12.55
3/22/2021 12:45:00 PM 5.56 42.008 0.027 6.81 2.31 12.47
3/22/2021 1:00:00 PM 5.8 42.44 0.027 6.79 2.21 12.38
3/22/2021 1:15:00 PM 6.03 42.854 0.027 6.76 2.19 12.3
3/22/2021 1:30:00 PM 6.27 43.286 0.027 6.78 2.11 12.22
3/22/2021 1:45:00 PM 6.51 43.718 0.027 6.79 2.11 12.14
3/22/2021 2:00:00 PM 6.74 44.132 0.027 6.84 2.11 12.06
3/22/2021 2:15:00 PM 6.95 44.51 0.027 6.73 2.09 11.99
3/22/2021 2:30:00 PM 7.15 44.87 0.027 6.78 2.12 11.92
3/22/2021 2:45:00 PM 7.33 45.194 0.027 6.85 2.11 11.86
3/22/2021 3:00:00 PM 7.49 45.482 0.027 6.73 2.14 11.8
3/22/2021 3:15:00 PM 7.63 45.734 0.027 6.86 2.2 11.76
3/22/2021 3:30:00 PM 7.74 45.932 0.027 6.81 2.15 11.71
3/22/2021 3:45:00 PM 7.83 46.094 0.027 6.84 2.2 11.67
3/22/2021 4:00:00 PM 7.88 46.184 0.027 6.79 2.23 11.63
3/22/2021 4:15:00 PM 7.93 46.274 0.027 6.79 2.18 11.61
3/22/2021 4:30:00 PM 7.95 46.31 0.027 6.8 2.12 11.59
3/22/2021 4:45:00 PM 7.96 46.328 0.027 6.86 2.19 11.57
3/22/2021 5:00:00 PM 7.94 46.292 0.027 6.79 2.11 11.55
3/22/2021 5:15:00 PM 7.92 46.256 0.027 6.77 2.13 11.55
3/22/2021 5:30:00 PM 7.89 46.202 0.027 6.84 2.13 11.54
3/22/2021 5:45:00 PM 7.85 46.13 0.027 6.8 2.08 11.54
3/22/2021 6:00:00 PM 7.81 46.058 0.027 6.83 2.07 11.53
3/22/2021 6:15:00 PM 7.77 45.986 0.027 6.74 2.1 11.53
3/22/2021 6:30:00 PM 7.72 45.896 0.027 6.84 2.08 11.54
3/22/2021 6:45:00 PM 7.65 45.77 0.027 6.74 2.26 11.54
3/22/2021 7:00:00 PM 7.58 45.644 0.027 6.83 2.13 11.55
3/22/2021 7:15:00 PM 7.51 45.518 0.027 6.77 2.12 11.55
3/22/2021 7:30:00 PM 7.44 45.392 0.027 6.75 2.14 11.56
3/22/2021 7:45:00 PM 7.37 45.266 0.027 6.75 2.21 11.57
3/22/2021 8:00:00 PM 7.29 45.122 0.027 6.73 2.19 11.59
3/22/2021 8:15:00 PM 7.22 44.996 0.027 6.75 2.18 11.61
3/22/2021 8:30:00 PM 7.15 44.87 0.027 6.81 2.24 11.63
3/22/2021 8:45:00 PM 7.08 44.744 0.027 6.73 2.2 11.65
3/22/2021 9:00:00 PM 7 44.6 0.027 6.78 2.17 11.67
3/22/2021 9:15:00 PM 6.92 44.456 0.027 6.79 2.25 11.7
3/22/2021 9:30:00 PM 6.84 44.312 0.027 6.79 2.25 11.72
3/22/2021 9:45:00 PM 6.76 44.168 0.027 6.74 2.23 11.75
3/22/2021 10:00:00 PM 6.69 44.042 0.027 6.73 2.35 11.77
3/22/2021 10:15:00 PM 6.61 43.898 0.027 6.7 2.22 11.79
3/22/2021 10:30:00 PM 6.53 43.754 0.027 6.79 2.33 11.81
3/22/2021 10:45:00 PM 6.46 43.628 0.027 6.79 2.25 11.83
3/22/2021 11:00:00 PM 6.38 43.484 0.027 6.78 2.24 11.85
3/22/2021 11:15:00 PM 6.31 43.358 0.027 6.78 2.24 11.88
3/22/2021 11:30:00 PM 6.24 43.232 0.027 6.77 2.39 11.9
3/22/2021 11:45:00 PM 6.17 43.106 0.027 6.75 2.28 11.92
3/23/2021 12:00:00 AM 6.1 42.98 0.027 6.73 2.26 11.94
3/23/2021 12:15:00 AM 6.03 42.854 0.027 6.78 2.24 11.96
3/23/2021 12:30:00 AM 5.95 42.71 0.027 6.78 2.25 11.99
3/23/2021 12:45:00 AM 5.89 42.602 0.027 6.66 2.25 12.01
3/23/2021 1:00:00 AM 5.82 42.476 0.027 6.7 2.35 12.03
3/23/2021 1:15:00 AM 5.75 42.35 0.027 6.78 2.27 12.06
3/23/2021 1:30:00 AM 5.68 42.224 0.027 6.77 2.27 12.08
3/23/2021 1:45:00 AM 5.61 42.098 0.027 6.64 2.28 12.11
3/23/2021 2:00:00 AM 5.54 41.972 0.027 6.77 2.21 12.13
3/23/2021 2:15:00 AM 5.46 41.828 0.027 6.65 2.13 12.16
3/23/2021 2:30:00 AM 5.39 41.702 0.027 6.79 2.18 12.18
3/23/2021 2:45:00 AM 5.32 41.576 0.027 6.7 2.18 12.21
3/23/2021 3:00:00 AM 5.25 41.45 0.027 6.78 2.28 12.24
3/23/2021 3:15:00 AM 5.18 41.324 0.027 6.77 2.15 12.26
3/23/2021 3:30:00 AM 5.11 41.198 0.027 6.77 2.25 12.29
3/23/2021 3:45:00 AM 5.05 41.09 0.027 6.76 2.28 12.31
3/23/2021 4:00:00 AM 4.98 40.964 0.027 6.67 2.2 12.34
3/23/2021 4:15:00 AM 4.92 40.856 0.027 6.76 2.24 12.36
3/23/2021 4:30:00 AM 4.86 40.748 0.027 6.74 2.21 12.39
3/23/2021 4:45:00 AM 4.8 40.64 0.027 6.77 2.16 12.41
3/23/2021 5:00:00 AM 4.74 40.532 0.027 6.78 2.17 12.43
3/23/2021 5:15:00 AM 4.68 40.424 0.027 6.77 2.24 12.45
3/23/2021 5:30:00 AM 4.62 40.316 0.027 6.76 2.18 12.48
3/23/2021 5:45:00 AM 4.57 40.226 0.027 6.63 2.17 12.5
3/23/2021 6:00:00 AM 4.51 40.118 0.027 6.77 2.1 12.52
3/23/2021 6:15:00 AM 4.46 40.028 0.027 6.76 2.08 12.54
3/23/2021 6:30:00 AM 4.41 39.938 0.027 6.77 2.1 12.56
3/23/2021 6:45:00 AM 4.36 39.848 0.027 6.75 2.2 12.58
3/23/2021 7:00:00 AM 4.31 39.758 0.027 6.76 2.1 12.6
3/23/2021 7:15:00 AM 4.27 39.686 0.027 6.73 2.12 12.62
3/23/2021 7:30:00 AM 4.23 39.614 0.027 6.75 2.22 12.64
3/23/2021 7:45:00 AM 4.19 39.542 0.027 6.74 2.09 12.68
3/23/2021 8:00:00 AM 4.17 39.506 0.027 6.78 2.15 12.71
3/23/2021 8:15:00 AM 4.14 39.452 0.027 6.68 2.27 12.73
3/23/2021 8:30:00 AM 4.12 39.416 0.027 6.74 2.23 12.75
3/23/2021 8:45:00 AM 4.11 39.398 0.027 6.67 2.21 12.77
3/23/2021 9:00:00 AM 4.11 39.398 0.027 6.8 2.18 12.78
3/23/2021 9:15:00 AM 4.14 39.452 0.027 6.76 2.21 12.79
3/23/2021 9:30:00 AM 4.18 39.524 0.027 6.8 2.18 12.8
3/23/2021 9:45:00 AM 4.22 39.596 0.027 6.8 2.18 12.79
3/23/2021 10:00:00 AM 4.26 39.668 0.027 6.8 2.22 12.79
3/23/2021 10:15:00 AM 4.34 39.812 0.027 6.79 2.2 12.77
3/23/2021 10:30:00 AM 4.43 39.974 0.027 6.77 2.17 12.75
3/23/2021 10:45:00 AM 4.55 40.19 0.027 6.71 2.18 12.72
3/23/2021 11:00:00 AM 4.65 40.37 0.027 6.83 2.15 12.69
3/23/2021 11:15:00 AM 4.78 40.604 0.027 6.7 2.12 12.65
3/23/2021 11:30:00 AM 4.96 40.928 0.027 6.79 2.15 12.61
3/23/2021 11:45:00 AM 5.13 41.234 0.027 6.84 2.23 12.56
3/23/2021 12:00:00 PM 5.27 41.486 0.027 6.72 2.2 12.51
3/23/2021 12:15:00 PM 5.46 41.828 0.027 6.84 2.16 12.45
3/23/2021 12:30:00 PM 5.7 42.26 0.027 6.84 2.16 12.38
3/23/2021 12:45:00 PM 5.93 42.674 0.027 6.79 2.14 12.31
3/23/2021 1:00:00 PM 6.12 43.016 0.027 6.87 2.19 12.24
3/23/2021 1:15:00 PM 6.34 43.412 0.027 6.85 2.17 12.17
3/23/2021 1:30:00 PM 6.48 43.664 0.027 6.86 2.13 12.1
3/23/2021 1:45:00 PM 6.6 43.88 0.027 6.8 2.15 12.05
3/23/2021 2:00:00 PM 6.73 44.114 0.027 6.78 2.09 12
3/23/2021 2:15:00 PM 6.86 44.348 0.027 6.8 2.19 11.95
3/23/2021 2:30:00 PM 7.01 44.618 0.027 6.88 2.16 11.91
3/23/2021 2:45:00 PM 7.1 44.78 0.027 6.81 2.18 11.87
3/23/2021 3:00:00 PM 7.16 44.888 0.027 6.87 2.13 11.84
3/23/2021 3:15:00 PM 7.32 45.176 0.027 6.77 2.17 11.8
3/23/2021 3:30:00 PM 7.36 45.248 0.027 6.83 2.16 11.76
3/23/2021 3:45:00 PM 7.4 45.32 0.027 6.81 2.11 11.74
3/23/2021 4:00:00 PM 7.5 45.5 0.027 6.88 2.15 11.7
3/23/2021 4:15:00 PM 7.52 45.536 0.027 6.87 2.18 11.68
3/23/2021 4:30:00 PM 7.58 45.644 0.027 6.89 2.18 11.66
3/23/2021 4:45:00 PM 7.63 45.734 0.027 6.86 2.17 11.64
3/23/2021 5:00:00 PM 7.63 45.734 0.027 6.87 2.24 11.62
3/23/2021 5:15:00 PM 7.69 45.842 0.027 6.8 2.17 11.61
3/23/2021 5:30:00 PM 7.75 45.95 0.027 6.88 2.2 11.59
3/23/2021 5:45:00 PM 7.76 45.968 0.027 6.75 2.21 11.57
3/23/2021 6:00:00 PM 7.73 45.914 0.027 6.81 2.21 11.55
3/23/2021 6:15:00 PM 7.74 45.932 0.027 6.81 2.26 11.54
3/23/2021 6:30:00 PM 7.74 45.932 0.027 6.82 2.06 11.53
3/23/2021 6:45:00 PM 7.71 45.878 0.027 6.79 2.08 11.52
3/23/2021 7:00:00 PM 7.69 45.842 0.027 6.79 2.11 11.49
3/23/2021 7:15:00 PM 7.66 45.788 0.027 6.79 2.14 11.47
3/23/2021 7:30:00 PM 7.64 45.752 0.027 6.78 2.07 11.46
3/23/2021 7:45:00 PM 7.61 45.698 0.027 6.76 2.09 11.46
3/23/2021 8:00:00 PM 7.59 45.662 0.027 6.81 3.85 11.46
3/23/2021 8:15:00 PM 7.57 45.626 0.027 6.72 2.36 11.46
3/23/2021 8:30:00 PM 7.55 45.59 0.027 6.79 2.24 11.47
3/23/2021 8:45:00 PM 7.52 45.536 0.027 6.81 2.28 11.47
3/23/2021 9:00:00 PM 7.49 45.482 0.027 6.78 2.25 11.48
3/23/2021 9:15:00 PM 7.45 45.41 0.027 6.8 2.28 11.49
3/23/2021 9:30:00 PM 7.41 45.338 0.027 6.79 2.3 11.5
3/23/2021 9:45:00 PM 7.37 45.266 0.027 6.68 2.28 11.51
3/23/2021 10:00:00 PM 7.32 45.176 0.027 6.75 2.3 11.53
3/23/2021 10:15:00 PM 7.28 45.104 0.027 6.81 2.31 11.54
3/23/2021 10:30:00 PM 7.23 45.014 0.027 6.77 2.28 11.56
3/23/2021 10:45:00 PM 7.18 44.924 0.027 6.8 2.21 11.57
3/23/2021 11:00:00 PM 7.13 44.834 0.027 6.68 2.26 11.58
3/23/2021 11:15:00 PM 7.09 44.762 0.027 6.81 2.23 11.59
3/23/2021 11:30:00 PM 7.04 44.672 0.027 6.77 2.13 11.61
3/23/2021 11:45:00 PM 7 44.6 0.027 6.72 2.24 11.62
3/24/2021 12:00:00 AM 6.96 44.528 0.027 6.77 2.32 11.63
3/24/2021 12:15:00 AM 6.92 44.456 0.027 6.81 2.28 11.65
3/24/2021 12:30:00 AM 6.89 44.402 0.027 6.79 2.22 11.66
3/24/2021 12:45:00 AM 6.86 44.348 0.027 6.69 2.22 11.67
3/24/2021 1:00:00 AM 6.83 44.294 0.027 6.82 2.27 11.68
3/24/2021 1:15:00 AM 6.81 44.258 0.027 6.8 2.34 11.69
3/24/2021 1:30:00 AM 6.78 44.204 0.027 6.71 2.29 11.69
3/24/2021 1:45:00 AM 6.76 44.168 0.027 6.71 2.29 11.7
3/24/2021 2:00:00 AM 6.74 44.132 0.027 6.74 2.25 11.7
3/24/2021 2:15:00 AM 6.72 44.096 0.027 6.73 2.25 11.71
3/24/2021 2:30:00 AM 6.7 44.06 0.027 6.81 2.25 11.71
3/24/2021 2:45:00 AM 6.67 44.006 0.027 6.67 2.18 11.72
3/24/2021 3:00:00 AM 6.66 43.988 0.027 6.75 2.29 11.72
3/24/2021 3:15:00 AM 6.65 43.97 0.027 6.76 2.18 11.73
3/24/2021 3:30:00 AM 6.65 43.97 0.027 6.72 2.18 11.73
3/24/2021 3:45:00 AM 6.64 43.952 0.027 6.81 2.21 11.73
3/24/2021 4:00:00 AM 6.63 43.934 0.027 6.81 2.24 11.73
3/24/2021 4:15:00 AM 6.62 43.916 0.027 6.8 2.17 11.73
3/24/2021 4:30:00 AM 6.61 43.898 0.027 6.8 2.24 11.73
3/24/2021 4:45:00 AM 6.61 43.898 0.027 6.74 2.25 11.73
3/24/2021 5:00:00 AM 6.61 43.898 0.027 6.8 2.27 11.73
3/24/2021 5:15:00 AM 6.6 43.88 0.028 6.79 2.29 11.73
3/24/2021 5:30:00 AM 6.6 43.88 0.027 6.79 2.18 11.74
3/24/2021 5:45:00 AM 6.6 43.88 0.027 6.78 2.25 11.73
3/24/2021 6:00:00 AM 6.6 43.88 0.027 6.69 2.31 11.73
3/24/2021 6:15:00 AM 6.6 43.88 0.027 6.73 2.16 11.73
3/24/2021 6:30:00 AM 6.6 43.88 0.027 6.74 2.27 11.74
3/24/2021 6:45:00 AM 6.61 43.898 0.027 6.79 2.28 11.73
3/24/2021 7:00:00 AM 6.61 43.898 0.027 6.77 2.31 11.73
3/24/2021 7:15:00 AM 6.61 43.898 0.027 6.79 2.53 11.73
3/24/2021 7:30:00 AM 6.62 43.916 0.027 6.75 2.58 11.73
3/24/2021 7:45:00 AM 6.63 43.934 0.027 6.78 2.82 11.73
3/24/2021 8:00:00 AM 6.64 43.952 0.027 6.66 3.23 11.74
3/24/2021 8:15:00 AM 6.65 43.97 0.027 6.79 3.9 11.74
3/24/2021 8:30:00 AM 6.66 43.988 0.027 6.72 3.92 11.75
3/24/2021 8:45:00 AM 6.67 44.006 0.027 6.78 5 11.76
3/24/2021 9:00:00 AM 6.68 44.024 0.027 6.77 5.74 11.78
3/24/2021 9:15:00 AM 6.7 44.06 0.027 6.83 5.11 11.79
3/24/2021 9:30:00 AM 6.73 44.114 0.027 6.82 5.88 11.8
3/24/2021 9:45:00 AM 6.77 44.186 0.027 6.82 5.54 11.81
3/24/2021 10:00:00 AM 6.8 44.24 0.027 6.74 5.08 11.82
3/24/2021 10:15:00 AM 6.83 44.294 0.027 6.86 4.77 11.81
3/24/2021 10:30:00 AM 6.87 44.366 0.027 6.84 4.77 11.81
3/24/2021 10:45:00 AM 6.91 44.438 0.027 6.74 4.56 11.8
3/24/2021 11:00:00 AM 6.94 44.492 0.027 6.82 4.66 11.8
3/24/2021 11:15:00 AM 6.99 44.582 0.027 6.81 4.7 11.79
3/24/2021 11:30:00 AM 7.06 44.708 0.027 6.88 5.04 11.79
3/24/2021 11:45:00 AM 7.13 44.834 0.027 6.79 4.99 11.77
3/24/2021 12:00:00 PM 7.19 44.942 0.027 6.8 5.43 11.76
3/24/2021 12:15:00 PM 7.29 45.122 0.027 6.9 5.61 11.74
3/24/2021 12:30:00 PM 7.36 45.248 0.027 6.81 5.49 11.72
3/24/2021 12:45:00 PM 7.39 45.302 0.027 6.89 5.81 11.69
3/24/2021 1:00:00 PM 7.48 45.464 0.027 6.86 5.28 11.67
3/24/2021 1:15:00 PM 7.55 45.59 0.027 6.88 5.07 11.65
3/24/2021 1:30:00 PM 7.61 45.698 0.026 6.87 4.67 11.63
3/24/2021 1:45:00 PM 7.66 45.788 0.026 6.87 4.57 11.6
3/24/2021 2:00:00 PM 7.7 45.86 0.026 6.77 4.41 11.57
3/24/2021 2:15:00 PM 7.73 45.914 0.026 6.88 4.44 11.54
3/24/2021 2:30:00 PM 7.79 46.022 0.026 6.76 4.32 11.53
3/24/2021 2:45:00 PM 7.88 46.184 0.026 6.82 4.14 11.51
3/24/2021 3:00:00 PM 7.96 46.328 0.026 6.9 3.89 11.49
3/24/2021 3:15:00 PM 7.98 46.364 0.026 6.74 3.71 11.47
3/24/2021 3:30:00 PM 8.08 46.544 0.026 6.85 3.75 11.45
3/24/2021 3:45:00 PM 8.24 46.832 0.026 6.88 3.5 11.42
3/24/2021 4:00:00 PM 8.39 47.102 0.026 6.85 3.38 11.37
3/24/2021 4:15:00 PM 8.47 47.246 0.026 6.85 3.27 11.34
3/24/2021 4:30:00 PM 8.45 47.21 0.026 6.79 3.22 11.32
3/24/2021 4:45:00 PM 8.42 47.156 0.026 6.81 3.12 11.31
3/24/2021 5:00:00 PM 8.42 47.156 0.026 6.86 3.08 11.29
3/24/2021 5:15:00 PM 8.44 47.192 0.026 6.87 2.93 11.26
3/24/2021 5:30:00 PM 8.46 47.228 0.026 6.82 2.93 11.24
3/24/2021 5:45:00 PM 8.46 47.228 0.026 6.82 2.89 11.23
3/24/2021 6:00:00 PM 8.45 47.21 0.026 6.76 2.78 11.22
3/24/2021 6:15:00 PM 8.43 47.174 0.026 6.86 2.83 11.21
3/24/2021 6:30:00 PM 8.41 47.138 0.026 6.84 2.74 11.2
3/24/2021 6:45:00 PM 8.39 47.102 0.026 6.71 2.91 11.19
3/24/2021 7:00:00 PM 8.37 47.066 0.026 6.76 2.75 11.18
3/24/2021 7:15:00 PM 8.34 47.012 0.026 6.78 2.73 11.17
3/24/2021 7:30:00 PM 8.32 46.976 0.026 6.71 2.75 11.17
3/24/2021 7:45:00 PM 8.3 46.94 0.026 6.82 2.65 11.16
3/24/2021 8:00:00 PM 8.28 46.904 0.027 6.8 2.67 11.16
3/24/2021 8:15:00 PM 8.25 46.85 0.027 6.81 2.68 11.16
3/24/2021 8:30:00 PM 8.21 46.778 0.027 6.78 2.74 11.17
3/24/2021 8:45:00 PM 8.19 46.742 0.027 6.75 2.65 11.18
3/24/2021 9:00:00 PM 8.18 46.724 0.027 6.71 2.65 11.18
3/24/2021 9:15:00 PM 8.16 46.688 0.027 6.73 2.72 11.19
3/24/2021 9:30:00 PM 8.14 46.652 0.027 6.82 2.56 11.2
3/24/2021 9:45:00 PM 8.12 46.616 0.027 6.77 2.73 11.21
3/24/2021 10:00:00 PM 8.1 46.58 0.027 6.78 2.68 11.21
3/24/2021 10:15:00 PM 8.08 46.544 0.027 6.69 2.66 11.22
3/24/2021 10:30:00 PM 8.06 46.508 0.027 6.7 2.6 11.23
3/24/2021 10:45:00 PM 8.05 46.49 0.027 6.8 2.56 11.23
3/24/2021 11:00:00 PM 8.03 46.454 0.027 6.76 2.54 11.24
3/24/2021 11:15:00 PM 8.01 46.418 0.027 6.8 2.57 11.24
3/24/2021 11:30:00 PM 8 46.4 0.027 6.73 2.61 11.25
3/24/2021 11:45:00 PM 7.99 46.382 0.027 6.71 2.51 11.25
3/25/2021 12:00:00 AM 7.97 46.346 0.027 6.72 2.55 11.26
3/25/2021 12:15:00 AM 7.95 46.31 0.027 6.73 2.52 11.26
3/25/2021 12:30:00 AM 7.94 46.292 0.027 6.79 2.53 11.27
3/25/2021 12:45:00 AM 7.92 46.256 0.027 6.68 2.5 11.28
3/25/2021 1:00:00 AM 7.9 46.22 0.027 6.72 2.55 11.28
3/25/2021 1:15:00 AM 7.88 46.184 0.027 6.79 2.52 11.28
3/25/2021 1:30:00 AM 7.87 46.166 0.027 6.78 2.62 11.29
3/25/2021 1:45:00 AM 7.85 46.13 0.027 6.76 2.51 11.29
3/25/2021 2:00:00 AM 7.84 46.112 0.027 6.77 2.5 11.3
3/25/2021 2:15:00 AM 7.82 46.076 0.027 6.67 2.49 11.3
3/25/2021 2:30:00 AM 7.8 46.04 0.027 6.72 2.47 11.31
3/25/2021 2:45:00 AM 7.79 46.022 0.027 6.73 2.49 11.31
3/25/2021 3:00:00 AM 7.77 45.986 0.027 6.77 2.48 11.32
3/25/2021 3:15:00 AM 7.76 45.968 0.027 6.65 2.56 11.32
3/25/2021 3:30:00 AM 7.75 45.95 0.027 6.75 2.6 11.32
3/25/2021 3:45:00 AM 7.74 45.932 0.027 6.75 2.47 11.33
3/25/2021 4:00:00 AM 7.72 45.896 0.027 6.69 2.5 11.33
3/25/2021 4:15:00 AM 7.71 45.878 0.027 6.71 2.48 11.33
3/25/2021 4:30:00 AM 7.69 45.842 0.027 6.79 2.59 11.34
3/25/2021 4:45:00 AM 7.67 45.806 0.027 6.65 2.6 11.34
3/25/2021 5:00:00 AM 7.65 45.77 0.027 6.68 2.5 11.35
3/25/2021 5:15:00 AM 7.61 45.698 0.027 6.74 2.52 11.36
3/25/2021 5:30:00 AM 7.57 45.626 0.027 6.7 2.51 11.37
3/25/2021 5:45:00 AM 7.53 45.554 0.027 6.77 2.36 11.38
3/25/2021 6:00:00 AM 7.49 45.482 0.027 6.77 2.51 11.39
3/25/2021 6:15:00 AM 7.45 45.41 0.027 6.74 2.62 11.41
3/25/2021 6:30:00 AM 7.42 45.356 0.027 6.67 2.77 11.42
3/25/2021 6:45:00 AM 7.38 45.284 0.027 6.79 2.65 11.43
3/25/2021 7:00:00 AM 7.34 45.212 0.027 6.63 2.53 11.44
3/25/2021 7:15:00 AM 7.31 45.158 0.027 6.73 2.49 11.46
3/25/2021 7:30:00 AM 7.28 45.104 0.027 6.74 2.45 11.48
3/25/2021 7:45:00 AM 7.25 45.05 0.027 6.79 2.44 11.51
3/25/2021 8:00:00 AM 7.23 45.014 0.027 6.78 2.66 11.55
3/25/2021 8:15:00 AM 7.2 44.96 0.027 6.7 2.66 11.58
3/25/2021 8:30:00 AM 7.2 44.96 0.027 6.79 2.68 11.61
3/25/2021 8:45:00 AM 7.18 44.924 0.027 6.78 2.55 11.62
3/25/2021 9:00:00 AM 7.19 44.942 0.027 6.83 2.7 11.64
3/25/2021 9:15:00 AM 7.22 44.996 0.027 6.84 2.42 11.65
3/25/2021 9:30:00 AM 7.26 45.068 0.027 6.85 2.67 11.66
3/25/2021 9:45:00 AM 7.32 45.176 0.027 6.83 2.42 11.66
3/25/2021 10:00:00 AM 7.38 45.284 0.027 6.77 2.38 11.66
3/25/2021 10:15:00 AM 7.46 45.428 0.027 6.85 2.47 11.65
3/25/2021 10:30:00 AM 7.54 45.572 0.027 6.83 2.54 11.63
3/25/2021 10:45:00 AM 7.63 45.734 0.027 6.88 2.48 11.62
3/25/2021 11:00:00 AM 7.75 45.95 0.027 6.86 2.66 11.58
3/25/2021 11:15:00 AM 7.9 46.22 0.027 6.79 2.47 11.55
3/25/2021 11:30:00 AM 8.03 46.454 0.027 6.83 2.61 11.52
3/25/2021 11:45:00 AM 8.17 46.706 0.027 6.85 2.52 11.48
3/25/2021 12:00:00 PM 8.35 47.03 0.027 6.89 2.49 11.43
3/25/2021 12:15:00 PM 8.55 47.39 0.027 6.9 2.54 11.38
3/25/2021 12:30:00 PM 8.74 47.732 0.027 6.78 2.57 11.33
3/25/2021 12:45:00 PM 8.93 48.074 0.027 6.84 2.57 11.27
3/25/2021 1:00:00 PM 9.13 48.434 0.027 6.87 2.72 11.2
3/25/2021 1:15:00 PM 9.28 48.704 0.027 6.91 2.73 11.15
3/25/2021 1:30:00 PM 9.44 48.992 0.027 6.83 2.35 11.1
3/25/2021 1:45:00 PM 9.61 49.298 0.027 6.92 2.53 11.05
3/25/2021 2:00:00 PM 9.76 49.568 0.027 6.84 2.45 11.01
3/25/2021 2:15:00 PM 9.9 49.82 0.027 6.9 2.61 10.98
3/25/2021 2:30:00 PM 10.03 50.054 0.027 6.82 2.5 10.94
3/25/2021 2:45:00 PM 10.14 50.252 0.027 6.92 2.41 10.91
3/25/2021 3:00:00 PM 10.21 50.378 0.027 6.88 2.22 10.86
3/25/2021 3:15:00 PM 10.23 50.414 0.027 6.94 2.28 10.83
3/25/2021 3:30:00 PM 10.24 50.432 0.027 6.91 2.93 10.81
3/25/2021 3:45:00 PM 10.27 50.486 0.027 6.83 2.51 10.79
3/25/2021 4:00:00 PM 10.29 50.522 0.027 6.93 2.42 10.77
3/25/2021 4:15:00 PM 10.29 50.522 0.027 6.86 2.25 10.76
3/25/2021 4:30:00 PM 10.29 50.522 0.027 6.84 3.12 10.75
3/25/2021 4:45:00 PM 10.31 50.558 0.027 6.94 2.44 10.75
3/25/2021 5:00:00 PM 10.31 50.558 0.027 6.91 2.36 10.73
3/25/2021 5:15:00 PM 10.3 50.54 0.027 6.82 2.38 10.72
3/25/2021 5:30:00 PM 10.3 50.54 0.027 6.85 2.49 10.71
3/25/2021 5:45:00 PM 10.28 50.504 0.027 6.84 2.38 10.69
3/25/2021 6:00:00 PM 10.26 50.468 0.027 6.89 2.36 10.67
3/25/2021 6:15:00 PM 10.23 50.414 0.027 6.91 2.46 10.66
3/25/2021 6:30:00 PM 10.19 50.342 0.027 6.85 2.33 10.65
3/25/2021 6:45:00 PM 10.15 50.27 0.027 6.78 2.34 10.64
3/25/2021 7:00:00 PM 10.11 50.198 0.027 6.89 2.35 10.63
3/25/2021 7:15:00 PM 10.06 50.108 0.027 6.81 2.65 10.63
3/25/2021 7:30:00 PM 10.02 50.036 0.027 6.79 2.45 10.62
3/25/2021 7:45:00 PM 9.98 49.964 0.027 6.78 2.4 10.62
3/25/2021 8:00:00 PM 9.94 49.892 0.027 6.78 2.34 10.62
3/25/2021 8:15:00 PM 9.9 49.82 0.027 6.78 2.4 10.63
3/25/2021 8:30:00 PM 9.86 49.748 0.027 6.85 2.45 10.63
3/25/2021 8:45:00 PM 9.83 49.694 0.027 6.77 2.41 10.64
3/25/2021 9:00:00 PM 9.8 49.64 0.028 6.76 2.59 10.65
3/25/2021 9:15:00 PM 9.8 49.64 0.028 6.78 2.53 10.66
3/25/2021 9:30:00 PM 9.77 49.586 0.028 6.85 2.5 10.66
3/25/2021 9:45:00 PM 9.74 49.532 0.028 6.84 2.47 10.67
3/25/2021 10:00:00 PM 9.73 49.514 0.028 6.73 2.33 10.67
3/25/2021 10:15:00 PM 9.72 49.496 0.028 6.87 3.02 10.68
3/25/2021 10:30:00 PM 9.7 49.46 0.028 6.79 2.34 10.68
3/25/2021 10:45:00 PM 9.69 49.442 0.028 6.86 2.39 10.68
3/25/2021 11:00:00 PM 9.67 49.406 0.028 6.81 2.5 10.69
3/25/2021 11:15:00 PM 9.66 49.388 0.028 6.86 2.43 10.69
3/25/2021 11:30:00 PM 9.65 49.37 0.028 6.85 2.45 10.69
3/25/2021 11:45:00 PM 9.65 49.37 0.028 6.84 2.55 10.69
3/26/2021 12:00:00 AM 9.65 49.37 0.028 6.85 2.48 10.69
3/26/2021 12:15:00 AM 9.64 49.352 0.028 6.85 2.36 10.69
3/26/2021 12:30:00 AM 9.63 49.334 0.028 6.85 2.54 10.69
3/26/2021 12:45:00 AM 9.61 49.298 0.028 6.8 2.42 10.69
3/26/2021 1:00:00 AM 9.58 49.244 0.028 6.76 2.39 10.69
3/26/2021 1:15:00 AM 9.56 49.208 0.028 6.79 2.4 10.7
3/26/2021 1:30:00 AM 9.54 49.172 0.028 6.83 2.4 10.7
3/26/2021 1:45:00 AM 9.52 49.136 0.028 6.76 2.42 10.7
3/26/2021 2:00:00 AM 9.51 49.118 0.028 6.84 2.47 10.71
3/26/2021 2:15:00 AM 9.49 49.082 0.028 6.84 2.41 10.71
3/26/2021 2:30:00 AM 9.49 49.082 0.028 6.78 3.4 10.71
3/26/2021 2:45:00 AM 9.49 49.082 0.028 6.76 2.53 10.71
3/26/2021 3:00:00 AM 9.49 49.082 0.028 6.8 2.33 10.7
3/26/2021 3:15:00 AM 9.51 49.118 0.028 6.86 2.87 10.7
3/26/2021 3:30:00 AM 9.52 49.136 0.028 6.77 2.79 10.69
3/26/2021 3:45:00 AM 9.51 49.118 0.028 6.77 2.97 10.69
3/26/2021 4:00:00 AM 9.5 49.1 0.028 6.86 2.6 10.69
3/26/2021 4:15:00 AM 9.47 49.046 0.028 6.84 2.53 10.69
3/26/2021 4:30:00 AM 9.46 49.028 0.028 6.85 2.33 10.69
3/26/2021 4:45:00 AM 9.4 48.92 0.028 6.73 2.37 10.7
3/26/2021 5:00:00 AM 9.37 48.866 0.028 6.77 2.4 10.7
3/26/2021 5:15:00 AM 9.35 48.83 0.028 6.77 2.34 10.7
3/26/2021 5:30:00 AM 9.33 48.794 0.028 6.82 2.53 10.7
3/26/2021 5:45:00 AM 9.34 48.812 0.028 6.76 2.47 10.7
3/26/2021 6:00:00 AM 9.32 48.776 0.028 6.82 2.69 10.7
3/26/2021 6:15:00 AM 9.3 48.74 0.028 6.84 2.85 10.7
3/26/2021 6:30:00 AM 9.29 48.722 0.028 6.83 2.84 10.71
3/26/2021 6:45:00 AM 9.29 48.722 0.028 6.82 3.01 10.71
3/26/2021 7:00:00 AM 9.29 48.722 0.028 6.75 4.43 10.71
3/26/2021 7:15:00 AM 9.27 48.686 0.028 6.78 4.08 10.72
3/26/2021 7:30:00 AM 9.26 48.668 0.028 6.82 4.68 10.73
3/26/2021 7:45:00 AM 9.29 48.722 0.028 6.86 5.38 10.75
3/26/2021 8:00:00 AM 9.29 48.722 0.028 6.78 4.74 10.77
3/26/2021 8:15:00 AM 9.29 48.722 0.028 6.88 3.58 10.79
3/26/2021 8:30:00 AM 9.3 48.74 0.028 6.86 3.2 10.81
3/26/2021 8:45:00 AM 9.33 48.794 0.028 6.77 2.99 10.82
3/26/2021 9:00:00 AM 9.37 48.866 0.028 6.84 3.18 10.83
3/26/2021 9:15:00 AM 9.43 48.974 0.028 6.88 2.8 10.84
3/26/2021 9:30:00 AM 9.48 49.064 0.028 6.91 2.81 10.82
3/26/2021 9:45:00 AM 9.5 49.1 0.028 6.8 3.03 10.8
3/26/2021 10:00:00 AM 9.5 49.1 0.028 6.92 3.25 10.78
3/26/2021 10:15:00 AM 9.51 49.118 0.028 6.88 3.03 10.77
3/26/2021 10:30:00 AM 9.52 49.136 0.028 6.78 3.21 10.77
3/26/2021 10:45:00 AM 9.55 49.19 0.028 6.84 3.36 10.79
3/26/2021 11:00:00 AM 9.56 49.208 0.027 6.91 3.18 10.8
3/26/2021 11:15:00 AM 9.55 49.19 0.027 6.9 3.48 10.8
3/26/2021 11:30:00 AM 9.57 49.226 0.027 6.88 3.8 10.81
3/26/2021 11:45:00 AM 9.59 49.262 0.027 6.82 3.48 10.82
3/26/2021 12:00:00 PM 9.57 49.226 0.027 6.85 3.39 10.81
3/26/2021 12:15:00 PM 9.59 49.262 0.027 6.9 3.42 10.83
3/26/2021 12:30:00 PM 9.59 49.262 0.027 6.93 3.14 10.84
3/26/2021 12:45:00 PM 9.6 49.28 0.027 6.92 3.23 10.86
3/26/2021 1:00:00 PM 9.67 49.406 0.027 6.93 3.19 10.87
3/26/2021 1:15:00 PM 9.7 49.46 0.027 6.88 2.87 10.87
3/26/2021 1:30:00 PM 9.66 49.388 0.027 6.93 2.82 10.88
3/26/2021 1:45:00 PM 9.65 49.37 0.027 6.84 2.79 10.88
3/26/2021 2:00:00 PM 9.6 49.28 0.027 6.92 2.8 10.87
3/26/2021 2:15:00 PM 9.57 49.226 0.027 6.85 3.02 10.89
3/26/2021 2:30:00 PM 9.54 49.172 0.027 6.92 3.3 10.91
3/26/2021 2:45:00 PM 9.51 49.118 0.027 6.88 3.02 10.93
3/26/2021 3:00:00 PM 9.47 49.046 0.027 6.82 3.09 10.94
3/26/2021 3:15:00 PM 9.43 48.974 0.027 6.86 2.75 10.96
3/26/2021 3:30:00 PM 9.41 48.938 0.027 6.86 2.74 10.98
3/26/2021 3:45:00 PM 9.35 48.83 0.027 6.85 3.43 10.99
3/26/2021 4:00:00 PM 9.31 48.758 0.027 6.91 2.7 11
3/26/2021 4:15:00 PM 9.29 48.722 0.027 6.91 2.65 11.02
3/26/2021 4:30:00 PM 9.25 48.65 0.027 6.82 3.16 11.03
3/26/2021 4:45:00 PM 9.21 48.578 0.027 6.86 2.66 11.05
3/26/2021 5:00:00 PM 9.18 48.524 0.027 6.86 2.88 11.06
3/26/2021 5:15:00 PM 9.14 48.452 0.027 6.91 2.66 11.06
3/26/2021 5:30:00 PM 9.09 48.362 0.027 6.9 2.65 11.06
3/26/2021 5:45:00 PM 9.03 48.254 0.027 6.9 2.97 11.06
3/26/2021 6:00:00 PM 8.98 48.164 0.027 6.89 2.87 11.07
3/26/2021 6:15:00 PM 8.94 48.092 0.027 6.77 2.85 11.07
3/26/2021 6:30:00 PM 8.89 48.002 0.027 6.83 2.51 11.08
3/26/2021 6:45:00 PM 8.84 47.912 0.027 6.82 2.93 11.08
3/26/2021 7:00:00 PM 8.79 47.822 0.027 6.84 2.67 11.07
3/26/2021 7:15:00 PM 8.74 47.732 0.028 6.81 2.5 11.06
3/26/2021 7:30:00 PM 8.69 47.642 0.028 6.87 2.51 11.06
3/26/2021 7:45:00 PM 8.65 47.57 0.028 6.73 2.61 11.05
3/26/2021 8:00:00 PM 8.6 47.48 0.028 6.83 2.47 11.05
3/26/2021 8:15:00 PM 8.57 47.426 0.028 6.74 2.43 11.06
3/26/2021 8:30:00 PM 8.53 47.354 0.028 6.85 2.56 11.07
3/26/2021 8:45:00 PM 8.49 47.282 0.028 6.84 3.19 11.08
3/26/2021 9:00:00 PM 8.46 47.228 0.028 6.7 2.53 11.09
3/26/2021 9:15:00 PM 8.43 47.174 0.028 6.76 2.49 11.1
3/26/2021 9:30:00 PM 8.4 47.12 0.028 6.78 2.5 11.11
3/26/2021 9:45:00 PM 8.37 47.066 0.028 6.83 2.53 11.12
3/26/2021 10:00:00 PM 8.34 47.012 0.028 6.82 2.43 11.13
3/26/2021 10:15:00 PM 8.31 46.958 0.028 6.75 2.57 11.14
3/26/2021 10:30:00 PM 8.28 46.904 0.028 6.72 2.46 11.14
3/26/2021 10:45:00 PM 8.25 46.85 0.028 6.77 2.37 11.15
3/26/2021 11:00:00 PM 8.23 46.814 0.028 6.79 2.34 11.16
3/26/2021 11:15:00 PM 8.2 46.76 0.028 6.73 2.52 11.17
3/26/2021 11:30:00 PM 8.17 46.706 0.028 6.83 2.43 11.17
3/26/2021 11:45:00 PM 8.15 46.67 0.028 6.8 2.41 11.19
3/27/2021 12:00:00 AM 8.13 46.634 0.028 6.82 2.49 11.19
3/27/2021 12:15:00 AM 8.1 46.58 0.028 6.74 2.51 11.2
3/27/2021 12:30:00 AM 8.08 46.544 0.028 6.73 2.41 11.21
3/27/2021 12:45:00 AM 8.06 46.508 0.028 6.83 2.54 11.21
3/27/2021 1:00:00 AM 8.03 46.454 0.028 6.74 2.43 11.22
3/27/2021 1:15:00 AM 8.01 46.418 0.028 6.8 2.35 11.23
3/27/2021 1:30:00 AM 7.99 46.382 0.028 6.75 2.54 11.24
3/27/2021 1:45:00 AM 7.97 46.346 0.028 6.78 2.38 11.25
3/27/2021 2:00:00 AM 7.95 46.31 0.028 6.74 2.44 11.25
3/27/2021 2:15:00 AM 7.93 46.274 0.028 6.81 2.35 11.26
3/27/2021 2:30:00 AM 7.91 46.238 0.028 6.83 2.28 11.27
3/27/2021 2:45:00 AM 7.89 46.202 0.028 6.74 2.39 11.27
3/27/2021 3:00:00 AM 7.87 46.166 0.028 6.73 2.32 11.28
3/27/2021 3:15:00 AM 7.84 46.112 0.028 6.71 2.44 11.29
3/27/2021 3:30:00 AM 7.82 46.076 0.028 6.82 2.32 11.3
3/27/2021 3:45:00 AM 7.8 46.04 0.028 6.7 2.43 11.3
3/27/2021 4:00:00 AM 7.79 46.022 0.028 6.72 2.44 11.31
3/27/2021 4:15:00 AM 7.77 45.986 0.028 6.73 2.23 11.31
3/27/2021 4:30:00 AM 7.75 45.95 0.028 6.8 2.32 11.32
3/27/2021 4:45:00 AM 7.73 45.914 0.028 6.78 2.39 11.33
3/27/2021 5:00:00 AM 7.72 45.896 0.028 6.75 2.26 11.34
3/27/2021 5:15:00 AM 7.7 45.86 0.028 6.71 2.29 11.34
3/27/2021 5:30:00 AM 7.67 45.806 0.028 6.79 2.27 11.35
3/27/2021 5:45:00 AM 7.65 45.77 0.028 6.82 2.39 11.36
3/27/2021 6:00:00 AM 7.64 45.752 0.028 6.71 2.36 11.36
3/27/2021 6:15:00 AM 7.62 45.716 0.028 6.81 2.33 11.37
3/27/2021 6:30:00 AM 7.6 45.68 0.028 6.78 2.44 11.38
3/27/2021 6:45:00 AM 7.58 45.644 0.028 6.8 2.23 11.38
3/27/2021 7:00:00 AM 7.56 45.608 0.028 6.8 2.26 11.39
3/27/2021 7:15:00 AM 7.54 45.572 0.028 6.8 2.35 11.41
3/27/2021 7:30:00 AM 7.53 45.554 0.028 6.77 2.3 11.43
3/27/2021 7:45:00 AM 7.52 45.536 0.028 6.71 2.18 11.45
3/27/2021 8:00:00 AM 7.52 45.536 0.028 6.84 2.29 11.48
3/27/2021 8:15:00 AM 7.52 45.536 0.028 6.73 2.17 11.51
3/27/2021 8:30:00 AM 7.54 45.572 0.028 6.75 2.28 11.54
3/27/2021 8:45:00 AM 7.55 45.59 0.028 6.85 2.26 11.56
3/27/2021 9:00:00 AM 7.56 45.608 0.028 6.86 2.34 11.57
3/27/2021 9:15:00 AM 7.61 45.698 0.028 6.74 2.17 11.58
3/27/2021 9:30:00 AM 7.63 45.734 0.028 6.83 2.2 11.57
3/27/2021 9:45:00 AM 7.65 45.77 0.028 6.9 2.27 11.57
3/27/2021 10:00:00 AM 7.7 45.86 0.028 6.89 2.15 11.56
3/27/2021 10:15:00 AM 7.73 45.914 0.028 6.82 2.21 11.56
3/27/2021 10:30:00 AM 7.84 46.112 0.028 6.92 2.34 11.56
3/27/2021 10:45:00 AM 7.94 46.292 0.028 6.9 2.21 11.53
3/27/2021 11:00:00 AM 8.01 46.418 0.028 6.89 2.13 11.52
3/27/2021 11:15:00 AM 8.09 46.562 0.028 6.76 2.23 11.48
3/27/2021 11:30:00 AM 8.11 46.598 0.028 6.93 2.13 11.46
3/27/2021 11:45:00 AM 8.21 46.778 0.028 6.77 2.19 11.43
3/27/2021 12:00:00 PM 8.35 47.03 0.028 6.91 2.13 11.4
3/27/2021 12:15:00 PM 8.48 47.264 0.028 6.86 2.3 11.37
3/27/2021 12:30:00 PM 8.62 47.516 0.028 6.9 2.24 11.33
3/27/2021 12:45:00 PM 8.79 47.822 0.028 6.89 2.16 11.29
3/27/2021 1:00:00 PM 9 48.2 0.028 6.92 2.14 11.25
3/27/2021 1:15:00 PM 9.17 48.506 0.028 6.79 2.13 11.21
3/27/2021 1:30:00 PM 9.28 48.704 0.028 6.88 2.16 11.17
3/27/2021 1:45:00 PM 9.44 48.992 0.028 6.89 2.21 11.13
3/27/2021 2:00:00 PM 9.6 49.28 0.028 6.94 2.25 11.09
3/27/2021 2:15:00 PM 9.74 49.532 0.028 6.93 2.1 11.04
3/27/2021 2:30:00 PM 9.86 49.748 0.028 6.89 2.22 11
3/27/2021 2:45:00 PM 9.94 49.892 0.028 6.89 2.23 10.97
3/27/2021 3:00:00 PM 9.97 49.946 0.028 6.77 2.23 10.94
3/27/2021 3:15:00 PM 9.99 49.982 0.028 6.87 2.25 10.93
3/27/2021 3:30:00 PM 10.01 50.018 0.028 6.92 2.26 10.91
3/27/2021 3:45:00 PM 10.04 50.072 0.028 6.85 2.25 10.9
3/27/2021 4:00:00 PM 10.04 50.072 0.028 6.86 2.35 10.89
3/27/2021 4:15:00 PM 10.04 50.072 0.028 6.77 2.39 10.88
3/27/2021 4:30:00 PM 10.05 50.09 0.028 6.92 2.4 10.88
3/27/2021 4:45:00 PM 10.04 50.072 0.028 6.82 2.27 10.87
3/27/2021 5:00:00 PM 10.08 50.144 0.028 6.89 2.54 10.87
3/27/2021 5:15:00 PM 10.06 50.108 0.028 6.85 2.35 10.85
3/27/2021 5:30:00 PM 10.04 50.072 0.028 6.91 2.13 10.84
3/27/2021 5:45:00 PM 10.03 50.054 0.028 6.9 2.21 10.84
3/27/2021 6:00:00 PM 10 50 0.028 6.78 2.28 10.82
3/27/2021 6:15:00 PM 9.96 49.928 0.028 6.84 2.29 10.8
3/27/2021 6:30:00 PM 9.9 49.82 0.028 6.82 2.33 10.79
3/27/2021 6:45:00 PM 9.85 49.73 0.028 6.88 2.2 10.78
3/27/2021 7:00:00 PM 9.78 49.604 0.028 6.8 2.17 10.77
3/27/2021 7:15:00 PM 9.7 49.46 0.028 6.88 2.25 10.77
3/27/2021 7:30:00 PM 9.62 49.316 0.028 6.83 2.35 10.76
3/27/2021 7:45:00 PM 9.55 49.19 0.028 6.7 2.24 10.76
3/27/2021 8:00:00 PM 9.48 49.064 0.028 6.79 2.25 10.76
3/27/2021 8:15:00 PM 9.41 48.938 0.028 6.83 2.23 10.77
3/27/2021 8:30:00 PM 9.35 48.83 0.028 6.8 2.24 10.79
3/27/2021 8:45:00 PM 9.28 48.704 0.028 6.69 2.34 10.81
3/27/2021 9:00:00 PM 9.21 48.578 0.028 6.8 2.43 10.83
3/27/2021 9:15:00 PM 9.15 48.47 0.028 6.71 2.27 10.85
3/27/2021 9:30:00 PM 9.08 48.344 0.028 6.82 2.25 10.86
3/27/2021 9:45:00 PM 9.02 48.236 0.028 6.78 2.37 10.88
3/27/2021 10:00:00 PM 8.96 48.128 0.028 6.68 2.21 10.9
3/27/2021 10:15:00 PM 8.89 48.002 0.028 6.76 2.3 10.92
3/27/2021 10:30:00 PM 8.84 47.912 0.028 6.75 2.24 10.94
3/27/2021 10:45:00 PM 8.77 47.786 0.028 6.79 2.41 10.95
3/27/2021 11:00:00 PM 8.71 47.678 0.028 6.7 2.3 10.97
3/27/2021 11:15:00 PM 8.65 47.57 0.028 6.81 2.32 10.98
3/27/2021 11:30:00 PM 8.6 47.48 0.028 6.68 2.3 10.99
3/27/2021 11:45:00 PM 8.54 47.372 0.028 6.8 2.44 11
3/28/2021 12:00:00 AM 8.48 47.264 0.028 6.71 2.28 11.01
3/28/2021 12:15:00 AM 8.42 47.156 0.028 6.82 2.38 11.03
3/28/2021 12:30:00 AM 8.37 47.066 0.028 6.66 2.33 11.02
3/28/2021 12:45:00 AM 8.31 46.958 0.029 6.78 2.37 11.04
3/28/2021 1:00:00 AM 8.26 46.868 0.028 6.67 2.32 11.04
3/28/2021 1:15:00 AM 8.2 46.76 0.029 6.8 2.33 11.06
3/28/2021 1:30:00 AM 8.14 46.652 0.029 6.79 2.26 11.07
3/28/2021 1:45:00 AM 8.09 46.562 0.029 6.77 2.33 11.09
3/28/2021 2:00:00 AM 8.04 46.472 0.029 6.78 2.23 11.1
3/28/2021 2:15:00 AM 7.99 46.382 0.029 6.66 2.21 11.11
3/28/2021 2:30:00 AM 7.94 46.292 0.029 6.81 2.24 11.13
3/28/2021 2:45:00 AM 7.88 46.184 0.029 6.81 2.27 11.15
3/28/2021 3:00:00 AM 7.83 46.094 0.029 6.67 2.41 11.16
3/28/2021 3:15:00 AM 7.79 46.022 0.029 6.75 2.18 11.18
3/28/2021 3:30:00 AM 7.74 45.932 0.029 6.67 2.29 11.19
3/28/2021 3:45:00 AM 7.69 45.842 0.029 6.72 2.48 11.2
3/28/2021 4:00:00 AM 7.65 45.77 0.029 6.79 2.34 11.22
3/28/2021 4:15:00 AM 7.61 45.698 0.029 6.63 2.19 11.23
3/28/2021 4:30:00 AM 7.57 45.626 0.029 6.79 2.24 11.24
3/28/2021 4:45:00 AM 7.54 45.572 0.029 6.82 2.35 11.25
3/28/2021 5:00:00 AM 7.51 45.518 0.029 6.64 2.25 11.26
3/28/2021 5:15:00 AM 7.49 45.482 0.029 6.75 2.26 11.27
3/28/2021 5:30:00 AM 7.46 45.428 0.029 6.81 2.45 11.27
3/28/2021 5:45:00 AM 7.44 45.392 0.029 6.69 2.18 11.28
3/28/2021 6:00:00 AM 7.42 45.356 0.029 6.68 2.29 11.28
3/28/2021 6:15:00 AM 7.41 45.338 0.029 6.8 2.2 11.29
3/28/2021 6:30:00 AM 7.41 45.338 0.029 6.64 2.22 11.29
3/28/2021 6:45:00 AM 7.4 45.32 0.029 6.81 2.26 11.29
3/28/2021 7:00:00 AM 7.4 45.32 0.029 6.68 2.35 11.29
3/28/2021 7:15:00 AM 7.4 45.32 0.029 6.74 2.33 11.29
3/28/2021 7:30:00 AM 7.41 45.338 0.029 6.69 2.26 11.28
3/28/2021 7:45:00 AM 7.42 45.356 0.029 6.81 2.18 11.29
3/28/2021 8:00:00 AM 7.44 45.392 0.029 6.65 2.15 11.29
3/28/2021 8:15:00 AM 7.46 45.428 0.029 6.83 2.26 11.29
3/28/2021 8:30:00 AM 7.48 45.464 0.028 6.78 2.23 11.3
3/28/2021 8:45:00 AM 7.51 45.518 0.028 6.69 2.27 11.29
3/28/2021 9:00:00 AM 7.54 45.572 0.028 6.73 2.22 11.29
3/28/2021 9:15:00 AM 7.58 45.644 0.028 6.75 2.25 11.29
3/28/2021 9:30:00 AM 7.62 45.716 0.028 6.76 2.29 11.28
3/28/2021 9:45:00 AM 7.67 45.806 0.028 6.76 2.29 11.27
3/28/2021 10:00:00 AM 7.71 45.878 0.028 6.77 2.32 11.24
3/28/2021 10:15:00 AM 7.76 45.968 0.028 6.78 2.55 11.22
3/28/2021 10:30:00 AM 7.79 46.022 0.028 6.81 2.79 11.21
3/28/2021 10:45:00 AM 7.83 46.094 0.028 6.84 2.61 11.2
3/28/2021 11:00:00 AM 7.87 46.166 0.028 6.86 2.74 11.21
3/28/2021 11:15:00 AM 7.91 46.238 0.028 6.86 2.89 11.19
3/28/2021 11:30:00 AM 7.95 46.31 0.028 6.7 3.01 11.17
3/28/2021 11:45:00 AM 8.03 46.454 0.028 6.81 2.84 11.18
3/28/2021 12:00:00 PM 8.12 46.616 0.028 6.84 2.82 11.18
3/28/2021 12:15:00 PM 8.21 46.778 0.028 6.81 2.96 11.17
3/28/2021 12:30:00 PM 8.29 46.922 0.028 6.92 2.94 11.16
3/28/2021 12:45:00 PM 8.4 47.12 0.028 6.9 2.88 11.14
3/28/2021 1:00:00 PM 8.48 47.264 0.028 6.92 2.82 11.11
3/28/2021 1:15:00 PM 8.54 47.372 0.028 6.88 2.9 11.08
3/28/2021 1:30:00 PM 8.58 47.444 0.028 6.8 2.87 11.04
3/28/2021 1:45:00 PM 8.61 47.498 0.028 6.91 2.98 11
3/28/2021 2:00:00 PM 8.68 47.624 0.028 6.9 3.01 10.97
3/28/2021 2:15:00 PM 8.7 47.66 0.028 6.8 3.26 10.97
3/28/2021 2:30:00 PM 8.72 47.696 0.028 6.88 3.21 10.98
3/28/2021 2:45:00 PM 8.74 47.732 0.028 6.86 3.47 10.98
3/28/2021 3:00:00 PM 8.76 47.768 0.028 6.91 3.51 10.98
3/28/2021 3:15:00 PM 8.75 47.75 0.028 6.79 4.69 10.96
3/28/2021 3:30:00 PM 8.77 47.786 0.028 6.91 4.76 10.97
3/28/2021 3:45:00 PM 8.77 47.786 0.028 6.89 5.13 10.96
3/28/2021 4:00:00 PM 8.77 47.786 0.028 6.88 5.77 10.97
3/28/2021 4:15:00 PM 8.77 47.786 0.028 6.82 5.44 10.99
3/28/2021 4:30:00 PM 8.77 47.786 0.028 6.84 5.86 11
3/28/2021 4:45:00 PM 8.85 47.93 0.027 6.86 6.52 11.02
3/28/2021 5:00:00 PM 8.79 47.822 0.027 6.84 5.92 11.03
3/28/2021 5:15:00 PM 8.78 47.804 0.027 6.91 6.11 11.02
3/28/2021 5:30:00 PM 8.78 47.804 0.027 6.87 6.73 11.02
3/28/2021 5:45:00 PM 8.78 47.804 0.027 6.81 6.34 11.03
3/28/2021 6:00:00 PM 8.75 47.75 0.027 6.85 5.97 11.02
3/28/2021 6:15:00 PM 8.71 47.678 0.027 6.87 6.28 11.01
3/28/2021 6:30:00 PM 8.7 47.66 0.027 6.82 6.96 11.02
3/28/2021 6:45:00 PM 8.65 47.57 0.027 6.86 6.71 11
3/28/2021 7:00:00 PM 8.6 47.48 0.027 6.84 6.59 10.98
3/28/2021 7:15:00 PM 8.56 47.408 0.027 6.84 7.26 10.97
3/28/2021 7:30:00 PM 8.49 47.282 0.026 6.83 6.93 10.98
3/28/2021 7:45:00 PM 8.44 47.192 0.026 6.77 7.89 10.98
3/28/2021 8:00:00 PM 8.37 47.066 0.026 6.76 6.94 11
3/28/2021 8:15:00 PM 8.29 46.922 0.026 6.82 6.74 11.02
3/28/2021 8:30:00 PM 8.24 46.832 0.026 6.7 6.66 11.03
3/28/2021 8:45:00 PM 8.18 46.724 0.026 6.83 6.76 11.05
3/28/2021 9:00:00 PM 8.12 46.616 0.026 6.79 7.15 11.08
3/28/2021 9:15:00 PM 8.06 46.508 0.026 6.67 6.45 11.1
3/28/2021 9:30:00 PM 7.99 46.382 0.026 6.77 6.33 11.13
3/28/2021 9:45:00 PM 7.93 46.274 0.026 6.73 5.8 11.15
3/28/2021 10:00:00 PM 7.87 46.166 0.026 6.7 5.42 11.17
3/28/2021 10:15:00 PM 7.81 46.058 0.026 6.72 5.64 11.2
3/28/2021 10:30:00 PM 7.73 45.914 0.026 6.77 5.17 11.23
3/28/2021 10:45:00 PM -99999.99 -179968 -99999.99 -99999.99 -99999.99 -99999.99
3/28/2021 11:00:00 PM 7.59 45.662 0.026 6.78 4.93 11.27
3/28/2021 11:15:00 PM 7.52 45.536 0.026 6.79 5.21 11.3
3/28/2021 11:30:00 PM 7.46 45.428 0.026 6.78 5.48 11.32
3/28/2021 11:45:00 PM 7.4 45.32 0.026 6.67 5.52 11.35
3/29/2021 12:00:00 AM 7.34 45.212 0.026 6.79 4.22 11.37
3/29/2021 12:15:00 AM 7.28 45.104 0.026 6.8 3.88 11.39
3/29/2021 12:30:00 AM 7.22 44.996 0.026 6.77 4.2 11.41
3/29/2021 12:45:00 AM 7.17 44.906 0.026 6.65 4.11 11.43
3/29/2021 1:00:00 AM 7.12 44.816 0.026 6.8 3.64 11.44
3/29/2021 1:15:00 AM 7.07 44.726 0.026 6.77 3.53 11.46
3/29/2021 1:30:00 AM 7.02 44.636 0.026 6.63 3.56 11.48
3/29/2021 1:45:00 AM 6.97 44.546 0.026 6.73 3.45 11.49
3/29/2021 2:00:00 AM 6.91 44.438 0.026 6.71 3.5 11.51
3/29/2021 2:15:00 AM 6.89 44.402 0.026 6.77 3.42 11.52
3/29/2021 2:30:00 AM 6.84 44.312 0.026 6.76 3.33 11.54
3/29/2021 2:45:00 AM 6.79 44.222 0.026 6.79 3.42 11.55
3/29/2021 3:00:00 AM 6.73 44.114 0.026 6.77 3.4 11.57
3/29/2021 3:15:00 AM 6.66 43.988 0.026 6.74 3.45 11.59
3/29/2021 3:30:00 AM 6.6 43.88 0.026 6.68 3.2 11.62
3/29/2021 3:45:00 AM 6.53 43.754 0.026 6.73 3.12 11.64
3/29/2021 4:00:00 AM 6.48 43.664 0.026 6.67 3.34 11.66
3/29/2021 4:15:00 AM 6.43 43.574 0.026 6.79 3.18 11.68
3/29/2021 4:30:00 AM 6.41 43.538 0.026 6.74 3.19 11.7
3/29/2021 4:45:00 AM 6.35 43.43 0.026 6.66 3.18 11.72
3/29/2021 5:00:00 AM 6.3 43.34 0.026 6.74 3.32 11.74
3/29/2021 5:15:00 AM 6.27 43.286 0.026 6.69 4.56 11.75
3/29/2021 5:30:00 AM 6.24 43.232 0.026 6.77 3.14 11.77
3/29/2021 5:45:00 AM 6.2 43.16 0.026 6.7 3.05 11.79
3/29/2021 6:00:00 AM 6.16 43.088 0.026 6.79 3.07 11.8
3/29/2021 6:15:00 AM 6.12 43.016 0.026 6.72 2.95 11.83
3/29/2021 6:30:00 AM 6.07 42.926 0.026 6.67 2.96 11.85
3/29/2021 6:45:00 AM 6 42.8 0.026 6.73 3.13 11.87
3/29/2021 7:00:00 AM 5.96 42.728 0.026 6.73 3.06 11.89
3/29/2021 7:15:00 AM 5.93 42.674 0.026 6.79 3.04 11.91
3/29/2021 7:30:00 AM 5.91 42.638 0.026 6.79 2.97 11.93
3/29/2021 7:45:00 AM 5.89 42.602 0.026 6.69 2.85 11.95
3/29/2021 8:00:00 AM 5.87 42.566 0.026 6.72 2.83 11.97
3/29/2021 8:15:00 AM 5.83 42.494 0.026 6.8 2.76 12
3/29/2021 8:30:00 AM 5.81 42.458 0.026 6.77 2.96 12.04
3/29/2021 8:45:00 AM 5.8 42.44 0.026 6.76 2.78 12.06
3/29/2021 9:00:00 AM 5.79 42.422 0.026 6.79 2.82 12.08
3/29/2021 9:15:00 AM 5.78 42.404 0.026 6.71 2.81 12.1
3/29/2021 9:30:00 AM 5.78 42.404 0.026 6.81 2.65 12.11
3/29/2021 9:45:00 AM 5.78 42.404 0.026 6.82 2.65 12.13
3/29/2021 10:00:00 AM 5.76 42.368 0.026 6.81 2.73 12.13
3/29/2021 10:15:00 AM 5.76 42.368 0.026 6.77 2.65 12.15
3/29/2021 10:30:00 AM 5.77 42.386 0.026 6.76 2.62 12.17
3/29/2021 10:45:00 AM 5.79 42.422 0.026 6.84 2.78 12.18
3/29/2021 11:00:00 AM 5.8 42.44 0.026 6.75 2.61 12.19
3/29/2021 11:15:00 AM 5.82 42.476 0.026 6.8 2.9 12.19
3/29/2021 11:30:00 AM 5.84 42.512 0.026 6.84 2.73 12.2
3/29/2021 11:45:00 AM 5.89 42.602 0.026 6.82 2.61 12.19
3/29/2021 12:00:00 PM 5.95 42.71 0.026 6.74 2.77 12.19
3/29/2021 12:15:00 PM 6.05 42.89 0.026 6.78 2.76 12.18
3/29/2021 12:30:00 PM 6.19 43.142 0.026 6.85 4.11 12.15
3/29/2021 12:45:00 PM 6.24 43.232 0.026 6.82 6.18 12.13
3/29/2021 1:00:00 PM 6.29 43.322 0.026 6.82 4.76 12.1
3/29/2021 1:15:00 PM 6.38 43.484 0.026 6.81 2.76 12.07
3/29/2021 1:30:00 PM 6.42 43.556 0.026 6.79 3.01 12.05
3/29/2021 1:45:00 PM 6.57 43.826 0.026 6.83 2.71 12.01
3/29/2021 2:00:00 PM 6.73 44.114 0.026 6.76 2.57 11.98
3/29/2021 2:15:00 PM 6.95 44.51 0.026 6.86 4.56 11.9
3/29/2021 2:30:00 PM 7.18 44.924 0.026 6.75 2.57 11.83
3/29/2021 2:45:00 PM 7.33 45.194 0.026 6.86 2.45 11.78
3/29/2021 3:00:00 PM 7.45 45.41 0.026 6.77 2.5 11.74
3/29/2021 3:15:00 PM 7.57 45.626 0.026 6.8 2.49 11.71
3/29/2021 3:30:00 PM 7.67 45.806 0.026 6.87 2.64 11.67
3/29/2021 3:45:00 PM 7.72 45.896 0.026 6.86 2.57 11.64
3/29/2021 4:00:00 PM 7.74 45.932 0.026 6.86 2.41 11.63
3/29/2021 4:15:00 PM 7.76 45.968 0.026 6.81 2.34 11.62
3/29/2021 4:30:00 PM 7.74 45.932 0.026 6.77 2.45 11.61
3/29/2021 4:45:00 PM 7.71 45.878 0.026 6.85 2.39 11.61
3/29/2021 5:00:00 PM 7.66 45.788 0.026 6.86 2.49 11.61
3/29/2021 5:15:00 PM 7.62 45.716 0.026 6.82 2.57 11.61
3/29/2021 5:30:00 PM 7.57 45.626 0.026 6.77 2.49 11.61
3/29/2021 5:45:00 PM 7.52 45.536 0.026 6.79 2.68 11.61
3/29/2021 6:00:00 PM 7.48 45.464 0.026 6.82 2.52 11.6
3/29/2021 6:15:00 PM 7.44 45.392 0.026 6.85 2.45 11.6
3/29/2021 6:30:00 PM 7.39 45.302 0.026 6.82 2.5 11.59
3/29/2021 6:45:00 PM 7.33 45.194 0.026 6.84 2.56 11.59
3/29/2021 7:00:00 PM 7.25 45.05 0.027 6.7 2.59 11.59
3/29/2021 7:15:00 PM 7.18 44.924 0.027 6.76 2.72 11.59
3/29/2021 7:30:00 PM 7.11 44.798 0.027 6.82 2.54 11.6
3/29/2021 7:45:00 PM 7.05 44.69 0.027 6.82 2.49 11.6
3/29/2021 8:00:00 PM 6.98 44.564 0.027 6.79 2.51 11.61
3/29/2021 8:15:00 PM 6.91 44.438 0.027 6.69 2.47 11.62
3/29/2021 8:30:00 PM 6.85 44.33 0.027 6.74 2.71 11.64
3/29/2021 8:45:00 PM 6.78 44.204 0.027 6.79 2.59 11.66
3/29/2021 9:00:00 PM 6.72 44.096 0.027 6.72 2.63 11.69
3/29/2021 9:15:00 PM 6.65 43.97 0.027 6.73 2.61 11.71
3/29/2021 9:30:00 PM 6.58 43.844 0.027 6.75 2.52 11.73
3/29/2021 9:45:00 PM 6.52 43.736 0.027 6.79 2.51 11.76
3/29/2021 10:00:00 PM 6.46 43.628 0.027 6.71 2.66 11.78
3/29/2021 10:15:00 PM 6.39 43.502 0.027 6.8 2.54 11.8
3/29/2021 10:30:00 PM 6.33 43.394 0.027 6.8 2.45 11.83
3/29/2021 10:45:00 PM 6.28 43.304 0.027 6.78 2.5 11.85
3/29/2021 11:00:00 PM 6.22 43.196 0.027 6.72 2.52 11.87
3/29/2021 11:15:00 PM 6.16 43.088 0.027 6.71 2.54 11.89
3/29/2021 11:30:00 PM 6.1 42.98 0.027 6.8 2.56 11.92
3/29/2021 11:45:00 PM 6.05 42.89 0.027 6.72 2.78 11.93
3/30/2021 12:00:00 AM 5.99 42.782 0.027 6.77 2.47 11.96
3/30/2021 12:15:00 AM 5.93 42.674 0.027 6.78 2.56 11.98
3/30/2021 12:30:00 AM 5.88 42.584 0.027 6.68 2.68 12
3/30/2021 12:45:00 AM 5.82 42.476 0.027 6.78 2.48 12.02
3/30/2021 1:00:00 AM 5.77 42.386 0.027 6.69 2.46 12.04
3/30/2021 1:15:00 AM 5.72 42.296 0.027 6.72 2.43 12.05
3/30/2021 1:30:00 AM 5.66 42.188 0.027 6.72 2.39 12.07
3/30/2021 1:45:00 AM 5.61 42.098 0.027 6.75 2.61 12.09
3/30/2021 2:00:00 AM 5.56 42.008 0.027 6.71 2.59 12.11
3/30/2021 2:15:00 AM 5.51 41.918 0.027 6.72 2.46 12.13
3/30/2021 2:30:00 AM 5.46 41.828 0.027 6.78 2.54 12.14
3/30/2021 2:45:00 AM 5.41 41.738 0.027 6.76 2.57 12.16
3/30/2021 3:00:00 AM 5.36 41.648 0.027 6.76 2.53 12.17
3/30/2021 3:15:00 AM 5.32 41.576 0.027 6.75 2.48 12.19
3/30/2021 3:30:00 AM 5.27 41.486 0.027 6.69 2.55 12.2
3/30/2021 3:45:00 AM 5.22 41.396 0.027 6.71 2.39 12.22
3/30/2021 4:00:00 AM 5.18 41.324 0.027 6.8 2.45 12.23
3/30/2021 4:15:00 AM 5.13 41.234 0.027 6.72 2.55 12.25
3/30/2021 4:30:00 AM 5.09 41.162 0.027 6.69 2.53 12.27
3/30/2021 4:45:00 AM 5.05 41.09 0.027 6.75 2.46 12.28
3/30/2021 5:00:00 AM 5 41 0.027 6.71 2.44 12.3
3/30/2021 5:15:00 AM 4.96 40.928 0.027 6.71 2.55 12.32
3/30/2021 5:30:00 AM 4.92 40.856 0.027 6.71 2.64 12.33
3/30/2021 5:45:00 AM 4.87 40.766 0.027 6.72 2.71 12.34
3/30/2021 6:00:00 AM 4.83 40.694 0.027 6.8 2.37 12.36
3/30/2021 6:15:00 AM 4.79 40.622 0.027 6.73 2.41 12.38
3/30/2021 6:30:00 AM 4.75 40.55 0.027 6.77 2.37 12.39
3/30/2021 6:45:00 AM 4.71 40.478 0.027 6.77 2.38 12.41
3/30/2021 7:00:00 AM 4.67 40.406 0.027 6.74 2.37 12.42
3/30/2021 7:15:00 AM 4.64 40.352 0.027 6.65 2.41 12.45
3/30/2021 7:30:00 AM 4.6 40.28 0.027 6.7 2.36 12.48
3/30/2021 7:45:00 AM 4.57 40.226 0.027 6.68 2.33 12.51
3/30/2021 8:00:00 AM 4.55 40.19 0.027 6.79 2.35 12.53
3/30/2021 8:15:00 AM 4.52 40.136 0.027 6.7 2.38 12.56
3/30/2021 8:30:00 AM 4.51 40.118 0.027 6.75 2.37 12.58
3/30/2021 8:45:00 AM 4.51 40.118 0.027 6.72 2.43 12.59
3/30/2021 9:00:00 AM 4.53 40.154 0.027 6.82 2.26 12.61
3/30/2021 9:15:00 AM 4.57 40.226 0.027 6.7 2.6 12.61
3/30/2021 9:30:00 AM 4.61 40.298 0.027 6.83 2.26 12.61
3/30/2021 9:45:00 AM 4.66 40.388 0.027 6.72 2.42 12.61
3/30/2021 10:00:00 AM 4.74 40.532 0.027 6.77 2.36 12.59
3/30/2021 10:15:00 AM 4.84 40.712 0.027 6.84 2.39 12.57
3/30/2021 10:30:00 AM 4.95 40.91 0.027 6.77 2.24 12.53
3/30/2021 10:45:00 AM 5.09 41.162 0.027 6.85 2.23 12.49
3/30/2021 11:00:00 AM 5.24 41.432 0.027 6.73 2.15 12.45
3/30/2021 11:15:00 AM 5.43 41.774 0.027 6.85 2.2 12.39
3/30/2021 11:30:00 AM 5.62 42.116 0.027 6.79 2.46 12.34
3/30/2021 11:45:00 AM 5.83 42.494 0.027 6.77 2.38 12.27
3/30/2021 12:00:00 PM 6.05 42.89 0.027 6.84 2.27 12.21
3/30/2021 12:15:00 PM 6.3 43.34 0.027 6.84 2.24 12.13
3/30/2021 12:30:00 PM 6.55 43.79 0.027 6.83 2.16 12.05
3/30/2021 12:45:00 PM 6.8 44.24 0.027 6.76 2.25 11.96
3/30/2021 1:00:00 PM 7.06 44.708 0.027 6.87 2.33 11.88
3/30/2021 1:15:00 PM 7.32 45.176 0.027 6.88 2.2 11.79
3/30/2021 1:30:00 PM 7.58 45.644 0.027 6.85 2.23 11.71
3/30/2021 1:45:00 PM 7.83 46.094 0.027 6.77 2.25 11.65
3/30/2021 2:00:00 PM 8.08 46.544 0.027 6.82 2.23 11.58
3/30/2021 2:15:00 PM 8.3 46.94 0.027 6.82 2.19 11.52
3/30/2021 2:30:00 PM 8.5 47.3 0.027 6.89 2.18 11.45
3/30/2021 2:45:00 PM 8.69 47.642 0.027 6.88 2.15 11.37
3/30/2021 3:00:00 PM 8.84 47.912 0.027 6.8 2.2 11.3
3/30/2021 3:15:00 PM 8.98 48.164 0.027 6.84 2.19 11.25
3/30/2021 3:30:00 PM 9.1 48.38 0.027 6.9 2.18 11.21
3/30/2021 3:45:00 PM 9.19 48.542 0.027 6.78 2.2 11.18
3/30/2021 4:00:00 PM 9.21 48.578 0.027 6.83 2.31 11.15
3/30/2021 4:15:00 PM 9.27 48.686 0.027 6.9 2.48 11.14
3/30/2021 4:30:00 PM 9.31 48.758 0.027 6.78 2.18 11.13
3/30/2021 4:45:00 PM 9.32 48.776 0.027 6.86 2.19 11.11
3/30/2021 5:00:00 PM 9.31 48.758 0.027 6.83 2.37 11.09
3/30/2021 5:15:00 PM 9.33 48.794 0.027 6.85 2.32 11.09
3/30/2021 5:30:00 PM 9.31 48.758 0.027 6.8 2.42 11.07
3/30/2021 5:45:00 PM 9.28 48.704 0.027 6.89 2.32 11.06
3/30/2021 6:00:00 PM 9.25 48.65 0.027 6.79 2.19 11.05
3/30/2021 6:15:00 PM 9.24 48.632 0.027 6.88 2.26 11.05
3/30/2021 6:30:00 PM 9.2 48.56 0.027 6.82 2.29 11.05
3/30/2021 6:45:00 PM 9.14 48.452 0.027 6.89 2.27 11.04
3/30/2021 7:00:00 PM 9.11 48.398 0.027 6.79 2.3 11.03
3/30/2021 7:15:00 PM 9.06 48.308 0.027 6.79 2.25 11.03
3/30/2021 7:30:00 PM 9.01 48.218 0.027 6.86 2.37 11.02
3/30/2021 7:45:00 PM 8.97 48.146 0.027 6.85 2.32 11.01
3/30/2021 8:00:00 PM 8.92 48.056 0.027 6.83 2.34 11.01
3/30/2021 8:15:00 PM 8.87 47.966 0.027 6.83 2.24 11.01
3/30/2021 8:30:00 PM 8.83 47.894 0.027 6.72 2.39 11.02
3/30/2021 8:45:00 PM 8.78 47.804 0.027 6.85 2.71 11.04
3/30/2021 9:00:00 PM 8.74 47.732 0.027 6.81 2.38 11.05
3/30/2021 9:15:00 PM 8.69 47.642 0.027 6.75 2.62 11.06
3/30/2021 9:30:00 PM 8.64 47.552 0.027 6.83 2.66 11.07
3/30/2021 9:45:00 PM 8.6 47.48 0.027 6.8 2.57 11.08
3/30/2021 10:00:00 PM 8.56 47.408 0.027 6.73 2.46 11.09
3/30/2021 10:15:00 PM 8.52 47.336 0.027 6.77 2.44 11.1
3/30/2021 10:30:00 PM 8.48 47.264 0.027 6.77 2.45 11.11
3/30/2021 10:45:00 PM 8.45 47.21 0.027 6.81 2.4 11.11
3/30/2021 11:00:00 PM 8.41 47.138 0.027 6.72 2.53 11.12
3/30/2021 11:15:00 PM 8.38 47.084 0.027 6.82 2.52 11.13
3/30/2021 11:30:00 PM 8.34 47.012 0.027 6.74 2.57 11.14
3/30/2021 11:45:00 PM 8.3 46.94 0.027 6.83 2.65 11.15
3/31/2021 12:00:00 AM 8.27 46.886 0.027 6.82 2.51 11.16
3/31/2021 12:15:00 AM 8.23 46.814 0.027 6.81 2.46 11.16
3/31/2021 12:30:00 AM 8.2 46.76 0.027 6.82 2.39 11.17
3/31/2021 12:45:00 AM 8.16 46.688 0.027 6.71 2.54 11.18
3/31/2021 1:00:00 AM 8.14 46.652 0.027 6.8 2.62 11.19
3/31/2021 1:15:00 AM 8.1 46.58 0.027 6.77 2.49 11.2
3/31/2021 1:30:00 AM 8.07 46.526 0.027 6.74 2.42 11.21
3/31/2021 1:45:00 AM 8.04 46.472 0.027 6.83 2.58 11.22
3/31/2021 2:00:00 AM 8.01 46.418 0.027 6.71 2.56 11.23
3/31/2021 2:15:00 AM 7.98 46.364 0.027 6.82 2.46 11.23
3/31/2021 2:30:00 AM 7.95 46.31 0.027 6.78 2.52 11.24
3/31/2021 2:45:00 AM 7.91 46.238 0.027 6.71 2.59 11.25
3/31/2021 3:00:00 AM 7.88 46.184 0.027 6.82 2.44 11.26
3/31/2021 3:15:00 AM 7.85 46.13 0.027 6.81 2.58 11.26
3/31/2021 3:30:00 AM 7.82 46.076 0.027 6.81 2.5 11.27
3/31/2021 3:45:00 AM 7.78 46.004 0.027 6.76 2.51 11.28
3/31/2021 4:00:00 AM 7.75 45.95 0.027 6.8 2.51 11.29
3/31/2021 4:15:00 AM 7.72 45.896 0.027 6.81 2.42 11.3
3/31/2021 4:30:00 AM 7.69 45.842 0.027 6.68 2.9 11.31
3/31/2021 4:45:00 AM 7.66 45.788 0.027 6.81 2.76 11.32
3/31/2021 5:00:00 AM 7.64 45.752 0.027 6.8 2.92 11.32
3/31/2021 5:15:00 AM 7.62 45.716 0.027 6.78 3.55 11.33
3/31/2021 5:30:00 AM 7.6 45.68 0.027 6.8 2.54 11.34
3/31/2021 5:45:00 AM 7.58 45.644 0.027 6.8 2.62 11.35
3/31/2021 6:00:00 AM 7.56 45.608 0.027 6.79 2.59 11.35
3/31/2021 6:15:00 AM 7.54 45.572 0.027 6.71 2.48 11.36
3/31/2021 6:30:00 AM 7.52 45.536 0.027 6.81 2.51 11.36
3/31/2021 6:45:00 AM 7.51 45.518 0.027 6.79 2.53 11.37
3/31/2021 7:00:00 AM 7.5 45.5 0.027 6.79 2.63 11.37
3/31/2021 7:15:00 AM 7.49 45.482 0.027 6.78 2.63 11.38
3/31/2021 7:30:00 AM 7.49 45.482 0.027 6.76 2.62 11.39
3/31/2021 7:45:00 AM 7.49 45.482 0.027 6.71 2.55 11.39
3/31/2021 8:00:00 AM 7.48 45.464 0.027 6.81 2.55 11.4
3/31/2021 8:15:00 AM 7.48 45.464 0.027 6.8 2.53 11.41
3/31/2021 8:30:00 AM 7.47 45.446 0.027 6.81 2.29 11.42
3/31/2021 8:45:00 AM 7.48 45.464 0.027 6.78 2.45 11.43
3/31/2021 9:00:00 AM 7.47 45.446 0.027 6.72 2.37 11.44
3/31/2021 9:15:00 AM 7.47 45.446 0.027 6.83 2.48 11.44
3/31/2021 9:30:00 AM 7.47 45.446 0.027 6.8 2.41 11.44
3/31/2021 9:45:00 AM 7.48 45.464 0.027 6.76 2.54 11.45
3/31/2021 10:00:00 AM 7.49 45.482 0.027 6.73 2.58 11.47
3/31/2021 10:15:00 AM 7.5 45.5 0.027 6.83 2.81 11.47
3/31/2021 10:30:00 AM 7.52 45.536 0.027 6.84 2.98 11.48
3/31/2021 10:45:00 AM 7.53 45.554 0.027 6.85 3.32 11.48
3/31/2021 11:00:00 AM 7.54 45.572 0.027 6.85 3.75 11.46
3/31/2021 11:15:00 AM 7.56 45.608 0.027 6.75 3.82 11.47
3/31/2021 11:30:00 AM 7.58 45.644 0.027 6.79 4.03 11.47
3/31/2021 11:45:00 AM 7.59 45.662 0.027 6.82 3.61 11.46
3/31/2021 12:00:00 PM 7.61 45.698 0.027 6.82 3.28 11.46
3/31/2021 12:15:00 PM 7.64 45.752 0.027 6.74 3.05 11.47
3/31/2021 12:30:00 PM 7.68 45.824 0.027 6.8 3.11 11.48
3/31/2021 12:45:00 PM 7.74 45.932 0.027 6.88 3.09 11.48
3/31/2021 1:00:00 PM 7.77 45.986 0.027 6.88 3.12 11.47
3/31/2021 1:15:00 PM 7.79 46.022 0.027 6.87</